PWSweather.com
Personal Weather Stations
Station Observations
WHAKATANE1
Whakatane, WhakataneNZ

WhakataneWhakataneNZ

Lat: -37.960954, Lon: 176.9768

Elevation: 10

Station Type: Lacrosse

Latest ConditionsUpdated 10:37:00 PM GMT+12:12 Friday, Oct 31, 2014
Currently Today's Max Today's Min Today's Average
Temperature 56.5°F13.6°C 70.5°F21.4°C 40.8°F4.9°C 57.8°F14.3°C
Dew Point 49.7°F9.8°C 54.2°F12.3°C 39.3°F4.1°C 47.5°F8.6°C
Winds 9.1 mph NE14.6 kmh NE 17.1 mph NE27.5 kmh NE - 6.5 mph 10.5 kmh
Wind Gusts 13.0 mph20.9 kmh 22.8 mph36.7 kmh - -
Humidity 78% 99% 45% 72%
Pressure 29.38 in994.9 mb 29.38 in994.9 mb 29.26 in990.9 mb -
Hour Temp Dew Point Humidity Winds Wind Gusts Pressure Precip Precip Rate Daily Precip Total
10:37 PM 56.5°F13.6°C 49.7°F9.8°C 78% 9.1 mph NE14.6 kmh NE 13.0 mph20.9 kmh 29.38 in994.9 mb 0.00 in0.0 mm 0.00 in/hr0.0 mm/hr 0.00 in0.0 mm
10:36 PM 56.5°F13.6°C 49.7°F9.8°C 78% 9.5 mph NE15.3 kmh NE 13.0 mph20.9 kmh 29.38 in994.9 mb 0.00 in0.0 mm 0.00 in/hr0.0 mm/hr 0.00 in0.0 mm
10:35 PM 56.5°F13.6°C 49.7°F9.8°C 78% 9.5 mph NE15.3 kmh NE 13.0 mph20.9 kmh 29.37 in994.6 mb 0.00 in0.0 mm 0.00 in/hr0.0 mm/hr 0.00 in0.0 mm
10:34 PM 56.5°F13.6°C 49.7°F9.8°C 78% 9.5 mph ENE15.3 kmh ENE 13.0 mph20.9 kmh 29.37 in994.6 mb 0.00 in0.0 mm 0.00 in/hr0.0 mm/hr 0.00 in0.0 mm
10:33 PM 56.5°F13.6°C 49.7°F9.8°C 78% 9.3 mph ENE15.0 kmh ENE 13.0 mph20.9 kmh 29.37 in994.6 mb 0.00 in0.0 mm 0.00 in/hr0.0 mm/hr 0.00 in0.0 mm
10:32 PM 56.5°F13.6°C 49.7°F9.8°C 78% 9.0 mph ENE14.5 kmh ENE 13.0 mph20.9 kmh 29.37 in994.6 mb 0.00 in0.0 mm 0.00 in/hr0.0 mm/hr 0.00 in0.0 mm
10:31 PM 56.5°F13.6°C 49.7°F9.8°C 78% 8.9 mph ENE14.3 kmh ENE 13.0 mph20.9 kmh 29.37 in994.6 mb 0.00 in0.0 mm 0.00 in/hr0.0 mm/hr 0.00 in0.0 mm
10:30 PM 56.5°F13.6°C 49.7°F9.8°C 78% 8.3 mph ENE13.4 kmh ENE 13.0 mph20.9 kmh 29.37 in994.6 mb 0.00 in0.0 mm 0.00 in/hr0.0 mm/hr 0.00 in0.0 mm
10:29 PM 56.5°F13.6°C 49.7°F9.8°C 78% 8.0 mph ENE12.9 kmh ENE 10.7 mph17.2 kmh 29.37 in994.6 mb 0.00 in0.0 mm 0.00 in/hr0.0 mm/hr 0.00 in0.0 mm
10:28 PM 56.5°F13.6°C 49.7°F9.8°C 78% 7.9 mph NE12.7 kmh NE 10.7 mph17.2 kmh 29.37 in994.6 mb 0.00 in0.0 mm 0.00 in/hr0.0 mm/hr 0.00 in0.0 mm
10:27 PM 56.5°F13.6°C 49.7°F9.8°C 78% 8.1 mph NE13.0 kmh NE 10.7 mph17.2 kmh 29.38 in994.9 mb 0.00 in0.0 mm 0.00 in/hr0.0 mm/hr 0.00 in0.0 mm
10:26 PM 56.5°F13.6°C 49.7°F9.8°C 78% 7.9 mph NE12.7 kmh NE 9.8 mph15.8 kmh 29.38 in994.9 mb 0.00 in0.0 mm 0.00 in/hr0.0 mm/hr 0.00 in0.0 mm
10:25 PM 56.5°F13.6°C 49.7°F9.8°C 78% 7.7 mph NE12.4 kmh NE 9.8 mph15.8 kmh 29.37 in994.6 mb 0.00 in0.0 mm 0.00 in/hr0.0 mm/hr 0.00 in0.0 mm
10:24 PM 56.5°F13.6°C 49.7°F9.8°C 78% 7.8 mph NE12.6 kmh NE 9.8 mph15.8 kmh 29.37 in994.6 mb 0.00 in0.0 mm 0.00 in/hr0.0 mm/hr 0.00 in0.0 mm
10:23 PM 56.5°F13.6°C 49.7°F9.8°C 78% 7.8 mph NE12.6 kmh NE 9.8 mph15.8 kmh 29.38 in994.9 mb 0.00 in0.0 mm 0.00 in/hr0.0 mm/hr 0.00 in0.0 mm
10:22 PM 56.5°F13.6°C 49.7°F9.8°C 78% 8.1 mph NE13.0 kmh NE 12.1 mph19.5 kmh 29.37 in994.6 mb 0.00 in0.0 mm 0.00 in/hr0.0 mm/hr 0.00 in0.0 mm
10:21 PM 56.5°F13.6°C 49.7°F9.8°C 78% 8.2 mph NE13.2 kmh NE 12.1 mph19.5 kmh 29.38 in994.9 mb 0.00 in0.0 mm 0.00 in/hr0.0 mm/hr 0.00 in0.0 mm
10:20 PM 56.5°F13.6°C 49.7°F9.8°C 78% 8.5 mph NE13.7 kmh NE 12.1 mph19.5 kmh 29.37 in994.6 mb 0.00 in0.0 mm 0.00 in/hr0.0 mm/hr 0.00 in0.0 mm
10:19 PM 56.5°F13.6°C 49.7°F9.8°C 78% 8.7 mph NE14.0 kmh NE 12.1 mph19.5 kmh 29.37 in994.6 mb 0.00 in0.0 mm 0.00 in/hr0.0 mm/hr 0.00 in0.0 mm
10:18 PM 56.5°F13.6°C 49.7°F9.8°C 78% 8.6 mph NE13.8 kmh NE 12.1 mph19.5 kmh 29.37 in994.6 mb 0.00 in0.0 mm 0.00 in/hr0.0 mm/hr 0.00 in0.0 mm
10:17 PM 56.5°F13.6°C 49.7°F9.8°C 78% 8.3 mph NE13.4 kmh NE 12.1 mph19.5 kmh 29.37 in994.6 mb 0.00 in0.0 mm 0.00 in/hr0.0 mm/hr 0.00 in0.0 mm
10:16 PM 56.5°F13.6°C 49.7°F9.8°C 78% 8.0 mph NE12.9 kmh NE 12.1 mph19.5 kmh 29.37 in994.6 mb 0.00 in0.0 mm 0.00 in/hr0.0 mm/hr 0.00 in0.0 mm
10:15 PM 56.5°F13.6°C 49.7°F9.8°C 78% 7.7 mph NNE12.4 kmh NNE 12.1 mph19.5 kmh 29.37 in994.6 mb 0.00 in0.0 mm 0.00 in/hr0.0 mm/hr 0.00 in0.0 mm
10:14 PM 56.5°F13.6°C 49.7°F9.8°C 78% 7.4 mph NNE11.9 kmh NNE 12.1 mph19.5 kmh 29.37 in994.6 mb 0.00 in0.0 mm 0.00 in/hr0.0 mm/hr 0.00 in0.0 mm
10:13 PM 56.5°F13.6°C 49.7°F9.8°C 78% 7.0 mph N11.3 kmh N 12.1 mph19.5 kmh 29.37 in994.6 mb 0.00 in0.0 mm 0.00 in/hr0.0 mm/hr 0.00 in0.0 mm
10:12 PM 56.5°F13.6°C 49.7°F9.8°C 78% 6.4 mph N10.3 kmh N 12.1 mph19.5 kmh 29.37 in994.6 mb 0.00 in0.0 mm 0.00 in/hr0.0 mm/hr 0.00 in0.0 mm
10:11 PM 56.5°F13.6°C 49.7°F9.8°C 78% 6.2 mph N10.0 kmh N 10.7 mph17.2 kmh 29.37 in994.6 mb 0.00 in0.0 mm 0.00 in/hr0.0 mm/hr 0.00 in0.0 mm
10:10 PM 56.5°F13.6°C 49.7°F9.8°C 78% 5.8 mph NNW9.3 kmh NNW 10.7 mph17.2 kmh 29.37 in994.6 mb 0.00 in0.0 mm 0.00 in/hr0.0 mm/hr 0.00 in0.0 mm
10:09 PM 56.5°F13.6°C 49.7°F9.8°C 78% 5.3 mph NNW8.5 kmh NNW 7.6 mph12.2 kmh 29.37 in994.6 mb 0.00 in0.0 mm 0.00 in/hr0.0 mm/hr 0.00 in0.0 mm
10:08 PM 56.5°F13.6°C 49.7°F9.8°C 78% 5.0 mph NNW8.0 kmh NNW 7.6 mph12.2 kmh 29.37 in994.6 mb 0.00 in0.0 mm 0.00 in/hr0.0 mm/hr 0.00 in0.0 mm
10:07 PM 56.5°F13.6°C 49.7°F9.8°C 78% 4.8 mph NNW7.7 kmh NNW 6.9 mph11.1 kmh 29.37 in994.6 mb 0.00 in0.0 mm 0.00 in/hr0.0 mm/hr 0.00 in0.0 mm
10:06 PM 56.7°F13.7°C 49.9°F9.9°C 78% 4.7 mph NNW7.6 kmh NNW 6.9 mph11.1 kmh 29.37 in994.6 mb 0.00 in0.0 mm 0.00 in/hr0.0 mm/hr 0.00 in0.0 mm
10:05 PM 56.7°F13.7°C 49.9°F9.9°C 78% 4.9 mph NNW7.9 kmh NNW 7.6 mph12.2 kmh 29.37 in994.6 mb 0.00 in0.0 mm 0.00 in/hr0.0 mm/hr 0.00 in0.0 mm
10:04 PM 56.7°F13.7°C 49.9°F9.9°C 78% 5.2 mph N8.4 kmh N 9.2 mph14.8 kmh 29.37 in994.6 mb 0.00 in0.0 mm 0.00 in/hr0.0 mm/hr 0.00 in0.0 mm
10:03 PM 56.7°F13.7°C 49.9°F9.9°C 78% 5.4 mph N8.7 kmh N 9.2 mph14.8 kmh 29.37 in994.6 mb 0.00 in0.0 mm 0.00 in/hr0.0 mm/hr 0.00 in0.0 mm
10:02 PM 56.7°F13.7°C 49.9°F9.9°C 78% 5.7 mph N9.2 kmh N 9.2 mph14.8 kmh 29.37 in994.6 mb 0.00 in0.0 mm 0.00 in/hr0.0 mm/hr 0.00 in0.0 mm
10:01 PM 56.7°F13.7°C 49.9°F9.9°C 78% 5.5 mph N8.9 kmh N 9.2 mph14.8 kmh 29.37 in994.6 mb 0.00 in0.0 mm 0.00 in/hr0.0 mm/hr 0.00 in0.0 mm
10:00 PM 56.7°F13.7°C 49.9°F9.9°C 78% 5.6 mph N9.0 kmh N 9.2 mph14.8 kmh 29.37 in994.6 mb 0.00 in0.0 mm 0.00 in/hr0.0 mm/hr 0.00 in0.0 mm
09:59 PM 56.7°F13.7°C 49.9°F9.9°C 78% 5.7 mph NNE9.2 kmh NNE 9.2 mph14.8 kmh 29.37 in994.6 mb 0.00 in0.0 mm 0.00 in/hr0.0 mm/hr 0.00 in0.0 mm
09:58 PM 56.7°F13.7°C 49.9°F9.9°C 78% 6.0 mph NNE9.7 kmh NNE 9.2 mph14.8 kmh 29.37 in994.6 mb 0.00 in0.0 mm 0.00 in/hr0.0 mm/hr 0.00 in0.0 mm
09:57 PM 56.7°F13.7°C 49.9°F9.9°C 78% 6.3 mph NNE10.1 kmh NNE 9.2 mph14.8 kmh 29.37 in994.6 mb 0.00 in0.0 mm 0.00 in/hr0.0 mm/hr 0.00 in0.0 mm
09:56 PM 56.8°F13.8°C 50.1°F10.1°C 78% 6.4 mph NNE10.3 kmh NNE 9.2 mph14.8 kmh 29.37 in994.6 mb 0.00 in0.0 mm 0.00 in/hr0.0 mm/hr 0.00 in0.0 mm
09:55 PM 56.8°F13.8°C 50.1°F10.1°C 78% 6.2 mph NNE10.0 kmh NNE 9.2 mph14.8 kmh 29.37 in994.6 mb 0.00 in0.0 mm 0.00 in/hr0.0 mm/hr 0.00 in0.0 mm
09:54 PM 56.8°F13.8°C 50.1°F10.1°C 78% 6.2 mph N10.0 kmh N 9.2 mph14.8 kmh 29.37 in994.6 mb 0.00 in0.0 mm 0.00 in/hr0.0 mm/hr 0.00 in0.0 mm
09:53 PM 56.8°F13.8°C 50.1°F10.1°C 78% 6.0 mph NNE9.7 kmh NNE 8.3 mph13.4 kmh 29.37 in994.6 mb 0.00 in0.0 mm 0.00 in/hr0.0 mm/hr 0.00 in0.0 mm
09:52 PM 56.8°F13.8°C 50.1°F10.1°C 78% 6.1 mph N9.8 kmh N 8.3 mph13.4 kmh 29.37 in994.6 mb 0.00 in0.0 mm 0.00 in/hr0.0 mm/hr 0.00 in0.0 mm
09:51 PM 56.8°F13.8°C 50.1°F10.1°C 78% 6.2 mph N10.0 kmh N 8.3 mph13.4 kmh 29.37 in994.6 mb 0.00 in0.0 mm 0.00 in/hr0.0 mm/hr 0.00 in0.0 mm
09:50 PM 56.8°F13.8°C 50.1°F10.1°C 78% 6.4 mph N10.3 kmh N 8.3 mph13.4 kmh 29.37 in994.6 mb 0.00 in0.0 mm 0.00 in/hr0.0 mm/hr 0.00 in0.0 mm
09:49 PM 56.8°F13.8°C 50.1°F10.1°C 78% 6.5 mph N10.5 kmh N 8.3 mph13.4 kmh 29.37 in994.6 mb 0.00 in0.0 mm 0.00 in/hr0.0 mm/hr 0.00 in0.0 mm
09:48 PM 56.8°F13.8°C 50.1°F10.1°C 78% 6.3 mph N10.1 kmh N 8.3 mph13.4 kmh 29.37 in994.6 mb 0.00 in0.0 mm 0.00 in/hr0.0 mm/hr 0.00 in0.0 mm
09:47 PM 56.8°F13.8°C 50.1°F10.1°C 78% 6.0 mph N9.7 kmh N 8.3 mph13.4 kmh 29.37 in994.6 mb 0.00 in0.0 mm 0.00 in/hr0.0 mm/hr 0.00 in0.0 mm
09:46 PM 56.8°F13.8°C 50.1°F10.1°C 78% 5.8 mph N9.3 kmh N 8.3 mph13.4 kmh 29.36 in994.2 mb 0.00 in0.0 mm 0.00 in/hr0.0 mm/hr 0.00 in0.0 mm
09:45 PM 56.8°F13.8°C 50.1°F10.1°C 78% 5.8 mph N9.3 kmh N 8.3 mph13.4 kmh 29.36 in994.2 mb 0.00 in0.0 mm 0.00 in/hr0.0 mm/hr 0.00 in0.0 mm
09:44 PM 56.8°F13.8°C 50.1°F10.1°C 78% 5.6 mph NNE9.0 kmh NNE 8.3 mph13.4 kmh 29.37 in994.6 mb 0.00 in0.0 mm 0.00 in/hr0.0 mm/hr 0.00 in0.0 mm
09:43 PM 57.0°F13.9°C 50.2°F10.1°C 78% 5.3 mph NNE8.5 kmh NNE 8.3 mph13.4 kmh 29.37 in994.6 mb 0.00 in0.0 mm 0.00 in/hr0.0 mm/hr 0.00 in0.0 mm
09:42 PM 56.8°F13.8°C 50.1°F10.1°C 78% 4.9 mph NNE7.9 kmh NNE 8.3 mph13.4 kmh 29.37 in994.6 mb 0.00 in0.0 mm 0.00 in/hr0.0 mm/hr 0.00 in0.0 mm
09:41 PM 56.8°F13.8°C 50.1°F10.1°C 78% 4.7 mph NNE7.6 kmh NNE 8.3 mph13.4 kmh 29.37 in994.6 mb 0.00 in0.0 mm 0.00 in/hr0.0 mm/hr 0.00 in0.0 mm
09:40 PM 56.8°F13.8°C 50.1°F10.1°C 78% 4.3 mph NE6.9 kmh NE 8.3 mph13.4 kmh 29.37 in994.6 mb 0.00 in0.0 mm 0.00 in/hr0.0 mm/hr 0.00 in0.0 mm
09:39 PM 56.8°F13.8°C 50.1°F10.1°C 78% 4.1 mph NE6.6 kmh NE 5.4 mph8.7 kmh 29.36 in994.2 mb 0.00 in0.0 mm 0.00 in/hr0.0 mm/hr 0.00 in0.0 mm
09:38 PM 56.8°F13.8°C 50.1°F10.1°C 78% 4.0 mph NE6.4 kmh NE 5.4 mph8.7 kmh 29.36 in994.2 mb 0.00 in0.0 mm 0.00 in/hr0.0 mm/hr 0.00 in0.0 mm
09:37 PM 56.8°F13.8°C 50.1°F10.1°C 78% 4.1 mph NE6.6 kmh NE 5.4 mph8.7 kmh 29.36 in994.2 mb 0.00 in0.0 mm 0.00 in/hr0.0 mm/hr 0.00 in0.0 mm
09:36 PM 56.8°F13.8°C 50.1°F10.1°C 78% 3.9 mph NE6.3 kmh NE 5.4 mph8.7 kmh 29.36 in994.2 mb 0.00 in0.0 mm 0.00 in/hr0.0 mm/hr 0.00 in0.0 mm
09:35 PM 56.8°F13.8°C 50.1°F10.1°C 78% 3.8 mph NE6.1 kmh NE 5.4 mph8.7 kmh 29.36 in994.2 mb 0.00 in0.0 mm 0.00 in/hr0.0 mm/hr 0.00 in0.0 mm
09:34 PM 56.8°F13.8°C 50.1°F10.1°C 78% 3.8 mph NE6.1 kmh NE 5.4 mph8.7 kmh 29.36 in994.2 mb 0.00 in0.0 mm 0.00 in/hr0.0 mm/hr 0.00 in0.0 mm
09:33 PM 57.0°F13.9°C 50.2°F10.1°C 78% 4.0 mph NE6.4 kmh NE 5.4 mph8.7 kmh 29.36 in994.2 mb 0.00 in0.0 mm 0.00 in/hr0.0 mm/hr 0.00 in0.0 mm
09:32 PM 56.8°F13.8°C 50.1°F10.1°C 78% 3.9 mph NE6.3 kmh NE 5.4 mph8.7 kmh 29.36 in994.2 mb 0.00 in0.0 mm 0.00 in/hr0.0 mm/hr 0.00 in0.0 mm
09:31 PM 56.8°F13.8°C 50.1°F10.1°C 78% 3.7 mph NE6.0 kmh NE 5.4 mph8.7 kmh 29.36 in994.2 mb 0.00 in0.0 mm 0.00 in/hr0.0 mm/hr 0.00 in0.0 mm
09:30 PM 56.8°F13.8°C 50.1°F10.1°C 78% 3.7 mph NE6.0 kmh NE 5.4 mph8.7 kmh 29.37 in994.6 mb 0.00 in0.0 mm 0.00 in/hr0.0 mm/hr 0.00 in0.0 mm
09:29 PM 56.8°F13.8°C 50.1°F10.1°C 78% 3.8 mph NE6.1 kmh NE 5.4 mph8.7 kmh 29.37 in994.6 mb 0.00 in0.0 mm 0.00 in/hr0.0 mm/hr 0.00 in0.0 mm
09:28 PM 56.8°F13.8°C 50.1°F10.1°C 78% 3.8 mph NE6.1 kmh NE 5.4 mph8.7 kmh 29.36 in994.2 mb 0.00 in0.0 mm 0.00 in/hr0.0 mm/hr 0.00 in0.0 mm
09:27 PM 56.8°F13.8°C 50.1°F10.1°C 78% 3.6 mph NE5.8 kmh NE 5.4 mph8.7 kmh 29.36 in994.2 mb 0.00 in0.0 mm 0.00 in/hr0.0 mm/hr 0.00 in0.0 mm
09:26 PM 56.8°F13.8°C 50.1°F10.1°C 78% 3.6 mph NE5.8 kmh NE 5.4 mph8.7 kmh 29.37 in994.6 mb 0.00 in0.0 mm 0.00 in/hr0.0 mm/hr 0.00 in0.0 mm
09:25 PM 56.8°F13.8°C 50.1°F10.1°C 78% 3.5 mph NE5.6 kmh NE 5.4 mph8.7 kmh 29.37 in994.6 mb 0.00 in0.0 mm 0.00 in/hr0.0 mm/hr 0.00 in0.0 mm
09:24 PM 56.8°F13.8°C 50.1°F10.1°C 78% 3.4 mph NE5.5 kmh NE 5.4 mph8.7 kmh 29.37 in994.6 mb 0.00 in0.0 mm 0.00 in/hr0.0 mm/hr 0.00 in0.0 mm
09:23 PM 56.8°F13.8°C 50.1°F10.1°C 78% 3.3 mph NE5.3 kmh NE 4.5 mph7.2 kmh 29.37 in994.6 mb 0.00 in0.0 mm 0.00 in/hr0.0 mm/hr 0.00 in0.0 mm
09:22 PM 56.8°F13.8°C 50.1°F10.1°C 78% 3.5 mph NE5.6 kmh NE 5.4 mph8.7 kmh 29.36 in994.2 mb 0.00 in0.0 mm 0.00 in/hr0.0 mm/hr 0.00 in0.0 mm
09:21 PM 56.8°F13.8°C 50.1°F10.1°C 78% 3.7 mph NE6.0 kmh NE 5.4 mph8.7 kmh 29.36 in994.2 mb 0.00 in0.0 mm 0.00 in/hr0.0 mm/hr 0.00 in0.0 mm
09:20 PM 56.8°F13.8°C 50.1°F10.1°C 78% 3.9 mph NE6.3 kmh NE 5.4 mph8.7 kmh 29.37 in994.6 mb 0.00 in0.0 mm 0.00 in/hr0.0 mm/hr 0.00 in0.0 mm
09:19 PM 56.8°F13.8°C 50.1°F10.1°C 78% 3.9 mph NE6.3 kmh NE 5.4 mph8.7 kmh 29.36 in994.2 mb 0.00 in0.0 mm 0.00 in/hr0.0 mm/hr 0.00 in0.0 mm
09:18 PM 56.8°F13.8°C 50.1°F10.1°C 78% 4.0 mph NE6.4 kmh NE 5.4 mph8.7 kmh 29.36 in994.2 mb 0.00 in0.0 mm 0.00 in/hr0.0 mm/hr 0.00 in0.0 mm
09:17 PM 56.8°F13.8°C 50.1°F10.1°C 78% 4.3 mph NNE6.9 kmh NNE 6.0 mph9.7 kmh 29.36 in994.2 mb 0.00 in0.0 mm 0.00 in/hr0.0 mm/hr 0.00 in0.0 mm
09:16 PM 56.8°F13.8°C 50.1°F10.1°C 78% 4.4 mph NNE7.1 kmh NNE 6.0 mph9.7 kmh 29.36 in994.2 mb 0.00 in0.0 mm 0.00 in/hr0.0 mm/hr 0.00 in0.0 mm
09:15 PM 56.8°F13.8°C 50.1°F10.1°C 78% 4.6 mph NNE7.4 kmh NNE 6.0 mph9.7 kmh 29.36 in994.2 mb 0.00 in0.0 mm 0.00 in/hr0.0 mm/hr 0.00 in0.0 mm
09:14 PM 56.8°F13.8°C 50.1°F10.1°C 78% 4.7 mph NE7.6 kmh NE 6.0 mph9.7 kmh 29.36 in994.2 mb 0.00 in0.0 mm 0.00 in/hr0.0 mm/hr 0.00 in0.0 mm
09:13 PM 56.8°F13.8°C 50.1°F10.1°C 78% 4.6 mph NE7.4 kmh NE 6.0 mph9.7 kmh 29.36 in994.2 mb 0.00 in0.0 mm 0.00 in/hr0.0 mm/hr 0.00 in0.0 mm
09:12 PM 56.8°F13.8°C 50.1°F10.1°C 78% 4.4 mph NE7.1 kmh NE 6.0 mph9.7 kmh 29.36 in994.2 mb 0.00 in0.0 mm 0.00 in/hr0.0 mm/hr 0.00 in0.0 mm
09:11 PM 56.8°F13.8°C 50.1°F10.1°C 78% 4.4 mph NE7.1 kmh NE 6.0 mph9.7 kmh 29.36 in994.2 mb 0.00 in0.0 mm 0.00 in/hr0.0 mm/hr 0.00 in0.0 mm
09:10 PM 56.8°F13.8°C 50.1°F10.1°C 78% 4.2 mph NE6.8 kmh NE 6.0 mph9.7 kmh 29.36 in994.2 mb 0.00 in0.0 mm 0.00 in/hr0.0 mm/hr 0.00 in0.0 mm
09:09 PM 56.8°F13.8°C 50.1°F10.1°C 78% 4.2 mph NE6.8 kmh NE 6.0 mph9.7 kmh 29.36 in994.2 mb 0.00 in0.0 mm 0.00 in/hr0.0 mm/hr 0.00 in0.0 mm
09:08 PM 56.8°F13.8°C 50.1°F10.1°C 78% 4.3 mph NE6.9 kmh NE 6.0 mph9.7 kmh 29.36 in994.2 mb 0.00 in0.0 mm 0.00 in/hr0.0 mm/hr 0.00 in0.0 mm
09:07 PM 56.8°F13.8°C 50.1°F10.1°C 78% 4.1 mph NE6.6 kmh NE 6.0 mph9.7 kmh 29.36 in994.2 mb 0.00 in0.0 mm 0.00 in/hr0.0 mm/hr 0.00 in0.0 mm
09:06 PM 56.8°F13.8°C 50.1°F10.1°C 78% 4.0 mph NE6.4 kmh NE 6.0 mph9.7 kmh 29.36 in994.2 mb 0.00 in0.0 mm 0.00 in/hr0.0 mm/hr 0.00 in0.0 mm
09:05 PM 56.8°F13.8°C 50.1°F10.1°C 78% 3.8 mph NE6.1 kmh NE 6.0 mph9.7 kmh 29.36 in994.2 mb 0.00 in0.0 mm 0.00 in/hr0.0 mm/hr 0.00 in0.0 mm
09:04 PM 56.8°F13.8°C 50.1°F10.1°C 78% 3.7 mph NE6.0 kmh NE 6.0 mph9.7 kmh 29.35 in993.9 mb 0.00 in0.0 mm 0.00 in/hr0.0 mm/hr 0.00 in0.0 mm
09:03 PM 56.8°F13.8°C 50.1°F10.1°C 78% 3.6 mph NE5.8 kmh NE 6.0 mph9.7 kmh 29.36 in994.2 mb 0.00 in0.0 mm 0.00 in/hr0.0 mm/hr 0.00 in0.0 mm
09:02 PM 56.8°F13.8°C 49.7°F9.8°C 77% 3.6 mph NE5.8 kmh NE 6.0 mph9.7 kmh 29.35 in993.9 mb 0.00 in0.0 mm 0.00 in/hr0.0 mm/hr 0.00 in0.0 mm
09:01 PM 56.8°F13.8°C 49.7°F9.8°C 77% 3.5 mph NE5.6 kmh NE 6.0 mph9.7 kmh 29.35 in993.9 mb 0.00 in0.0 mm 0.00 in/hr0.0 mm/hr 0.00 in0.0 mm
09:00 PM 56.8°F13.8°C 49.7°F9.8°C 77% 3.6 mph NE5.8 kmh NE 6.0 mph9.7 kmh 29.35 in993.9 mb 0.00 in0.0 mm 0.00 in/hr0.0 mm/hr 0.00 in0.0 mm
08:59 PM 56.8°F13.8°C 49.7°F9.8°C 77% 3.6 mph NE5.8 kmh NE 6.0 mph9.7 kmh 29.36 in994.2 mb 0.00 in0.0 mm 0.00 in/hr0.0 mm/hr 0.00 in0.0 mm
08:58 PM 56.8°F13.8°C 49.7°F9.8°C 77% 3.6 mph NNE5.8 kmh NNE 5.4 mph8.7 kmh 29.35 in993.9 mb 0.00 in0.0 mm 0.00 in/hr0.0 mm/hr 0.00 in0.0 mm
08:57 PM 57.0°F13.9°C 49.9°F9.9°C 77% 3.6 mph NNE5.8 kmh NNE 5.4 mph8.7 kmh 29.35 in993.9 mb 0.00 in0.0 mm 0.00 in/hr0.0 mm/hr 0.00 in0.0 mm
08:56 PM 57.0°F13.9°C 49.9°F9.9°C 77% 3.6 mph NNE5.8 kmh NNE 5.4 mph8.7 kmh 29.35 in993.9 mb 0.00 in0.0 mm 0.00 in/hr0.0 mm/hr 0.00 in0.0 mm
08:55 PM 57.0°F13.9°C 49.9°F9.9°C 77% 3.6 mph N5.8 kmh N 5.4 mph8.7 kmh 29.35 in993.9 mb 0.00 in0.0 mm 0.00 in/hr0.0 mm/hr 0.00 in0.0 mm
08:54 PM 57.0°F13.9°C 49.9°F9.9°C 77% 3.6 mph N5.8 kmh N 5.4 mph8.7 kmh 29.35 in993.9 mb 0.00 in0.0 mm 0.00 in/hr0.0 mm/hr 0.00 in0.0 mm
08:53 PM 57.0°F13.9°C 49.9°F9.9°C 77% 3.8 mph N6.1 kmh N 5.4 mph8.7 kmh 29.35 in993.9 mb 0.00 in0.0 mm 0.00 in/hr0.0 mm/hr 0.00 in0.0 mm
08:52 PM 57.2°F14.0°C 50.1°F10.1°C 77% 3.7 mph N6.0 kmh N 5.4 mph8.7 kmh 29.35 in993.9 mb 0.00 in0.0 mm 0.00 in/hr0.0 mm/hr 0.00 in0.0 mm
08:51 PM 57.2°F14.0°C 50.1°F10.1°C 77% 3.7 mph N6.0 kmh N 5.4 mph8.7 kmh 29.35 in993.9 mb 0.00 in0.0 mm 0.00 in/hr0.0 mm/hr 0.00 in0.0 mm
08:50 PM 57.2°F14.0°C 49.7°F9.8°C 76% 3.5 mph N5.6 kmh N 5.4 mph8.7 kmh 29.35 in993.9 mb 0.00 in0.0 mm 0.00 in/hr0.0 mm/hr 0.00 in0.0 mm
08:49 PM 57.2°F14.0°C 49.7°F9.8°C 76% 3.3 mph N5.3 kmh N 5.4 mph8.7 kmh 29.35 in993.9 mb 0.00 in0.0 mm 0.00 in/hr0.0 mm/hr 0.00 in0.0 mm
08:48 PM 57.2°F14.0°C 50.1°F10.1°C 77% 3.1 mph N5.0 kmh N 5.4 mph8.7 kmh 29.35 in993.9 mb 0.00 in0.0 mm 0.00 in/hr0.0 mm/hr 0.00 in0.0 mm
08:47 PM 57.4°F14.1°C 49.9°F9.9°C 76% 3.0 mph N4.8 kmh N 3.8 mph6.1 kmh 29.35 in993.9 mb 0.00 in0.0 mm 0.00 in/hr0.0 mm/hr 0.00 in0.0 mm
08:46 PM 57.4°F14.1°C 49.9°F9.9°C 76% 3.0 mph N4.8 kmh N 4.5 mph7.2 kmh 29.35 in993.9 mb 0.00 in0.0 mm 0.00 in/hr0.0 mm/hr 0.00 in0.0 mm
08:45 PM 57.4°F14.1°C 49.9°F9.9°C 76% 3.0 mph N4.8 kmh N 4.5 mph7.2 kmh 29.35 in993.9 mb 0.00 in0.0 mm 0.00 in/hr0.0 mm/hr 0.00 in0.0 mm
08:44 PM 57.4°F14.1°C 49.9°F9.9°C 76% 3.0 mph N4.8 kmh N 4.5 mph7.2 kmh 29.35 in993.9 mb 0.00 in0.0 mm 0.00 in/hr0.0 mm/hr 0.00 in0.0 mm
08:43 PM 57.4°F14.1°C 49.9°F9.9°C 76% 2.9 mph NNE4.7 kmh NNE 4.5 mph7.2 kmh 29.35 in993.9 mb 0.00 in0.0 mm 0.00 in/hr0.0 mm/hr 0.00 in0.0 mm
08:42 PM 57.4°F14.1°C 49.9°F9.9°C 76% 3.1 mph NNE5.0 kmh NNE 5.4 mph8.7 kmh 29.35 in993.9 mb 0.00 in0.0 mm 0.00 in/hr0.0 mm/hr 0.00 in0.0 mm
08:41 PM 57.4°F14.1°C 49.9°F9.9°C 76% 3.3 mph NNE5.3 kmh NNE 5.4 mph8.7 kmh 29.35 in993.9 mb 0.00 in0.0 mm 0.00 in/hr0.0 mm/hr 0.00 in0.0 mm
08:40 PM 57.6°F14.2°C 50.1°F10.1°C 76% 3.6 mph N5.8 kmh N 6.0 mph9.7 kmh 29.35 in993.9 mb 0.00 in0.0 mm 0.00 in/hr0.0 mm/hr 0.00 in0.0 mm
08:39 PM 57.6°F14.2°C 50.1°F10.1°C 76% 3.8 mph N6.1 kmh N 6.0 mph9.7 kmh 29.34 in993.6 mb 0.00 in0.0 mm 0.00 in/hr0.0 mm/hr 0.00 in0.0 mm
08:38 PM 57.6°F14.2°C 50.1°F10.1°C 76% 3.9 mph N6.3 kmh N 6.0 mph9.7 kmh 29.34 in993.6 mb 0.00 in0.0 mm 0.00 in/hr0.0 mm/hr 0.00 in0.0 mm
08:37 PM 57.6°F14.2°C 50.1°F10.1°C 76% 3.9 mph N6.3 kmh N 6.0 mph9.7 kmh 29.35 in993.9 mb 0.00 in0.0 mm 0.00 in/hr0.0 mm/hr 0.00 in0.0 mm
08:36 PM 57.6°F14.2°C 50.1°F10.1°C 76% 3.8 mph NNE6.1 kmh NNE 6.0 mph9.7 kmh 29.35 in993.9 mb 0.00 in0.0 mm 0.00 in/hr0.0 mm/hr 0.00 in0.0 mm
08:35 PM 57.6°F14.2°C 50.1°F10.1°C 76% 3.9 mph N6.3 kmh N 6.0 mph9.7 kmh 29.35 in993.9 mb 0.00 in0.0 mm 0.00 in/hr0.0 mm/hr 0.00 in0.0 mm
08:34 PM 57.6°F14.2°C 50.1°F10.1°C 76% 3.9 mph N6.3 kmh N 6.0 mph9.7 kmh 29.34 in993.6 mb 0.00 in0.0 mm 0.00 in/hr0.0 mm/hr 0.00 in0.0 mm
08:33 PM 57.6°F14.2°C 50.1°F10.1°C 76% 3.9 mph N6.3 kmh N 6.0 mph9.7 kmh 29.34 in993.6 mb 0.00 in0.0 mm 0.00 in/hr0.0 mm/hr 0.00 in0.0 mm
08:32 PM 57.6°F14.2°C 50.1°F10.1°C 76% 3.7 mph N6.0 kmh N 6.0 mph9.7 kmh 29.34 in993.6 mb 0.00 in0.0 mm 0.00 in/hr0.0 mm/hr 0.00 in0.0 mm
08:31 PM 57.7°F14.3°C 50.2°F10.1°C 76% 3.8 mph N6.1 kmh N 8.3 mph13.4 kmh 29.34 in993.6 mb 0.00 in0.0 mm 0.00 in/hr0.0 mm/hr 0.00 in0.0 mm
08:30 PM 57.7°F14.3°C 49.9°F9.9°C 75% 4.1 mph N6.6 kmh N 8.3 mph13.4 kmh 29.34 in993.6 mb 0.00 in0.0 mm 0.00 in/hr0.0 mm/hr 0.00 in0.0 mm
08:29 PM 57.7°F14.3°C 49.9°F9.9°C 75% 3.9 mph N6.3 kmh N 8.3 mph13.4 kmh 29.34 in993.6 mb 0.00 in0.0 mm 0.00 in/hr0.0 mm/hr 0.00 in0.0 mm
08:28 PM 57.7°F14.3°C 49.9°F9.9°C 75% 3.9 mph N6.3 kmh N 8.3 mph13.4 kmh 29.34 in993.6 mb 0.00 in0.0 mm 0.00 in/hr0.0 mm/hr 0.00 in0.0 mm
08:27 PM 57.7°F14.3°C 49.9°F9.9°C 75% 4.0 mph N6.4 kmh N 8.3 mph13.4 kmh 29.34 in993.6 mb 0.00 in0.0 mm 0.00 in/hr0.0 mm/hr 0.00 in0.0 mm
08:26 PM 57.7°F14.3°C 49.9°F9.9°C 75% 4.0 mph N6.4 kmh N 8.3 mph13.4 kmh 29.34 in993.6 mb 0.00 in0.0 mm 0.00 in/hr0.0 mm/hr 0.00 in0.0 mm
08:25 PM 57.7°F14.3°C 49.9°F9.9°C 75% 3.9 mph N6.3 kmh N 8.3 mph13.4 kmh 29.34 in993.6 mb 0.00 in0.0 mm 0.00 in/hr0.0 mm/hr 0.00 in0.0 mm
08:24 PM 57.7°F14.3°C 49.9°F9.9°C 75% 3.9 mph N6.3 kmh N 8.3 mph13.4 kmh 29.34 in993.6 mb 0.00 in0.0 mm 0.00 in/hr0.0 mm/hr 0.00 in0.0 mm
08:23 PM 57.7°F14.3°C 49.9°F9.9°C 75% 4.0 mph N6.4 kmh N 8.3 mph13.4 kmh 29.34 in993.6 mb 0.00 in0.0 mm 0.00 in/hr0.0 mm/hr 0.00 in0.0 mm
08:22 PM 57.9°F14.4°C 50.1°F10.1°C 75% 4.1 mph N6.6 kmh N 8.3 mph13.4 kmh 29.34 in993.6 mb 0.00 in0.0 mm 0.00 in/hr0.0 mm/hr 0.00 in0.0 mm
08:21 PM 57.7°F14.3°C 49.9°F9.9°C 75% 3.8 mph NNE6.1 kmh NNE 8.3 mph13.4 kmh 29.34 in993.6 mb 0.00 in0.0 mm 0.00 in/hr0.0 mm/hr 0.00 in0.0 mm
08:20 PM 57.9°F14.4°C 50.1°F10.1°C 75% 3.7 mph NNE6.0 kmh NNE 6.0 mph9.7 kmh 29.34 in993.6 mb 0.00 in0.0 mm 0.00 in/hr0.0 mm/hr 0.00 in0.0 mm
08:19 PM 57.9°F14.4°C 50.1°F10.1°C 75% 4.1 mph NE6.6 kmh NE 8.3 mph13.4 kmh 29.34 in993.6 mb 0.00 in0.0 mm 0.00 in/hr0.0 mm/hr 0.00 in0.0 mm
08:18 PM 57.9°F14.4°C 49.7°F9.8°C 74% 4.5 mph NE7.2 kmh NE 8.3 mph13.4 kmh 29.34 in993.6 mb 0.00 in0.0 mm 0.00 in/hr0.0 mm/hr 0.00 in0.0 mm
08:17 PM 57.9°F14.4°C 49.7°F9.8°C 74% 4.7 mph NE7.6 kmh NE 8.3 mph13.4 kmh 29.34 in993.6 mb 0.00 in0.0 mm 0.00 in/hr0.0 mm/hr 0.00 in0.0 mm
08:16 PM 57.9°F14.4°C 49.7°F9.8°C 74% 4.9 mph NE7.9 kmh NE 8.3 mph13.4 kmh 29.34 in993.6 mb 0.00 in0.0 mm 0.00 in/hr0.0 mm/hr 0.00 in0.0 mm
08:15 PM 57.9°F14.4°C 49.7°F9.8°C 74% 5.3 mph NE8.5 kmh NE 8.3 mph13.4 kmh 29.34 in993.6 mb 0.00 in0.0 mm 0.00 in/hr0.0 mm/hr 0.00 in0.0 mm
08:14 PM 57.9°F14.4°C 49.7°F9.8°C 74% 5.4 mph NE8.7 kmh NE 8.3 mph13.4 kmh 29.34 in993.6 mb 0.00 in0.0 mm 0.00 in/hr0.0 mm/hr 0.00 in0.0 mm
08:13 PM 57.9°F14.4°C 49.7°F9.8°C 74% 5.7 mph NE9.2 kmh NE 8.3 mph13.4 kmh 29.34 in993.6 mb 0.00 in0.0 mm 0.00 in/hr0.0 mm/hr 0.00 in0.0 mm
08:12 PM 58.1°F14.5°C 49.9°F9.9°C 74% 6.3 mph NE10.1 kmh NE 8.3 mph13.4 kmh 29.34 in993.6 mb 0.00 in0.0 mm 0.00 in/hr0.0 mm/hr 0.00 in0.0 mm
08:10 PM 58.1°F14.5°C 49.9°F9.9°C 74% 6.2 mph NE10.0 kmh NE 8.3 mph13.4 kmh 29.34 in993.6 mb 0.00 in0.0 mm 0.00 in/hr0.0 mm/hr 0.00 in0.0 mm
08:09 PM 58.1°F14.5°C 49.9°F9.9°C 74% 6.1 mph NE9.8 kmh NE 8.3 mph13.4 kmh 29.33 in993.2 mb 0.00 in0.0 mm 0.00 in/hr0.0 mm/hr 0.00 in0.0 mm
08:08 PM 58.1°F14.5°C 49.9°F9.9°C 74% 6.1 mph NE9.8 kmh NE 8.3 mph13.4 kmh 29.33 in993.2 mb 0.00 in0.0 mm 0.00 in/hr0.0 mm/hr 0.00 in0.0 mm
08:07 PM 58.1°F14.5°C 49.9°F9.9°C 74% 6.2 mph NE10.0 kmh NE 9.8 mph15.8 kmh 29.33 in993.2 mb 0.00 in0.0 mm 0.00 in/hr0.0 mm/hr 0.00 in0.0 mm
08:06 PM 58.1°F14.5°C 49.9°F9.9°C 74% 6.7 mph NE10.8 kmh NE 9.8 mph15.8 kmh 29.33 in993.2 mb 0.00 in0.0 mm 0.00 in/hr0.0 mm/hr 0.00 in0.0 mm
08:05 PM 58.1°F14.5°C 49.9°F9.9°C 74% 7.2 mph NE11.6 kmh NE 12.1 mph19.5 kmh 29.33 in993.2 mb 0.00 in0.0 mm 0.00 in/hr0.0 mm/hr 0.00 in0.0 mm
08:04 PM 58.1°F14.5°C 49.9°F9.9°C 74% 7.8 mph NE12.6 kmh NE 12.1 mph19.5 kmh 29.33 in993.2 mb 0.00 in0.0 mm 0.00 in/hr0.0 mm/hr 0.00 in0.0 mm
08:03 PM 58.3°F14.6°C 50.0°F10.0°C 74% 8.1 mph NE13.0 kmh NE 12.1 mph19.5 kmh 29.33 in993.2 mb 0.00 in0.0 mm 0.00 in/hr0.0 mm/hr 0.00 in0.0 mm
08:02 PM 58.3°F14.6°C 50.0°F10.0°C 74% 8.3 mph NE13.4 kmh NE 12.1 mph19.5 kmh 29.33 in993.2 mb 0.00 in0.0 mm 0.00 in/hr0.0 mm/hr 0.00 in0.0 mm
08:01 PM 58.3°F14.6°C 50.0°F10.0°C 74% 8.5 mph NE13.7 kmh NE 12.1 mph19.5 kmh 29.33 in993.2 mb 0.00 in0.0 mm 0.00 in/hr0.0 mm/hr 0.00 in0.0 mm
08:00 PM 58.3°F14.6°C 50.0°F10.0°C 74% 8.6 mph NE13.8 kmh NE 12.1 mph19.5 kmh 29.33 in993.2 mb 0.00 in0.0 mm 0.00 in/hr0.0 mm/hr 0.00 in0.0 mm
07:59 PM 58.3°F14.6°C 50.0°F10.0°C 74% 8.8 mph NE14.2 kmh NE 12.1 mph19.5 kmh 29.33 in993.2 mb 0.00 in0.0 mm 0.00 in/hr0.0 mm/hr 0.00 in0.0 mm
07:58 PM 58.3°F14.6°C 50.0°F10.0°C 74% 9.0 mph NE14.5 kmh NE 12.1 mph19.5 kmh 29.33 in993.2 mb 0.00 in0.0 mm 0.00 in/hr0.0 mm/hr 0.00 in0.0 mm
07:57 PM 58.5°F14.7°C 50.2°F10.1°C 74% 9.2 mph NE14.8 kmh NE 12.1 mph19.5 kmh 29.33 in993.2 mb 0.00 in0.0 mm 0.00 in/hr0.0 mm/hr 0.00 in0.0 mm
07:56 PM 58.5°F14.7°C 50.2°F10.1°C 74% 9.1 mph NE14.6 kmh NE 12.1 mph19.5 kmh 29.33 in993.2 mb 0.00 in0.0 mm 0.00 in/hr0.0 mm/hr 0.00 in0.0 mm
07:55 PM 58.5°F14.7°C 50.2°F10.1°C 74% 8.9 mph NE14.3 kmh NE 12.1 mph19.5 kmh 29.33 in993.2 mb 0.00 in0.0 mm 0.00 in/hr0.0 mm/hr 0.00 in0.0 mm
07:54 PM 58.5°F14.7°C 50.2°F10.1°C 74% 8.5 mph NE13.7 kmh NE 10.7 mph17.2 kmh 29.32 in992.9 mb 0.00 in0.0 mm 0.00 in/hr0.0 mm/hr 0.00 in0.0 mm
07:53 PM 58.5°F14.7°C 50.2°F10.1°C 74% 8.4 mph NE13.5 kmh NE 10.7 mph17.2 kmh 29.32 in992.9 mb 0.00 in0.0 mm 0.00 in/hr0.0 mm/hr 0.00 in0.0 mm
07:52 PM 58.5°F14.7°C 50.2°F10.1°C 74% 8.3 mph NNE13.4 kmh NNE 10.7 mph17.2 kmh 29.33 in993.2 mb 0.00 in0.0 mm 0.00 in/hr0.0 mm/hr 0.00 in0.0 mm
07:51 PM 58.5°F14.7°C 50.2°F10.1°C 74% 8.1 mph NE13.0 kmh NE 10.7 mph17.2 kmh 29.33 in993.2 mb 0.00 in0.0 mm 0.00 in/hr0.0 mm/hr 0.00 in0.0 mm
07:50 PM 58.5°F14.7°C 50.2°F10.1°C 74% 8.0 mph NE12.9 kmh NE 10.7 mph17.2 kmh 29.33 in993.2 mb 0.00 in0.0 mm 0.00 in/hr0.0 mm/hr 0.00 in0.0 mm
07:49 PM 58.5°F14.7°C 50.2°F10.1°C 74% 7.9 mph NE12.7 kmh NE 10.7 mph17.2 kmh 29.33 in993.2 mb 0.00 in0.0 mm 0.00 in/hr0.0 mm/hr 0.00 in0.0 mm
07:48 PM 58.5°F14.7°C 50.2°F10.1°C 74% 7.6 mph NE12.2 kmh NE 10.7 mph17.2 kmh 29.33 in993.2 mb 0.00 in0.0 mm 0.00 in/hr0.0 mm/hr 0.00 in0.0 mm
07:47 PM 58.6°F14.8°C 50.4°F10.2°C 74% 7.4 mph NE11.9 kmh NE 10.7 mph17.2 kmh 29.33 in993.2 mb 0.00 in0.0 mm 0.00 in/hr0.0 mm/hr 0.00 in0.0 mm
07:46 PM 58.6°F14.8°C 50.4°F10.2°C 74% 7.1 mph NE11.4 kmh NE 10.7 mph17.2 kmh 29.33 in993.2 mb 0.00 in0.0 mm 0.00 in/hr0.0 mm/hr 0.00 in0.0 mm
07:45 PM 58.6°F14.8°C 50.4°F10.2°C 74% 7.0 mph NE11.3 kmh NE 10.7 mph17.2 kmh 29.33 in993.2 mb 0.00 in0.0 mm 0.00 in/hr0.0 mm/hr 0.00 in0.0 mm
07:44 PM 58.6°F14.8°C 50.4°F10.2°C 74% 6.9 mph NE11.1 kmh NE 9.2 mph14.8 kmh 29.33 in993.2 mb 0.00 in0.0 mm 0.00 in/hr0.0 mm/hr 0.00 in0.0 mm
07:43 PM 58.6°F14.8°C 50.4°F10.2°C 74% 6.5 mph NE10.5 kmh NE 9.2 mph14.8 kmh 29.33 in993.2 mb 0.00 in0.0 mm 0.00 in/hr0.0 mm/hr 0.00 in0.0 mm
07:42 PM 58.6°F14.8°C 50.0°F10.0°C 73% 6.4 mph NE10.3 kmh NE 9.2 mph14.8 kmh 29.33 in993.2 mb 0.00 in0.0 mm 0.00 in/hr0.0 mm/hr 0.00 in0.0 mm
07:41 PM 58.6°F14.8°C 50.0°F10.0°C 73% 6.5 mph NE10.5 kmh NE 9.2 mph14.8 kmh 29.32 in992.9 mb 0.00 in0.0 mm 0.00 in/hr0.0 mm/hr 0.00 in0.0 mm
07:40 PM 58.8°F14.9°C 50.2°F10.1°C 73% 6.3 mph NE10.1 kmh NE 9.2 mph14.8 kmh 29.32 in992.9 mb 0.00 in0.0 mm 0.00 in/hr0.0 mm/hr 0.00 in0.0 mm
07:39 PM 58.8°F14.9°C 50.2°F10.1°C 73% 6.1 mph NE9.8 kmh NE 9.2 mph14.8 kmh 29.32 in992.9 mb 0.00 in0.0 mm 0.00 in/hr0.0 mm/hr 0.00 in0.0 mm
07:38 PM 58.8°F14.9°C 50.2°F10.1°C 73% 6.2 mph NE10.0 kmh NE 9.2 mph14.8 kmh 29.32 in992.9 mb 0.00 in0.0 mm 0.00 in/hr0.0 mm/hr 0.00 in0.0 mm
07:37 PM 58.8°F14.9°C 50.2°F10.1°C 73% 6.3 mph NE10.1 kmh NE 9.2 mph14.8 kmh 29.32 in992.9 mb 0.00 in0.0 mm 0.00 in/hr0.0 mm/hr 0.00 in0.0 mm
07:36 PM 59.0°F15.0°C 50.4°F10.2°C 73% 6.4 mph NE10.3 kmh NE 9.2 mph14.8 kmh 29.32 in992.9 mb 0.00 in0.0 mm 0.00 in/hr0.0 mm/hr 0.00 in0.0 mm
07:35 PM 59.0°F15.0°C 50.4°F10.2°C 73% 6.2 mph NE10.0 kmh NE 9.2 mph14.8 kmh 29.32 in992.9 mb 0.00 in0.0 mm 0.00 in/hr0.0 mm/hr 0.00 in0.0 mm
07:34 PM 59.0°F15.0°C 50.4°F10.2°C 73% 6.2 mph NE10.0 kmh NE 9.2 mph14.8 kmh 29.32 in992.9 mb 0.00 in0.0 mm 0.00 in/hr0.0 mm/hr 0.00 in0.0 mm
07:33 PM 59.0°F15.0°C 50.4°F10.2°C 73% 6.5 mph NE10.5 kmh NE 9.2 mph14.8 kmh 29.32 in992.9 mb 0.00 in0.0 mm 0.00 in/hr0.0 mm/hr 0.00 in0.0 mm
07:32 PM 59.0°F15.0°C 50.4°F10.2°C 73% 6.6 mph NE10.6 kmh NE 9.2 mph14.8 kmh 29.32 in992.9 mb 0.00 in0.0 mm 0.00 in/hr0.0 mm/hr 0.00 in0.0 mm
07:31 PM 59.0°F15.0°C 50.4°F10.2°C 73% 6.8 mph NE10.9 kmh NE 10.7 mph17.2 kmh 29.32 in992.9 mb 0.00 in0.0 mm 0.00 in/hr0.0 mm/hr 0.00 in0.0 mm
07:30 PM 59.2°F15.1°C 50.5°F10.3°C 73% 7.3 mph NE11.7 kmh NE 10.7 mph17.2 kmh 29.32 in992.9 mb 0.00 in0.0 mm 0.00 in/hr0.0 mm/hr 0.00 in0.0 mm
07:29 PM 59.2°F15.1°C 50.5°F10.3°C 73% 7.6 mph NE12.2 kmh NE 10.7 mph17.2 kmh 29.32 in992.9 mb 0.00 in0.0 mm 0.00 in/hr0.0 mm/hr 0.00 in0.0 mm
07:28 PM 59.2°F15.1°C 50.5°F10.3°C 73% 7.7 mph NE12.4 kmh NE 10.7 mph17.2 kmh 29.32 in992.9 mb 0.00 in0.0 mm 0.00 in/hr0.0 mm/hr 0.00 in0.0 mm
07:27 PM 59.2°F15.1°C 50.2°F10.1°C 72% 7.6 mph NE12.2 kmh NE 10.7 mph17.2 kmh 29.32 in992.9 mb 0.00 in0.0 mm 0.00 in/hr0.0 mm/hr 0.00 in0.0 mm
07:26 PM 59.2°F15.1°C 50.2°F10.1°C 72% 7.7 mph NE12.4 kmh NE 10.7 mph17.2 kmh 29.32 in992.9 mb 0.00 in0.0 mm 0.00 in/hr0.0 mm/hr 0.00 in0.0 mm
07:25 PM 59.4°F15.2°C 50.3°F10.2°C 72% 7.7 mph NE12.4 kmh NE 10.7 mph17.2 kmh 29.32 in992.9 mb 0.00 in0.0 mm 0.00 in/hr0.0 mm/hr 0.00 in0.0 mm
07:24 PM 59.4°F15.2°C 50.3°F10.2°C 72% 7.6 mph NE12.2 kmh NE 10.7 mph17.2 kmh 29.32 in992.9 mb 0.00 in0.0 mm 0.00 in/hr0.0 mm/hr 0.00 in0.0 mm
07:23 PM 59.4°F15.2°C 50.3°F10.2°C 72% 7.2 mph NE11.6 kmh NE 10.7 mph17.2 kmh 29.32 in992.9 mb 0.00 in0.0 mm 0.00 in/hr0.0 mm/hr 0.00 in0.0 mm
07:22 PM 59.4°F15.2°C 50.3°F10.2°C 72% 6.9 mph NE11.1 kmh NE 10.7 mph17.2 kmh 29.32 in992.9 mb 0.00 in0.0 mm 0.00 in/hr0.0 mm/hr 0.00 in0.0 mm
07:21 PM 59.4°F15.2°C 50.3°F10.2°C 72% 6.7 mph NE10.8 kmh NE 10.7 mph17.2 kmh 29.32 in992.9 mb 0.00 in0.0 mm 0.00 in/hr0.0 mm/hr 0.00 in0.0 mm
07:20 PM 59.5°F15.3°C 50.5°F10.3°C 72% 6.5 mph NE10.5 kmh NE 9.2 mph14.8 kmh 29.32 in992.9 mb 0.00 in0.0 mm 0.00 in/hr0.0 mm/hr 0.00 in0.0 mm
07:19 PM 59.5°F15.3°C 50.5°F10.3°C 72% 6.3 mph NE10.1 kmh NE 9.2 mph14.8 kmh 29.32 in992.9 mb 0.00 in0.0 mm 0.00 in/hr0.0 mm/hr 0.00 in0.0 mm
07:18 PM 59.5°F15.3°C 50.5°F10.3°C 72% 6.2 mph NE10.0 kmh NE 9.2 mph14.8 kmh 29.31 in992.6 mb 0.00 in0.0 mm 0.00 in/hr0.0 mm/hr 0.00 in0.0 mm
07:17 PM 59.5°F15.3°C 50.1°F10.1°C 71% 6.0 mph NE9.7 kmh NE 9.2 mph14.8 kmh 29.31 in992.6 mb 0.00 in0.0 mm 0.00 in/hr0.0 mm/hr 0.00 in0.0 mm
07:16 PM 59.7°F15.4°C 50.3°F10.2°C 71% 5.7 mph ENE9.2 kmh ENE 9.2 mph14.8 kmh 29.31 in992.6 mb 0.00 in0.0 mm 0.00 in/hr0.0 mm/hr 0.00 in0.0 mm
07:15 PM 59.7°F15.4°C 50.3°F10.2°C 71% 5.6 mph ENE9.0 kmh ENE 9.2 mph14.8 kmh 29.31 in992.6 mb 0.00 in0.0 mm 0.00 in/hr0.0 mm/hr 0.00 in0.0 mm
07:14 PM 59.7°F15.4°C 50.3°F10.2°C 71% 5.7 mph ENE9.2 kmh ENE 9.2 mph14.8 kmh 29.31 in992.6 mb 0.00 in0.0 mm 0.00 in/hr0.0 mm/hr 0.00 in0.0 mm
07:13 PM 59.7°F15.4°C 50.3°F10.2°C 71% 6.1 mph ENE9.8 kmh ENE 9.2 mph14.8 kmh 29.31 in992.6 mb 0.00 in0.0 mm 0.00 in/hr0.0 mm/hr 0.00 in0.0 mm
07:12 PM 59.9°F15.5°C 50.5°F10.3°C 71% 6.6 mph NE10.6 kmh NE 9.2 mph14.8 kmh 29.31 in992.6 mb 0.00 in0.0 mm 0.00 in/hr0.0 mm/hr 0.00 in0.0 mm
07:11 PM 59.9°F15.5°C 50.5°F10.3°C 71% 6.7 mph NE10.8 kmh NE 9.2 mph14.8 kmh 29.31 in992.6 mb 0.00 in0.0 mm 0.00 in/hr0.0 mm/hr 0.00 in0.0 mm
07:10 PM 59.9°F15.5°C 50.5°F10.3°C 71% 6.5 mph NE10.5 kmh NE 9.2 mph14.8 kmh 29.31 in992.6 mb 0.00 in0.0 mm 0.00 in/hr0.0 mm/hr 0.00 in0.0 mm
07:09 PM 59.9°F15.5°C 50.1°F10.1°C 70% 6.7 mph ENE10.8 kmh ENE 9.2 mph14.8 kmh 29.31 in992.6 mb 0.00 in0.0 mm 0.00 in/hr0.0 mm/hr 0.00 in0.0 mm
07:08 PM 60.1°F15.6°C 50.3°F10.2°C 70% 7.0 mph ENE11.3 kmh ENE 9.2 mph14.8 kmh 29.31 in992.6 mb 0.00 in0.0 mm 0.00 in/hr0.0 mm/hr 0.00 in0.0 mm
07:07 PM 60.1°F15.6°C 50.3°F10.2°C 70% 7.2 mph ENE11.6 kmh ENE 9.2 mph14.8 kmh 29.31 in992.6 mb 0.00 in0.0 mm 0.00 in/hr0.0 mm/hr 0.00 in0.0 mm
07:06 PM 60.1°F15.6°C 50.3°F10.2°C 70% 7.4 mph ENE11.9 kmh ENE 9.2 mph14.8 kmh 29.31 in992.6 mb 0.00 in0.0 mm 0.00 in/hr0.0 mm/hr 0.00 in0.0 mm
07:05 PM 60.1°F15.6°C 50.3°F10.2°C 70% 7.3 mph NE11.7 kmh NE 9.2 mph14.8 kmh 29.31 in992.6 mb 0.00 in0.0 mm 0.00 in/hr0.0 mm/hr 0.00 in0.0 mm
07:04 PM 60.1°F15.6°C 50.3°F10.2°C 70% 7.4 mph NE11.9 kmh NE 9.2 mph14.8 kmh 29.31 in992.6 mb 0.00 in0.0 mm 0.00 in/hr0.0 mm/hr 0.00 in0.0 mm
07:03 PM 60.3°F15.7°C 50.5°F10.3°C 70% 7.2 mph NE11.6 kmh NE 9.2 mph14.8 kmh 29.31 in992.6 mb 0.00 in0.0 mm 0.00 in/hr0.0 mm/hr 0.00 in0.0 mm
07:02 PM 60.3°F15.7°C 50.5°F10.3°C 70% 6.7 mph NE10.8 kmh NE 8.3 mph13.4 kmh 29.30 in992.2 mb 0.00 in0.0 mm 0.00 in/hr0.0 mm/hr 0.00 in0.0 mm
07:01 PM 60.3°F15.7°C 50.1°F10.1°C 69% 6.5 mph ENE10.5 kmh ENE 8.3 mph13.4 kmh 29.30 in992.2 mb 0.00 in0.0 mm 0.00 in/hr0.0 mm/hr 0.00 in0.0 mm
07:00 PM 60.3°F15.7°C 50.1°F10.1°C 69% 6.3 mph NE10.1 kmh NE 8.3 mph13.4 kmh 29.31 in992.6 mb 0.00 in0.0 mm 0.00 in/hr0.0 mm/hr 0.00 in0.0 mm
06:59 PM 60.3°F15.7°C 50.1°F10.1°C 69% 6.1 mph NE9.8 kmh NE 8.3 mph13.4 kmh 29.30 in992.2 mb 0.00 in0.0 mm 0.00 in/hr0.0 mm/hr 0.00 in0.0 mm
06:58 PM 60.3°F15.7°C 50.1°F10.1°C 69% 6.0 mph NE9.7 kmh NE 7.6 mph12.2 kmh 29.30 in992.2 mb 0.00 in0.0 mm 0.00 in/hr0.0 mm/hr 0.00 in0.0 mm
06:57 PM 60.3°F15.7°C 50.1°F10.1°C 69% 6.4 mph NE10.3 kmh NE 9.8 mph15.8 kmh 29.30 in992.2 mb 0.00 in0.0 mm 0.00 in/hr0.0 mm/hr 0.00 in0.0 mm
06:56 PM 60.3°F15.7°C 50.1°F10.1°C 69% 6.3 mph ENE10.1 kmh ENE 9.8 mph15.8 kmh 29.30 in992.2 mb 0.00 in0.0 mm 0.00 in/hr0.0 mm/hr 0.00 in0.0 mm
06:55 PM 60.4°F15.8°C 50.2°F10.1°C 69% 6.4 mph ENE10.3 kmh ENE 9.8 mph15.8 kmh 29.30 in992.2 mb 0.00 in0.0 mm 0.00 in/hr0.0 mm/hr 0.00 in0.0 mm
06:54 PM 60.4°F15.8°C 50.2°F10.1°C 69% 6.5 mph ENE10.5 kmh ENE 9.8 mph15.8 kmh 29.30 in992.2 mb 0.00 in0.0 mm 0.00 in/hr0.0 mm/hr 0.00 in0.0 mm
06:53 PM 60.4°F15.8°C 50.2°F10.1°C 69% 7.0 mph ENE11.3 kmh ENE 10.7 mph17.2 kmh 29.30 in992.2 mb 0.00 in0.0 mm 0.00 in/hr0.0 mm/hr 0.00 in0.0 mm
06:52 PM 60.4°F15.8°C 50.2°F10.1°C 69% 7.8 mph NE12.6 kmh NE 13.6 mph21.9 kmh 29.30 in992.2 mb 0.00 in0.0 mm 0.00 in/hr0.0 mm/hr 0.00 in0.0 mm
06:51 PM 60.4°F15.8°C 50.2°F10.1°C 69% 7.8 mph ENE12.6 kmh ENE 13.6 mph21.9 kmh 29.30 in992.2 mb 0.00 in0.0 mm 0.00 in/hr0.0 mm/hr 0.00 in0.0 mm
06:50 PM 60.4°F15.8°C 49.8°F9.9°C 68% 7.9 mph NE12.7 kmh NE 13.6 mph21.9 kmh 29.30 in992.2 mb 0.00 in0.0 mm 0.00 in/hr0.0 mm/hr 0.00 in0.0 mm
06:49 PM 60.4°F15.8°C 49.8°F9.9°C 68% 8.3 mph NE13.4 kmh NE 13.6 mph21.9 kmh 29.30 in992.2 mb 0.00 in0.0 mm 0.00 in/hr0.0 mm/hr 0.00 in0.0 mm
06:48 PM 60.6°F15.9°C 50.0°F10.0°C 68% 8.4 mph NE13.5 kmh NE 13.6 mph21.9 kmh 29.30 in992.2 mb 0.00 in0.0 mm 0.00 in/hr0.0 mm/hr 0.00 in0.0 mm
06:47 PM 60.6°F15.9°C 50.0°F10.0°C 68% 8.2 mph NE13.2 kmh NE 13.6 mph21.9 kmh 29.30 in992.2 mb 0.00 in0.0 mm 0.00 in/hr0.0 mm/hr 0.00 in0.0 mm
06:46 PM 60.6°F15.9°C 50.0°F10.0°C 68% 8.7 mph NE14.0 kmh NE 13.6 mph21.9 kmh 29.30 in992.2 mb 0.00 in0.0 mm 0.00 in/hr0.0 mm/hr 0.00 in0.0 mm
06:45 PM 60.6°F15.9°C 50.0°F10.0°C 68% 8.8 mph NE14.2 kmh NE 13.6 mph21.9 kmh 29.30 in992.2 mb 0.00 in0.0 mm 0.00 in/hr0.0 mm/hr 0.00 in0.0 mm
06:44 PM 60.6°F15.9°C 50.0°F10.0°C 68% 8.9 mph NE14.3 kmh NE 13.6 mph21.9 kmh 29.30 in992.2 mb 0.00 in0.0 mm 0.00 in/hr0.0 mm/hr 0.00 in0.0 mm
06:43 PM 60.8°F16.0°C 50.2°F10.1°C 68% 8.8 mph NE14.2 kmh NE 13.6 mph21.9 kmh 29.30 in992.2 mb 0.00 in0.0 mm 0.00 in/hr0.0 mm/hr 0.00 in0.0 mm
06:42 PM 60.8°F16.0°C 50.2°F10.1°C 68% 8.3 mph NE13.4 kmh NE 10.7 mph17.2 kmh 29.30 in992.2 mb 0.00 in0.0 mm 0.00 in/hr0.0 mm/hr 0.00 in0.0 mm
06:41 PM 60.8°F16.0°C 50.2°F10.1°C 68% 8.7 mph NE14.0 kmh NE 10.7 mph17.2 kmh 29.30 in992.2 mb 0.00 in0.0 mm 0.00 in/hr0.0 mm/hr 0.00 in0.0 mm
06:40 PM 60.8°F16.0°C 50.2°F10.1°C 68% 8.7 mph NE14.0 kmh NE 10.7 mph17.2 kmh 29.30 in992.2 mb 0.00 in0.0 mm 0.00 in/hr0.0 mm/hr 0.00 in0.0 mm
06:39 PM 60.8°F16.0°C 50.2°F10.1°C 68% 8.7 mph NE14.0 kmh NE 10.7 mph17.2 kmh 29.30 in992.2 mb 0.00 in0.0 mm 0.00 in/hr0.0 mm/hr 0.00 in0.0 mm
06:38 PM 61.0°F16.1°C 50.4°F10.2°C 68% 8.9 mph NNE14.3 kmh NNE 10.7 mph17.2 kmh 29.30 in992.2 mb 0.00 in0.0 mm 0.00 in/hr0.0 mm/hr 0.00 in0.0 mm
06:37 PM 61.0°F16.1°C 50.4°F10.2°C 68% 8.8 mph NNE14.2 kmh NNE 10.7 mph17.2 kmh 29.30 in992.2 mb 0.00 in0.0 mm 0.00 in/hr0.0 mm/hr 0.00 in0.0 mm
06:36 PM 61.0°F16.1°C 50.4°F10.2°C 68% 8.6 mph NNE13.8 kmh NNE 10.7 mph17.2 kmh 29.30 in992.2 mb 0.00 in0.0 mm 0.00 in/hr0.0 mm/hr 0.00 in0.0 mm
06:35 PM 61.0°F16.1°C 50.4°F10.2°C 68% 8.9 mph NNE14.3 kmh NNE 13.0 mph20.9 kmh 29.30 in992.2 mb 0.00 in0.0 mm 0.00 in/hr0.0 mm/hr 0.00 in0.0 mm
06:34 PM 61.0°F16.1°C 50.0°F10.0°C 67% 8.8 mph NNE14.2 kmh NNE 13.0 mph20.9 kmh 29.30 in992.2 mb 0.00 in0.0 mm 0.00 in/hr0.0 mm/hr 0.00 in0.0 mm
06:33 PM 61.2°F16.2°C 50.5°F10.3°C 68% 8.8 mph NNE14.2 kmh NNE 13.0 mph20.9 kmh 29.30 in992.2 mb 0.00 in0.0 mm 0.00 in/hr0.0 mm/hr 0.00 in0.0 mm
06:32 PM 61.2°F16.2°C 50.5°F10.3°C 68% 8.9 mph NE14.3 kmh NE 13.0 mph20.9 kmh 29.30 in992.2 mb 0.00 in0.0 mm 0.00 in/hr0.0 mm/hr 0.00 in0.0 mm
06:31 PM 61.2°F16.2°C 50.5°F10.3°C 68% 9.1 mph NE14.6 kmh NE 13.0 mph20.9 kmh 29.30 in992.2 mb 0.00 in0.0 mm 0.00 in/hr0.0 mm/hr 0.00 in0.0 mm
06:30 PM 61.2°F16.2°C 50.5°F10.3°C 68% 9.4 mph NE15.1 kmh NE 13.0 mph20.9 kmh 29.30 in992.2 mb 0.00 in0.0 mm 0.00 in/hr0.0 mm/hr 0.00 in0.0 mm
06:29 PM 61.2°F16.2°C 50.5°F10.3°C 68% 9.6 mph NE15.4 kmh NE 13.0 mph20.9 kmh 29.30 in992.2 mb 0.00 in0.0 mm 0.00 in/hr0.0 mm/hr 0.00 in0.0 mm
06:28 PM 61.2°F16.2°C 50.1°F10.1°C 67% 9.2 mph NE14.8 kmh NE 13.0 mph20.9 kmh 29.30 in992.2 mb 0.00 in0.0 mm 0.00 in/hr0.0 mm/hr 0.00 in0.0 mm
06:27 PM 61.3°F16.3°C 50.3°F10.2°C 67% 9.2 mph NE14.8 kmh NE 13.0 mph20.9 kmh 29.30 in992.2 mb 0.00 in0.0 mm 0.00 in/hr0.0 mm/hr 0.00 in0.0 mm
06:26 PM 61.3°F16.3°C 50.3°F10.2°C 67% 9.0 mph NE14.5 kmh NE 13.0 mph20.9 kmh 29.30 in992.2 mb 0.00 in0.0 mm 0.00 in/hr0.0 mm/hr 0.00 in0.0 mm
06:25 PM 61.3°F16.3°C 50.3°F10.2°C 67% 8.7 mph ENE14.0 kmh ENE 13.0 mph20.9 kmh 29.30 in992.2 mb 0.00 in0.0 mm 0.00 in/hr0.0 mm/hr 0.00 in0.0 mm
06:24 PM 61.3°F16.3°C 50.3°F10.2°C 67% 8.7 mph NE14.0 kmh NE 12.1 mph19.5 kmh 29.29 in991.9 mb 0.00 in0.0 mm 0.00 in/hr0.0 mm/hr 0.00 in0.0 mm
06:23 PM 61.3°F16.3°C 50.3°F10.2°C 67% 8.7 mph NE14.0 kmh NE 12.1 mph19.5 kmh 29.30 in992.2 mb 0.00 in0.0 mm 0.00 in/hr0.0 mm/hr 0.00 in0.0 mm
06:22 PM 61.3°F16.3°C 50.3°F10.2°C 67% 8.9 mph NE14.3 kmh NE 12.1 mph19.5 kmh 29.30 in992.2 mb 0.00 in0.0 mm 0.00 in/hr0.0 mm/hr 0.00 in0.0 mm
06:21 PM 61.3°F16.3°C 50.3°F10.2°C 67% 9.1 mph NE14.6 kmh NE 13.0 mph20.9 kmh 29.29 in991.9 mb 0.00 in0.0 mm 0.00 in/hr0.0 mm/hr 0.00 in0.0 mm
06:20 PM 61.3°F16.3°C 50.3°F10.2°C 67% 8.8 mph NE14.2 kmh NE 13.0 mph20.9 kmh 29.29 in991.9 mb 0.00 in0.0 mm 0.00 in/hr0.0 mm/hr 0.00 in0.0 mm
06:19 PM 61.5°F16.4°C 50.5°F10.3°C 67% 8.9 mph NE14.3 kmh NE 13.6 mph21.9 kmh 29.30 in992.2 mb 0.00 in0.0 mm 0.00 in/hr0.0 mm/hr 0.00 in0.0 mm
06:18 PM 61.5°F16.4°C 50.5°F10.3°C 67% 9.8 mph NE15.8 kmh NE 15.9 mph25.6 kmh 29.30 in992.2 mb 0.00 in0.0 mm 0.00 in/hr0.0 mm/hr 0.00 in0.0 mm
06:17 PM 61.5°F16.4°C 50.5°F10.3°C 67% 10.5 mph NE16.9 kmh NE 15.9 mph25.6 kmh 29.30 in992.2 mb 0.00 in0.0 mm 0.00 in/hr0.0 mm/hr 0.00 in0.0 mm
06:16 PM 61.5°F16.4°C 50.5°F10.3°C 67% 10.8 mph NE17.4 kmh NE 15.9 mph25.6 kmh 29.30 in992.2 mb 0.00 in0.0 mm 0.00 in/hr0.0 mm/hr 0.00 in0.0 mm
06:15 PM 61.5°F16.4°C 50.5°F10.3°C 67% 11.4 mph NE18.3 kmh NE 15.9 mph25.6 kmh 29.29 in991.9 mb 0.00 in0.0 mm 0.00 in/hr0.0 mm/hr 0.00 in0.0 mm
06:14 PM 61.5°F16.4°C 50.5°F10.3°C 67% 11.6 mph NE18.7 kmh NE 15.9 mph25.6 kmh 29.29 in991.9 mb 0.00 in0.0 mm 0.00 in/hr0.0 mm/hr 0.00 in0.0 mm
06:13 PM 61.5°F16.4°C 50.5°F10.3°C 67% 11.4 mph NE18.3 kmh NE 15.9 mph25.6 kmh 29.30 in992.2 mb 0.00 in0.0 mm 0.00 in/hr0.0 mm/hr 0.00 in0.0 mm
06:12 PM 61.5°F16.4°C 50.5°F10.3°C 67% 11.4 mph NE18.3 kmh NE 15.9 mph25.6 kmh 29.29 in991.9 mb 0.00 in0.0 mm 0.00 in/hr0.0 mm/hr 0.00 in0.0 mm
06:11 PM 61.7°F16.5°C 50.2°F10.1°C 66% 11.2 mph NE18.0 kmh NE 15.9 mph25.6 kmh 29.29 in991.9 mb 0.00 in0.0 mm 0.00 in/hr0.0 mm/hr 0.00 in0.0 mm
06:10 PM 61.7°F16.5°C 50.2°F10.1°C 66% 11.4 mph NE18.3 kmh NE 15.9 mph25.6 kmh 29.29 in991.9 mb 0.00 in0.0 mm 0.00 in/hr0.0 mm/hr 0.00 in0.0 mm
06:09 PM 61.7°F16.5°C 50.2°F10.1°C 66% 11.5 mph NE18.5 kmh NE 16.8 mph27.0 kmh 29.29 in991.9 mb 0.00 in0.0 mm 0.00 in/hr0.0 mm/hr 0.00 in0.0 mm
06:08 PM 61.7°F16.5°C 50.2°F10.1°C 66% 11.7 mph NE18.8 kmh NE 18.3 mph29.5 kmh 29.29 in991.9 mb 0.00 in0.0 mm 0.00 in/hr0.0 mm/hr 0.00 in0.0 mm
06:07 PM 61.9°F16.6°C 50.4°F10.2°C 66% 11.9 mph ENE19.2 kmh ENE 18.3 mph29.5 kmh 29.29 in991.9 mb 0.00 in0.0 mm 0.00 in/hr0.0 mm/hr 0.00 in0.0 mm
06:06 PM 61.7°F16.5°C 50.2°F10.1°C 66% 11.9 mph ENE19.2 kmh ENE 18.3 mph29.5 kmh 29.29 in991.9 mb 0.00 in0.0 mm 0.00 in/hr0.0 mm/hr 0.00 in0.0 mm
06:05 PM 61.9°F16.6°C 50.4°F10.2°C 66% 11.5 mph ENE18.5 kmh ENE 18.3 mph29.5 kmh 29.29 in991.9 mb 0.00 in0.0 mm 0.00 in/hr0.0 mm/hr 0.00 in0.0 mm
06:04 PM 61.9°F16.6°C 50.4°F10.2°C 66% 11.4 mph ENE18.3 kmh ENE 18.3 mph29.5 kmh 29.29 in991.9 mb 0.00 in0.0 mm 0.00 in/hr0.0 mm/hr 0.00 in0.0 mm
06:03 PM 61.9°F16.6°C 50.4°F10.2°C 66% 11.8 mph NE19.0 kmh NE 18.3 mph29.5 kmh 29.29 in991.9 mb 0.00 in0.0 mm 0.00 in/hr0.0 mm/hr 0.00 in0.0 mm
06:02 PM 61.9°F16.6°C 50.4°F10.2°C 66% 11.7 mph NE18.8 kmh NE 18.3 mph29.5 kmh 29.28 in991.5 mb 0.00 in0.0 mm 0.00 in/hr0.0 mm/hr 0.00 in0.0 mm
06:01 PM 62.1°F16.7°C 50.6°F10.3°C 66% 11.3 mph ENE18.2 kmh ENE 18.3 mph29.5 kmh 29.29 in991.9 mb 0.00 in0.0 mm 0.00 in/hr0.0 mm/hr 0.00 in0.0 mm
06:00 PM 62.1°F16.7°C 50.6°F10.3°C 66% 10.9 mph ENE17.5 kmh ENE 18.3 mph29.5 kmh 29.29 in991.9 mb 0.00 in0.0 mm 0.00 in/hr0.0 mm/hr 0.00 in0.0 mm
05:59 PM 62.2°F16.8°C 50.8°F10.4°C 66% 10.5 mph ENE16.9 kmh ENE 18.3 mph29.5 kmh 29.29 in991.9 mb 0.00 in0.0 mm 0.00 in/hr0.0 mm/hr 0.00 in0.0 mm
05:58 PM 62.1°F16.7°C 50.2°F10.1°C 65% 9.6 mph NE15.4 kmh NE 18.3 mph29.5 kmh 29.29 in991.9 mb 0.00 in0.0 mm 0.00 in/hr0.0 mm/hr 0.00 in0.0 mm
05:57 PM 62.2°F16.8°C 50.3°F10.2°C 65% 8.9 mph NE14.3 kmh NE 14.5 mph23.3 kmh 29.29 in991.9 mb 0.00 in0.0 mm 0.00 in/hr0.0 mm/hr 0.00 in0.0 mm
05:56 PM 62.2°F16.8°C 50.3°F10.2°C 65% 8.6 mph NE13.8 kmh NE 14.5 mph23.3 kmh 29.29 in991.9 mb 0.00 in0.0 mm 0.00 in/hr0.0 mm/hr 0.00 in0.0 mm
05:55 PM 62.2°F16.8°C 50.3°F10.2°C 65% 8.5 mph NNE13.7 kmh NNE 14.5 mph23.3 kmh 29.29 in991.9 mb 0.00 in0.0 mm 0.00 in/hr0.0 mm/hr 0.00 in0.0 mm
05:54 PM 62.2°F16.8°C 50.3°F10.2°C 65% 8.6 mph NE13.8 kmh NE 14.5 mph23.3 kmh 29.29 in991.9 mb 0.00 in0.0 mm 0.00 in/hr0.0 mm/hr 0.00 in0.0 mm
05:53 PM 62.2°F16.8°C 50.3°F10.2°C 65% 8.2 mph NE13.2 kmh NE 14.5 mph23.3 kmh 29.29 in991.9 mb 0.00 in0.0 mm 0.00 in/hr0.0 mm/hr 0.00 in0.0 mm
05:52 PM 62.2°F16.8°C 50.3°F10.2°C 65% 8.0 mph NE12.9 kmh NE 10.7 mph17.2 kmh 29.28 in991.5 mb 0.00 in0.0 mm 0.00 in/hr0.0 mm/hr 0.00 in0.0 mm
05:51 PM 62.4°F16.9°C 50.1°F10.1°C 64% 8.0 mph NE12.9 kmh NE 10.7 mph17.2 kmh 29.29 in991.9 mb 0.00 in0.0 mm 0.00 in/hr0.0 mm/hr 0.00 in0.0 mm
05:50 PM 62.4°F16.9°C 50.1°F10.1°C 64% 8.1 mph NE13.0 kmh NE 10.7 mph17.2 kmh 29.29 in991.9 mb 0.00 in0.0 mm 0.00 in/hr0.0 mm/hr 0.00 in0.0 mm
05:49 PM 62.4°F16.9°C 50.1°F10.1°C 64% 8.2 mph NE13.2 kmh NE 10.7 mph17.2 kmh 29.29 in991.9 mb 0.00 in0.0 mm 0.00 in/hr0.0 mm/hr 0.00 in0.0 mm
05:48 PM 62.6°F17.0°C 50.3°F10.2°C 64% 8.2 mph NE13.2 kmh NE 10.7 mph17.2 kmh 29.29 in991.9 mb 0.00 in0.0 mm 0.00 in/hr0.0 mm/hr 0.00 in0.0 mm
05:47 PM 62.6°F17.0°C 50.3°F10.2°C 64% 8.4 mph NE13.5 kmh NE 10.7 mph17.2 kmh 29.29 in991.9 mb 0.00 in0.0 mm 0.00 in/hr0.0 mm/hr 0.00 in0.0 mm
05:46 PM 62.8°F17.1°C 50.4°F10.2°C 64% 8.4 mph NE13.5 kmh NE 10.7 mph17.2 kmh 29.28 in991.5 mb 0.00 in0.0 mm 0.00 in/hr0.0 mm/hr 0.00 in0.0 mm
05:45 PM 62.8°F17.1°C 50.0°F10.0°C 63% 7.9 mph NE12.7 kmh NE 10.7 mph17.2 kmh 29.28 in991.5 mb 0.00 in0.0 mm 0.00 in/hr0.0 mm/hr 0.00 in0.0 mm
05:44 PM 63.0°F17.2°C 50.2°F10.1°C 63% 7.8 mph ENE12.6 kmh ENE 10.7 mph17.2 kmh 29.28 in991.5 mb 0.00 in0.0 mm 0.00 in/hr0.0 mm/hr 0.00 in0.0 mm
05:43 PM 63.1°F17.3°C 50.4°F10.2°C 63% 7.6 mph ENE12.2 kmh ENE 10.7 mph17.2 kmh 29.29 in991.9 mb 0.00 in0.0 mm 0.00 in/hr0.0 mm/hr 0.00 in0.0 mm
05:42 PM 63.1°F17.3°C 49.9°F9.9°C 62% 7.3 mph ENE11.7 kmh ENE 10.7 mph17.2 kmh 29.29 in991.9 mb 0.00 in0.0 mm 0.00 in/hr0.0 mm/hr 0.00 in0.0 mm
05:41 PM 63.3°F17.4°C 50.1°F10.1°C 62% 7.3 mph ENE11.7 kmh ENE 10.7 mph17.2 kmh 29.29 in991.9 mb 0.00 in0.0 mm 0.00 in/hr0.0 mm/hr 0.00 in0.0 mm
05:40 PM 63.3°F17.4°C 50.1°F10.1°C 62% 7.0 mph ENE11.3 kmh ENE 10.7 mph17.2 kmh 29.29 in991.9 mb 0.00 in0.0 mm 0.00 in/hr0.0 mm/hr 0.00 in0.0 mm
05:39 PM 63.5°F17.5°C 50.3°F10.2°C 62% 6.9 mph ENE11.1 kmh ENE 10.7 mph17.2 kmh 29.29 in991.9 mb 0.00 in0.0 mm 0.00 in/hr0.0 mm/hr 0.00 in0.0 mm
05:38 PM 63.7°F17.6°C 50.4°F10.2°C 62% 6.7 mph E10.8 kmh E 10.7 mph17.2 kmh 29.29 in991.9 mb 0.00 in0.0 mm 0.00 in/hr0.0 mm/hr 0.00 in0.0 mm
05:37 PM 63.7°F17.6°C 50.0°F10.0°C 61% 6.3 mph E10.1 kmh E 9.2 mph14.8 kmh 29.29 in991.9 mb 0.00 in0.0 mm 0.00 in/hr0.0 mm/hr 0.00 in0.0 mm
05:36 PM 63.9°F17.7°C 50.2°F10.1°C 61% 6.1 mph E9.8 kmh E 9.2 mph14.8 kmh 29.29 in991.9 mb 0.00 in0.0 mm 0.00 in/hr0.0 mm/hr 0.00 in0.0 mm
05:35 PM 64.0°F17.8°C 50.3°F10.2°C 61% 6.2 mph E10.0 kmh E 9.2 mph14.8 kmh 29.28 in991.5 mb 0.00 in0.0 mm 0.00 in/hr0.0 mm/hr 0.00 in0.0 mm
05:34 PM 64.0°F17.8°C 50.3°F10.2°C 61% 5.9 mph E9.5 kmh E 9.2 mph14.8 kmh 29.29 in991.9 mb 0.00 in0.0 mm 0.00 in/hr0.0 mm/hr 0.00 in0.0 mm
05:33 PM 64.2°F17.9°C 50.1°F10.1°C 60% 6.2 mph E10.0 kmh E 9.8 mph15.8 kmh 29.28 in991.5 mb 0.00 in0.0 mm 0.00 in/hr0.0 mm/hr 0.00 in0.0 mm
05:32 PM 64.2°F17.9°C 50.1°F10.1°C 60% 6.8 mph ENE10.9 kmh ENE 9.8 mph15.8 kmh 29.28 in991.5 mb 0.00 in0.0 mm 0.00 in/hr0.0 mm/hr 0.00 in0.0 mm
05:31 PM 64.4°F18.0°C 50.2°F10.1°C 60% 7.1 mph ENE11.4 kmh ENE 10.7 mph17.2 kmh 29.28 in991.5 mb 0.00 in0.0 mm 0.00 in/hr0.0 mm/hr 0.00 in0.0 mm
05:30 PM 64.4°F18.0°C 50.2°F10.1°C 60% 7.4 mph NE11.9 kmh NE 10.7 mph17.2 kmh 29.28 in991.5 mb 0.00 in0.0 mm 0.00 in/hr0.0 mm/hr 0.00 in0.0 mm
05:29 PM 64.6°F18.1°C 50.4°F10.2°C 60% 7.1 mph NE11.4 kmh NE 10.7 mph17.2 kmh 29.28 in991.5 mb 0.00 in0.0 mm 0.00 in/hr0.0 mm/hr 0.00 in0.0 mm
05:28 PM 64.6°F18.1°C 49.9°F9.9°C 59% 7.3 mph NE11.7 kmh NE 10.7 mph17.2 kmh 29.28 in991.5 mb 0.00 in0.0 mm 0.00 in/hr0.0 mm/hr 0.00 in0.0 mm
05:27 PM 64.8°F18.2°C 50.1°F10.1°C 59% 7.4 mph NE11.9 kmh NE 10.7 mph17.2 kmh 29.28 in991.5 mb 0.00 in0.0 mm 0.00 in/hr0.0 mm/hr 0.00 in0.0 mm
05:26 PM 64.8°F18.2°C 50.1°F10.1°C 59% 7.7 mph NE12.4 kmh NE 10.7 mph17.2 kmh 29.28 in991.5 mb 0.00 in0.0 mm 0.00 in/hr0.0 mm/hr 0.00 in0.0 mm
05:25 PM 64.8°F18.2°C 50.1°F10.1°C 59% 8.2 mph NE13.2 kmh NE 10.7 mph17.2 kmh 29.28 in991.5 mb 0.00 in0.0 mm 0.00 in/hr0.0 mm/hr 0.00 in0.0 mm
05:24 PM 64.9°F18.3°C 50.3°F10.2°C 59% 8.8 mph ENE14.2 kmh ENE 10.7 mph17.2 kmh 29.28 in991.5 mb 0.00 in0.0 mm 0.00 in/hr0.0 mm/hr 0.00 in0.0 mm
05:23 PM 65.1°F18.4°C 50.5°F10.3°C 59% 8.8 mph ENE14.2 kmh ENE 10.7 mph17.2 kmh 29.27 in991.2 mb 0.00 in0.0 mm 0.00 in/hr0.0 mm/hr 0.00 in0.0 mm
05:22 PM 65.1°F18.4°C 50.0°F10.0°C 58% 8.5 mph E13.7 kmh E 10.7 mph17.2 kmh 29.28 in991.5 mb 0.00 in0.0 mm 0.00 in/hr0.0 mm/hr 0.00 in0.0 mm
05:21 PM 65.1°F18.4°C 50.0°F10.0°C 58% 8.4 mph E13.5 kmh E 10.7 mph17.2 kmh 29.28 in991.5 mb 0.00 in0.0 mm 0.00 in/hr0.0 mm/hr 0.00 in0.0 mm
05:20 PM 65.3°F18.5°C 50.2°F10.1°C 58% 8.1 mph E13.0 kmh E 10.7 mph17.2 kmh 29.27 in991.2 mb 0.00 in0.0 mm 0.00 in/hr0.0 mm/hr 0.00 in0.0 mm
05:19 PM 65.3°F18.5°C 49.7°F9.8°C 57% 8.1 mph E13.0 kmh E 10.7 mph17.2 kmh 29.28 in991.5 mb 0.00 in0.0 mm 0.00 in/hr0.0 mm/hr 0.00 in0.0 mm
05:18 PM 65.5°F18.6°C 49.9°F9.9°C 57% 7.8 mph E12.6 kmh E 10.7 mph17.2 kmh 29.28 in991.5 mb 0.00 in0.0 mm 0.00 in/hr0.0 mm/hr 0.00 in0.0 mm
05:17 PM 65.5°F18.6°C 49.9°F9.9°C 57% 7.8 mph E12.6 kmh E 10.7 mph17.2 kmh 29.28 in991.5 mb 0.00 in0.0 mm 0.00 in/hr0.0 mm/hr 0.00 in0.0 mm
05:16 PM 65.7°F18.7°C 50.0°F10.0°C 57% 7.5 mph E12.1 kmh E 10.7 mph17.2 kmh 29.28 in991.5 mb 0.00 in0.0 mm 0.00 in/hr0.0 mm/hr 0.00 in0.0 mm
05:15 PM 65.7°F18.7°C 50.0°F10.0°C 57% 7.0 mph E11.3 kmh E 10.7 mph17.2 kmh 29.28 in991.5 mb 0.00 in0.0 mm 0.00 in/hr0.0 mm/hr 0.00 in0.0 mm
05:14 PM 65.7°F18.7°C 50.0°F10.0°C 57% 6.5 mph E10.5 kmh E 10.7 mph17.2 kmh 29.28 in991.5 mb 0.00 in0.0 mm 0.00 in/hr0.0 mm/hr 0.00 in0.0 mm
05:13 PM 65.7°F18.7°C 50.0°F10.0°C 57% 6.4 mph ENE10.3 kmh ENE 9.2 mph14.8 kmh 29.28 in991.5 mb 0.00 in0.0 mm 0.00 in/hr0.0 mm/hr 0.00 in0.0 mm
05:12 PM 65.7°F18.7°C 50.0°F10.0°C 57% 6.6 mph ENE10.6 kmh ENE 9.2 mph14.8 kmh 29.27 in991.2 mb 0.00 in0.0 mm 0.00 in/hr0.0 mm/hr 0.00 in0.0 mm
05:11 PM 65.7°F18.7°C 50.0°F10.0°C 57% 6.3 mph ENE10.1 kmh ENE 8.3 mph13.4 kmh 29.27 in991.2 mb 0.00 in0.0 mm 0.00 in/hr0.0 mm/hr 0.00 in0.0 mm
05:10 PM 65.7°F18.7°C 50.0°F10.0°C 57% 6.7 mph NE10.8 kmh NE 11.4 mph18.3 kmh 29.27 in991.2 mb 0.00 in0.0 mm 0.00 in/hr0.0 mm/hr 0.00 in0.0 mm
05:09 PM 65.7°F18.7°C 50.0°F10.0°C 57% 6.8 mph NE10.9 kmh NE 11.4 mph18.3 kmh 29.27 in991.2 mb 0.00 in0.0 mm 0.00 in/hr0.0 mm/hr 0.00 in0.0 mm
05:08 PM 65.7°F18.7°C 50.0°F10.0°C 57% 6.5 mph ENE10.5 kmh ENE 11.4 mph18.3 kmh 29.28 in991.5 mb 0.00 in0.0 mm 0.00 in/hr0.0 mm/hr 0.00 in0.0 mm
05:07 PM 65.5°F18.6°C 49.9°F9.9°C 57% 6.3 mph NE10.1 kmh NE 11.4 mph18.3 kmh 29.28 in991.5 mb 0.00 in0.0 mm 0.00 in/hr0.0 mm/hr 0.00 in0.0 mm
05:06 PM 65.5°F18.6°C 49.9°F9.9°C 57% 6.6 mph NE10.6 kmh NE 11.4 mph18.3 kmh 29.27 in991.2 mb 0.00 in0.0 mm 0.00 in/hr0.0 mm/hr 0.00 in0.0 mm
05:05 PM 65.5°F18.6°C 49.9°F9.9°C 57% 6.9 mph NE11.1 kmh NE 11.4 mph18.3 kmh 29.27 in991.2 mb 0.00 in0.0 mm 0.00 in/hr0.0 mm/hr 0.00 in0.0 mm
05:04 PM 65.5°F18.6°C 49.9°F9.9°C 57% 7.3 mph NE11.7 kmh NE 11.4 mph18.3 kmh 29.27 in991.2 mb 0.00 in0.0 mm 0.00 in/hr0.0 mm/hr 0.00 in0.0 mm
05:03 PM 65.5°F18.6°C 49.9°F9.9°C 57% 7.5 mph NE12.1 kmh NE 11.4 mph18.3 kmh 29.27 in991.2 mb 0.00 in0.0 mm 0.00 in/hr0.0 mm/hr 0.00 in0.0 mm
05:02 PM 65.5°F18.6°C 49.9°F9.9°C 57% 7.4 mph NE11.9 kmh NE 11.4 mph18.3 kmh 29.27 in991.2 mb 0.00 in0.0 mm 0.00 in/hr0.0 mm/hr 0.00 in0.0 mm
05:01 PM 65.3°F18.5°C 49.7°F9.8°C 57% 7.5 mph NE12.1 kmh NE 11.4 mph18.3 kmh 29.27 in991.2 mb 0.00 in0.0 mm 0.00 in/hr0.0 mm/hr 0.00 in0.0 mm
05:00 PM 65.3°F18.5°C 49.7°F9.8°C 57% 8.2 mph NE13.2 kmh NE 15.9 mph25.6 kmh 29.27 in991.2 mb 0.00 in0.0 mm 0.00 in/hr0.0 mm/hr 0.00 in0.0 mm
04:59 PM 65.3°F18.5°C 50.2°F10.1°C 58% 8.7 mph NE14.0 kmh NE 15.9 mph25.6 kmh 29.27 in991.2 mb 0.00 in0.0 mm 0.00 in/hr0.0 mm/hr 0.00 in0.0 mm
04:58 PM 65.3°F18.5°C 49.7°F9.8°C 57% 9.6 mph NE15.4 kmh NE 15.9 mph25.6 kmh 29.28 in991.5 mb 0.00 in0.0 mm 0.00 in/hr0.0 mm/hr 0.00 in0.0 mm
04:57 PM 65.1°F18.4°C 49.5°F9.7°C 57% 9.9 mph NE15.9 kmh NE 15.9 mph25.6 kmh 29.28 in991.5 mb 0.00 in0.0 mm 0.00 in/hr0.0 mm/hr 0.00 in0.0 mm
04:56 PM 65.1°F18.4°C 49.5°F9.7°C 57% 10.1 mph NE16.3 kmh NE 15.9 mph25.6 kmh 29.27 in991.2 mb 0.00 in0.0 mm 0.00 in/hr0.0 mm/hr 0.00 in0.0 mm
04:55 PM 65.1°F18.4°C 49.5°F9.7°C 57% 10.1 mph NE16.3 kmh NE 15.9 mph25.6 kmh 29.27 in991.2 mb 0.00 in0.0 mm 0.00 in/hr0.0 mm/hr 0.00 in0.0 mm
04:54 PM 65.1°F18.4°C 49.5°F9.7°C 57% 10.1 mph NE16.3 kmh NE 15.9 mph25.6 kmh 29.27 in991.2 mb 0.00 in0.0 mm 0.00 in/hr0.0 mm/hr 0.00 in0.0 mm
04:53 PM 65.1°F18.4°C 49.5°F9.7°C 57% 9.9 mph NE15.9 kmh NE 15.9 mph25.6 kmh 29.27 in991.2 mb 0.00 in0.0 mm 0.00 in/hr0.0 mm/hr 0.00 in0.0 mm
04:52 PM 65.1°F18.4°C 49.5°F9.7°C 57% 10.3 mph NE16.6 kmh NE 15.9 mph25.6 kmh 29.27 in991.2 mb 0.00 in0.0 mm 0.00 in/hr0.0 mm/hr 0.00 in0.0 mm
04:51 PM 65.1°F18.4°C 49.5°F9.7°C 57% 10.8 mph NE17.4 kmh NE 15.9 mph25.6 kmh 29.27 in991.2 mb 0.00 in0.0 mm 0.00 in/hr0.0 mm/hr 0.00 in0.0 mm
04:50 PM 65.1°F18.4°C 49.5°F9.7°C 57% 10.4 mph NE16.7 kmh NE 15.2 mph24.5 kmh 29.27 in991.2 mb 0.00 in0.0 mm 0.00 in/hr0.0 mm/hr 0.00 in0.0 mm
04:49 PM 65.1°F18.4°C 49.5°F9.7°C 57% 10.3 mph NE16.6 kmh NE 15.2 mph24.5 kmh 29.27 in991.2 mb 0.00 in0.0 mm 0.00 in/hr0.0 mm/hr 0.00 in0.0 mm
04:48 PM 65.1°F18.4°C 49.5°F9.7°C 57% 10.1 mph NE16.3 kmh NE 15.2 mph24.5 kmh 29.27 in991.2 mb 0.00 in0.0 mm 0.00 in/hr0.0 mm/hr 0.00 in0.0 mm
04:47 PM 65.3°F18.5°C 49.7°F9.8°C 57% 10.1 mph NE16.3 kmh NE 15.2 mph24.5 kmh 29.27 in991.2 mb 0.00 in0.0 mm 0.00 in/hr0.0 mm/hr 0.00 in0.0 mm
04:46 PM 65.3°F18.5°C 49.7°F9.8°C 57% 10.0 mph NE16.1 kmh NE 15.2 mph24.5 kmh 29.28 in991.5 mb 0.00 in0.0 mm 0.00 in/hr0.0 mm/hr 0.00 in0.0 mm
04:45 PM 65.3°F18.5°C 49.7°F9.8°C 57% 10.0 mph NE16.1 kmh NE 15.2 mph24.5 kmh 29.27 in991.2 mb 0.00 in0.0 mm 0.00 in/hr0.0 mm/hr 0.00 in0.0 mm
04:44 PM 65.3°F18.5°C 49.7°F9.8°C 57% 9.8 mph NE15.8 kmh NE 15.2 mph24.5 kmh 29.27 in991.2 mb 0.00 in0.0 mm 0.00 in/hr0.0 mm/hr 0.00 in0.0 mm
04:43 PM 65.3°F18.5°C 49.2°F9.6°C 56% 9.8 mph NE15.8 kmh NE 15.2 mph24.5 kmh 29.27 in991.2 mb 0.00 in0.0 mm 0.00 in/hr0.0 mm/hr 0.00 in0.0 mm
04:42 PM 65.3°F18.5°C 49.2°F9.6°C 56% 9.4 mph NE15.1 kmh NE 15.2 mph24.5 kmh 29.27 in991.2 mb 0.00 in0.0 mm 0.00 in/hr0.0 mm/hr 0.00 in0.0 mm
04:41 PM 65.5°F18.6°C 49.4°F9.7°C 56% 9.0 mph NE14.5 kmh NE 15.2 mph24.5 kmh 29.28 in991.5 mb 0.00 in0.0 mm 0.00 in/hr0.0 mm/hr 0.00 in0.0 mm
04:40 PM 65.5°F18.6°C 49.4°F9.7°C 56% 9.2 mph NE14.8 kmh NE 14.5 mph23.3 kmh 29.27 in991.2 mb 0.00 in0.0 mm 0.00 in/hr0.0 mm/hr 0.00 in0.0 mm
04:39 PM 65.5°F18.6°C 49.9°F9.9°C 57% 9.3 mph NE15.0 kmh NE 17.4 mph28.0 kmh 29.27 in991.2 mb 0.00 in0.0 mm 0.00 in/hr0.0 mm/hr 0.00 in0.0 mm
04:38 PM 65.5°F18.6°C 49.4°F9.7°C 56% 9.4 mph NE15.1 kmh NE 17.4 mph28.0 kmh 29.27 in991.2 mb 0.00 in0.0 mm 0.00 in/hr0.0 mm/hr 0.00 in0.0 mm
04:37 PM 65.5°F18.6°C 49.4°F9.7°C 56% 10.1 mph NE16.3 kmh NE 17.4 mph28.0 kmh 29.27 in991.2 mb 0.00 in0.0 mm 0.00 in/hr0.0 mm/hr 0.00 in0.0 mm
04:36 PM 65.5°F18.6°C 49.4°F9.7°C 56% 11.2 mph NE18.0 kmh NE 19.7 mph31.7 kmh 29.27 in991.2 mb 0.00 in0.0 mm 0.00 in/hr0.0 mm/hr 0.00 in0.0 mm
04:35 PM 65.5°F18.6°C 49.4°F9.7°C 56% 12.3 mph NE19.8 kmh NE 19.7 mph31.7 kmh 29.27 in991.2 mb 0.00 in0.0 mm 0.00 in/hr0.0 mm/hr 0.00 in0.0 mm
04:34 PM 65.5°F18.6°C 49.4°F9.7°C 56% 13.1 mph NE21.1 kmh NE 19.7 mph31.7 kmh 29.27 in991.2 mb 0.00 in0.0 mm 0.00 in/hr0.0 mm/hr 0.00 in0.0 mm
04:33 PM 65.5°F18.6°C 49.4°F9.7°C 56% 13.6 mph NE21.9 kmh NE 19.7 mph31.7 kmh 29.27 in991.2 mb 0.00 in0.0 mm 0.00 in/hr0.0 mm/hr 0.00 in0.0 mm
04:32 PM 65.5°F18.6°C 49.4°F9.7°C 56% 13.7 mph NE22.0 kmh NE 19.7 mph31.7 kmh 29.27 in991.2 mb 0.00 in0.0 mm 0.00 in/hr0.0 mm/hr 0.00 in0.0 mm
04:31 PM 65.7°F18.7°C 49.1°F9.5°C 55% 13.8 mph NE22.2 kmh NE 19.7 mph31.7 kmh 29.27 in991.2 mb 0.00 in0.0 mm 0.00 in/hr0.0 mm/hr 0.00 in0.0 mm
04:30 PM 65.7°F18.7°C 49.1°F9.5°C 55% 13.3 mph NE21.4 kmh NE 19.7 mph31.7 kmh 29.27 in991.2 mb 0.00 in0.0 mm 0.00 in/hr0.0 mm/hr 0.00 in0.0 mm
04:29 PM 65.7°F18.7°C 49.1°F9.5°C 55% 13.3 mph NE21.4 kmh NE 19.7 mph31.7 kmh 29.27 in991.2 mb 0.00 in0.0 mm 0.00 in/hr0.0 mm/hr 0.00 in0.0 mm
04:28 PM 65.8°F18.8°C 49.2°F9.6°C 55% 13.2 mph NE21.2 kmh NE 19.7 mph31.7 kmh 29.27 in991.2 mb 0.00 in0.0 mm 0.00 in/hr0.0 mm/hr 0.00 in0.0 mm
04:27 PM 65.8°F18.8°C 49.2°F9.6°C 55% 13.2 mph NE21.2 kmh NE 19.7 mph31.7 kmh 29.27 in991.2 mb 0.00 in0.0 mm 0.00 in/hr0.0 mm/hr 0.00 in0.0 mm
04:26 PM 66.0°F18.9°C 49.4°F9.7°C 55% 12.9 mph NE20.8 kmh NE 19.7 mph31.7 kmh 29.27 in991.2 mb 0.00 in0.0 mm 0.00 in/hr0.0 mm/hr 0.00 in0.0 mm
04:25 PM 66.0°F18.9°C 49.4°F9.7°C 55% 12.2 mph NE19.6 kmh NE 19.0 mph30.6 kmh 29.27 in991.2 mb 0.00 in0.0 mm 0.00 in/hr0.0 mm/hr 0.00 in0.0 mm
04:24 PM 66.0°F18.9°C 49.4°F9.7°C 55% 12.0 mph NE19.3 kmh NE 18.3 mph29.5 kmh 29.27 in991.2 mb 0.00 in0.0 mm 0.00 in/hr0.0 mm/hr 0.00 in0.0 mm
04:23 PM 66.2°F19.0°C 49.1°F9.5°C 54% 12.0 mph NE19.3 kmh NE 19.7 mph31.7 kmh 29.27 in991.2 mb 0.00 in0.0 mm 0.00 in/hr0.0 mm/hr 0.00 in0.0 mm
04:22 PM 66.2°F19.0°C 49.1°F9.5°C 54% 12.6 mph NE20.3 kmh NE 19.7 mph31.7 kmh 29.27 in991.2 mb 0.00 in0.0 mm 0.00 in/hr0.0 mm/hr 0.00 in0.0 mm
04:21 PM 66.2°F19.0°C 49.1°F9.5°C 54% 13.1 mph NE21.1 kmh NE 19.7 mph31.7 kmh 29.27 in991.2 mb 0.00 in0.0 mm 0.00 in/hr0.0 mm/hr 0.00 in0.0 mm
04:20 PM 66.2°F19.0°C 49.1°F9.5°C 54% 14.3 mph NE23.0 kmh NE 22.8 mph36.7 kmh 29.27 in991.2 mb 0.00 in0.0 mm 0.00 in/hr0.0 mm/hr 0.00 in0.0 mm
04:19 PM 66.4°F19.1°C 49.3°F9.6°C 54% 14.4 mph NE23.2 kmh NE 22.8 mph36.7 kmh 29.28 in991.5 mb 0.00 in0.0 mm 0.00 in/hr0.0 mm/hr 0.00 in0.0 mm
04:18 PM 66.4°F19.1°C 49.3°F9.6°C 54% 14.1 mph NE22.7 kmh NE 22.8 mph36.7 kmh 29.27 in991.2 mb 0.00 in0.0 mm 0.00 in/hr0.0 mm/hr 0.00 in0.0 mm
04:17 PM 66.4°F19.1°C 48.8°F9.3°C 53% 14.5 mph NE23.3 kmh NE 22.8 mph36.7 kmh 29.27 in991.2 mb 0.00 in0.0 mm 0.00 in/hr0.0 mm/hr 0.00 in0.0 mm
04:16 PM 66.6°F19.2°C 49.4°F9.7°C 54% 14.9 mph NE24.0 kmh NE 22.8 mph36.7 kmh 29.27 in991.2 mb 0.00 in0.0 mm 0.00 in/hr0.0 mm/hr 0.00 in0.0 mm
04:15 PM 66.6°F19.2°C 48.9°F9.4°C 53% 15.6 mph NNE25.1 kmh NNE 22.8 mph36.7 kmh 29.27 in991.2 mb 0.00 in0.0 mm 0.00 in/hr0.0 mm/hr 0.00 in0.0 mm
04:14 PM 66.7°F19.3°C 49.1°F9.5°C 53% 16.1 mph NNE25.9 kmh NNE 22.8 mph36.7 kmh 29.28 in991.5 mb 0.00 in0.0 mm 0.00 in/hr0.0 mm/hr 0.00 in0.0 mm
04:13 PM 66.7°F19.3°C 49.1°F9.5°C 53% 16.3 mph NNE26.2 kmh NNE 22.8 mph36.7 kmh 29.27 in991.2 mb 0.00 in0.0 mm 0.00 in/hr0.0 mm/hr 0.00 in0.0 mm
04:12 PM 66.9°F19.4°C 49.3°F9.6°C 53% 16.9 mph NE27.2 kmh NE 22.8 mph36.7 kmh 29.27 in991.2 mb 0.00 in0.0 mm 0.00 in/hr0.0 mm/hr 0.00 in0.0 mm
04:11 PM 66.9°F19.4°C 48.7°F9.3°C 52% 17.0 mph NE27.4 kmh NE 22.8 mph36.7 kmh 29.27 in991.2 mb 0.00 in0.0 mm 0.00 in/hr0.0 mm/hr 0.00 in0.0 mm
04:10 PM 66.9°F19.4°C 48.7°F9.3°C 52% 16.6 mph NE26.7 kmh NE 21.3 mph34.3 kmh 29.28 in991.5 mb 0.00 in0.0 mm 0.00 in/hr0.0 mm/hr 0.00 in0.0 mm
04:09 PM 67.1°F19.5°C 48.9°F9.4°C 52% 17.0 mph NE27.4 kmh NE 21.3 mph34.3 kmh 29.27 in991.2 mb 0.00 in0.0 mm 0.00 in/hr0.0 mm/hr 0.00 in0.0 mm
04:08 PM 67.1°F19.5°C 48.9°F9.4°C 52% 17.1 mph NE27.5 kmh NE 21.3 mph34.3 kmh 29.27 in991.2 mb 0.00 in0.0 mm 0.00 in/hr0.0 mm/hr 0.00 in0.0 mm
04:07 PM 67.3°F19.6°C 48.6°F9.2°C 51% 16.7 mph NE26.9 kmh NE 21.3 mph34.3 kmh 29.27 in991.2 mb 0.00 in0.0 mm 0.00 in/hr0.0 mm/hr 0.00 in0.0 mm
04:06 PM 67.5°F19.7°C 48.7°F9.3°C 51% 16.4 mph NE26.4 kmh NE 21.3 mph34.3 kmh 29.27 in991.2 mb 0.00 in0.0 mm 0.00 in/hr0.0 mm/hr 0.00 in0.0 mm
04:05 PM 67.6°F19.8°C 48.9°F9.4°C 51% 16.6 mph NE26.7 kmh NE 22.1 mph35.6 kmh 29.27 in991.2 mb 0.00 in0.0 mm 0.00 in/hr0.0 mm/hr 0.00 in0.0 mm
04:04 PM 67.6°F19.8°C 48.9°F9.4°C 51% 16.3 mph ENE26.2 kmh ENE 22.1 mph35.6 kmh 29.27 in991.2 mb 0.00 in0.0 mm 0.00 in/hr0.0 mm/hr 0.00 in0.0 mm
04:03 PM 68.0°F20.0°C 48.7°F9.3°C 50% 16.2 mph E26.1 kmh E 22.1 mph35.6 kmh 29.27 in991.2 mb 0.00 in0.0 mm 0.00 in/hr0.0 mm/hr 0.00 in0.0 mm
04:02 PM 68.0°F20.0°C 48.7°F9.3°C 50% 15.5 mph ENE24.9 kmh ENE 22.1 mph35.6 kmh 29.27 in991.2 mb 0.00 in0.0 mm 0.00 in/hr0.0 mm/hr 0.00 in0.0 mm
04:01 PM 68.2°F20.1°C 48.9°F9.4°C 50% 15.5 mph ENE24.9 kmh ENE 22.1 mph35.6 kmh 29.26 in990.9 mb 0.00 in0.0 mm 0.00 in/hr0.0 mm/hr 0.00 in0.0 mm
04:00 PM 68.2°F20.1°C 48.9°F9.4°C 50% 15.3 mph ENE24.6 kmh ENE 22.1 mph35.6 kmh 29.27 in991.2 mb 0.00 in0.0 mm 0.00 in/hr0.0 mm/hr 0.00 in0.0 mm
03:59 PM 68.4°F20.2°C 49.0°F9.4°C 50% 15.1 mph NE24.3 kmh NE 22.1 mph35.6 kmh 29.27 in991.2 mb 0.00 in0.0 mm 0.00 in/hr0.0 mm/hr 0.00 in0.0 mm
03:58 PM 68.4°F20.2°C 49.0°F9.4°C 50% 15.2 mph ENE24.5 kmh ENE 22.1 mph35.6 kmh 29.27 in991.2 mb 0.00 in0.0 mm 0.00 in/hr0.0 mm/hr 0.00 in0.0 mm
03:57 PM 68.4°F20.2°C 49.0°F9.4°C 50% 15.4 mph NE24.8 kmh NE 22.1 mph35.6 kmh 29.27 in991.2 mb 0.00 in0.0 mm 0.00 in/hr0.0 mm/hr 0.00 in0.0 mm
03:56 PM 68.5°F20.3°C 49.2°F9.6°C 50% 15.2 mph NE24.5 kmh NE 22.1 mph35.6 kmh 29.27 in991.2 mb 0.00 in0.0 mm 0.00 in/hr0.0 mm/hr 0.00 in0.0 mm
03:55 PM 68.7°F20.4°C 49.4°F9.7°C 50% 14.0 mph NE22.5 kmh NE 16.8 mph27.0 kmh 29.27 in991.2 mb 0.00 in0.0 mm 0.00 in/hr0.0 mm/hr 0.00 in0.0 mm
03:54 PM 68.7°F20.4°C 49.4°F9.7°C 50% 13.6 mph NE21.9 kmh NE 16.8 mph27.0 kmh 29.27 in991.2 mb 0.00 in0.0 mm 0.00 in/hr0.0 mm/hr 0.00 in0.0 mm
03:53 PM 68.7°F20.4°C 49.4°F9.7°C 50% 13.3 mph NE21.4 kmh NE 16.8 mph27.0 kmh 29.27 in991.2 mb 0.00 in0.0 mm 0.00 in/hr0.0 mm/hr 0.00 in0.0 mm
03:52 PM 68.7°F20.4°C 49.4°F9.7°C 50% 13.2 mph NE21.2 kmh NE 16.8 mph27.0 kmh 29.27 in991.2 mb 0.00 in0.0 mm 0.00 in/hr0.0 mm/hr 0.00 in0.0 mm
03:51 PM 68.9°F20.5°C 49.5°F9.7°C 50% 13.5 mph NE21.7 kmh NE 18.3 mph29.5 kmh 29.27 in991.2 mb 0.00 in0.0 mm 0.00 in/hr0.0 mm/hr 0.00 in0.0 mm
03:50 PM 68.9°F20.5°C 49.5°F9.7°C 50% 13.1 mph NE21.1 kmh NE 18.3 mph29.5 kmh 29.27 in991.2 mb 0.00 in0.0 mm 0.00 in/hr0.0 mm/hr 0.00 in0.0 mm
03:49 PM 68.9°F20.5°C 49.5°F9.7°C 50% 13.1 mph NE21.1 kmh NE 18.3 mph29.5 kmh 29.27 in991.2 mb 0.00 in0.0 mm 0.00 in/hr0.0 mm/hr 0.00 in0.0 mm
03:48 PM 68.9°F20.5°C 49.5°F9.7°C 50% 13.2 mph NE21.2 kmh NE 18.3 mph29.5 kmh 29.27 in991.2 mb 0.00 in0.0 mm 0.00 in/hr0.0 mm/hr 0.00 in0.0 mm
03:47 PM 68.9°F20.5°C 49.5°F9.7°C 50% 13.1 mph NE21.1 kmh NE 19.0 mph30.6 kmh 29.27 in991.2 mb 0.00 in0.0 mm 0.00 in/hr0.0 mm/hr 0.00 in0.0 mm
03:46 PM 68.9°F20.5°C 49.0°F9.4°C 49% 12.9 mph NE20.8 kmh NE 19.0 mph30.6 kmh 29.27 in991.2 mb 0.00 in0.0 mm 0.00 in/hr0.0 mm/hr 0.00 in0.0 mm
03:45 PM 68.9°F20.5°C 49.0°F9.4°C 49% 13.4 mph NE21.6 kmh NE 19.0 mph30.6 kmh 29.28 in991.5 mb 0.00 in0.0 mm 0.00 in/hr0.0 mm/hr 0.00 in0.0 mm
03:44 PM 68.9°F20.5°C 49.0°F9.4°C 49% 13.8 mph NE22.2 kmh NE 19.0 mph30.6 kmh 29.28 in991.5 mb 0.00 in0.0 mm 0.00 in/hr0.0 mm/hr 0.00 in0.0 mm
03:43 PM 68.9°F20.5°C 48.4°F9.1°C 48% 14.8 mph ENE23.8 kmh ENE 19.0 mph30.6 kmh 29.28 in991.5 mb 0.00 in0.0 mm 0.00 in/hr0.0 mm/hr 0.00 in0.0 mm
03:42 PM 68.9°F20.5°C 48.4°F9.1°C 48% 16.0 mph NE25.7 kmh NE 19.0 mph30.6 kmh 29.27 in991.2 mb 0.00 in0.0 mm 0.00 in/hr0.0 mm/hr 0.00 in0.0 mm
03:40 PM 69.1°F20.6°C 48.6°F9.2°C 48% 15.4 mph NE24.8 kmh NE 20.6 mph33.2 kmh 29.28 in991.5 mb 0.00 in0.0 mm 0.00 in/hr0.0 mm/hr 0.00 in0.0 mm
03:38 PM 69.3°F20.7°C 48.2°F9.0°C 47% 15.5 mph NE24.9 kmh NE 20.6 mph33.2 kmh 29.28 in991.5 mb 0.00 in0.0 mm 0.00 in/hr0.0 mm/hr 0.00 in0.0 mm
03:37 PM 69.3°F20.7°C 48.2°F9.0°C 47% 15.4 mph NE24.8 kmh NE 20.6 mph33.2 kmh 29.27 in991.2 mb 0.00 in0.0 mm 0.00 in/hr0.0 mm/hr 0.00 in0.0 mm
03:36 PM 69.4°F20.8°C 48.4°F9.1°C 47% 15.2 mph NNE24.5 kmh NNE 20.6 mph33.2 kmh 29.28 in991.5 mb 0.00 in0.0 mm 0.00 in/hr0.0 mm/hr 0.00 in0.0 mm
03:35 PM 69.8°F21.0°C 48.7°F9.3°C 47% 14.8 mph NE23.8 kmh NE 20.6 mph33.2 kmh 29.27 in991.2 mb 0.00 in0.0 mm 0.00 in/hr0.0 mm/hr 0.00 in0.0 mm
03:34 PM 69.8°F21.0°C 48.7°F9.3°C 47% 14.9 mph NE24.0 kmh NE 20.6 mph33.2 kmh 29.27 in991.2 mb 0.00 in0.0 mm 0.00 in/hr0.0 mm/hr 0.00 in0.0 mm
03:33 PM 70.0°F21.1°C 48.3°F9.1°C 46% 14.6 mph NE23.5 kmh NE 20.6 mph33.2 kmh 29.27 in991.2 mb 0.00 in0.0 mm 0.00 in/hr0.0 mm/hr 0.00 in0.0 mm
03:32 PM 70.0°F21.1°C 48.3°F9.1°C 46% 14.5 mph NE23.3 kmh NE 20.6 mph33.2 kmh 29.28 in991.5 mb 0.00 in0.0 mm 0.00 in/hr0.0 mm/hr 0.00 in0.0 mm
03:31 PM 70.2°F21.2°C 48.4°F9.1°C 46% 13.8 mph NNE22.2 kmh NNE 20.6 mph33.2 kmh 29.28 in991.5 mb 0.00 in0.0 mm 0.00 in/hr0.0 mm/hr 0.00 in0.0 mm
03:30 PM 70.3°F21.3°C 49.2°F9.6°C 47% 12.4 mph NE20.0 kmh NE 15.2 mph24.5 kmh 29.28 in991.5 mb 0.00 in0.0 mm 0.00 in/hr0.0 mm/hr 0.00 in0.0 mm
03:29 PM 70.3°F21.3°C 49.2°F9.6°C 47% 12.4 mph NE20.0 kmh NE 15.2 mph24.5 kmh 29.28 in991.5 mb 0.00 in0.0 mm 0.00 in/hr0.0 mm/hr 0.00 in0.0 mm
03:28 PM 70.3°F21.3°C 49.2°F9.6°C 47% 12.1 mph NE19.5 kmh NE 15.2 mph24.5 kmh 29.28 in991.5 mb 0.00 in0.0 mm 0.00 in/hr0.0 mm/hr 0.00 in0.0 mm
03:27 PM 70.3°F21.3°C 49.2°F9.6°C 47% 12.0 mph NE19.3 kmh NE 15.2 mph24.5 kmh 29.29 in991.9 mb 0.00 in0.0 mm 0.00 in/hr0.0 mm/hr 0.00 in0.0 mm
03:26 PM 70.3°F21.3°C 49.2°F9.6°C 47% 12.2 mph NE19.6 kmh NE 16.8 mph27.0 kmh 29.28 in991.5 mb 0.00 in0.0 mm 0.00 in/hr0.0 mm/hr 0.00 in0.0 mm
03:25 PM 70.3°F21.3°C 49.2°F9.6°C 47% 12.1 mph NE19.5 kmh NE 16.8 mph27.0 kmh 29.28 in991.5 mb 0.00 in0.0 mm 0.00 in/hr0.0 mm/hr 0.00 in0.0 mm
03:24 PM 70.3°F21.3°C 49.2°F9.6°C 47% 11.6 mph NE18.7 kmh NE 16.8 mph27.0 kmh 29.28 in991.5 mb 0.00 in0.0 mm 0.00 in/hr0.0 mm/hr 0.00 in0.0 mm
03:23 PM 70.3°F21.3°C 49.7°F9.8°C 48% 11.5 mph NE18.5 kmh NE 16.8 mph27.0 kmh 29.27 in991.2 mb 0.00 in0.0 mm 0.00 in/hr0.0 mm/hr 0.00 in0.0 mm
03:22 PM 70.3°F21.3°C 49.7°F9.8°C 48% 11.1 mph NE17.9 kmh NE 16.8 mph27.0 kmh 29.28 in991.5 mb 0.00 in0.0 mm 0.00 in/hr0.0 mm/hr 0.00 in0.0 mm
03:21 PM 70.3°F21.3°C 49.2°F9.6°C 47% 11.4 mph NE18.3 kmh NE 16.8 mph27.0 kmh 29.27 in991.2 mb 0.00 in0.0 mm 0.00 in/hr0.0 mm/hr 0.00 in0.0 mm
03:20 PM 70.3°F21.3°C 49.2°F9.6°C 47% 11.8 mph ENE19.0 kmh ENE 16.8 mph27.0 kmh 29.27 in991.2 mb 0.00 in0.0 mm 0.00 in/hr0.0 mm/hr 0.00 in0.0 mm
03:19 PM 70.3°F21.3°C 49.2°F9.6°C 47% 11.9 mph ENE19.2 kmh ENE 16.8 mph27.0 kmh 29.28 in991.5 mb 0.00 in0.0 mm 0.00 in/hr0.0 mm/hr 0.00 in0.0 mm
03:18 PM 70.3°F21.3°C 48.6°F9.2°C 46% 12.4 mph NE20.0 kmh NE 16.8 mph27.0 kmh 29.28 in991.5 mb 0.00 in0.0 mm 0.00 in/hr0.0 mm/hr 0.00 in0.0 mm
03:17 PM 70.3°F21.3°C 49.2°F9.6°C 47% 12.1 mph NE19.5 kmh NE 16.8 mph27.0 kmh 29.28 in991.5 mb 0.00 in0.0 mm 0.00 in/hr0.0 mm/hr 0.00 in0.0 mm
03:16 PM 70.3°F21.3°C 49.2°F9.6°C 47% 11.9 mph NE19.2 kmh NE 16.8 mph27.0 kmh 29.29 in991.9 mb 0.00 in0.0 mm 0.00 in/hr0.0 mm/hr 0.00 in0.0 mm
03:15 PM 70.3°F21.3°C 49.2°F9.6°C 47% 11.8 mph NE19.0 kmh NE 16.8 mph27.0 kmh 29.28 in991.5 mb 0.00 in0.0 mm 0.00 in/hr0.0 mm/hr 0.00 in0.0 mm
03:14 PM 70.3°F21.3°C 49.2°F9.6°C 47% 11.9 mph NE19.2 kmh NE 16.8 mph27.0 kmh 29.28 in991.5 mb 0.00 in0.0 mm 0.00 in/hr0.0 mm/hr 0.00 in0.0 mm
03:13 PM 70.3°F21.3°C 49.2°F9.6°C 47% 11.9 mph NE19.2 kmh NE 16.8 mph27.0 kmh 29.28 in991.5 mb 0.00 in0.0 mm 0.00 in/hr0.0 mm/hr 0.00 in0.0 mm
03:12 PM 70.3°F21.3°C 49.2°F9.6°C 47% 11.8 mph NE19.0 kmh NE 16.8 mph27.0 kmh 29.28 in991.5 mb 0.00 in0.0 mm 0.00 in/hr0.0 mm/hr 0.00 in0.0 mm
03:11 PM 70.3°F21.3°C 49.2°F9.6°C 47% 11.2 mph NE18.0 kmh NE 16.8 mph27.0 kmh 29.28 in991.5 mb 0.00 in0.0 mm 0.00 in/hr0.0 mm/hr 0.00 in0.0 mm
03:10 PM 70.3°F21.3°C 49.2°F9.6°C 47% 11.4 mph NE18.3 kmh NE 16.8 mph27.0 kmh 29.28 in991.5 mb 0.00 in0.0 mm 0.00 in/hr0.0 mm/hr 0.00 in0.0 mm
03:09 PM 70.3°F21.3°C 49.2°F9.6°C 47% 11.3 mph NE18.2 kmh NE 16.8 mph27.0 kmh 29.29 in991.9 mb 0.00 in0.0 mm 0.00 in/hr0.0 mm/hr 0.00 in0.0 mm
03:08 PM 70.3°F21.3°C 49.2°F9.6°C 47% 10.7 mph NE17.2 kmh NE 16.8 mph27.0 kmh 29.29 in991.9 mb 0.00 in0.0 mm 0.00 in/hr0.0 mm/hr 0.00 in0.0 mm
03:07 PM 70.2°F21.2°C 49.0°F9.4°C 47% 10.4 mph NE16.7 kmh NE 13.6 mph21.9 kmh 29.28 in991.5 mb 0.00 in0.0 mm 0.00 in/hr0.0 mm/hr 0.00 in0.0 mm
03:06 PM 70.2°F21.2°C 49.0°F9.4°C 47% 10.2 mph NE16.4 kmh NE 13.6 mph21.9 kmh 29.29 in991.9 mb 0.00 in0.0 mm 0.00 in/hr0.0 mm/hr 0.00 in0.0 mm
03:05 PM 70.2°F21.2°C 49.6°F9.8°C 48% 10.6 mph NE17.1 kmh NE 13.6 mph21.9 kmh 29.29 in991.9 mb 0.00 in0.0 mm 0.00 in/hr0.0 mm/hr 0.00 in0.0 mm
03:04 PM 70.0°F21.1°C 49.4°F9.7°C 48% 10.9 mph NE17.5 kmh NE 18.3 mph29.5 kmh 29.28 in991.5 mb 0.00 in0.0 mm 0.00 in/hr0.0 mm/hr 0.00 in0.0 mm
03:03 PM 69.8°F21.0°C 49.2°F9.6°C 48% 11.2 mph NE18.0 kmh NE 18.3 mph29.5 kmh 29.28 in991.5 mb 0.00 in0.0 mm 0.00 in/hr0.0 mm/hr 0.00 in0.0 mm
03:02 PM 69.6°F20.9°C 49.1°F9.5°C 48% 11.4 mph NE18.3 kmh NE 18.3 mph29.5 kmh 29.28 in991.5 mb 0.00 in0.0 mm 0.00 in/hr0.0 mm/hr 0.00 in0.0 mm
03:01 PM 69.6°F20.9°C 48.5°F9.2°C 47% 11.8 mph NE19.0 kmh NE 18.3 mph29.5 kmh 29.28 in991.5 mb 0.00 in0.0 mm 0.00 in/hr0.0 mm/hr 0.00 in0.0 mm
03:00 PM 69.4°F20.8°C 48.9°F9.4°C 48% 11.8 mph NE19.0 kmh NE 18.3 mph29.5 kmh 29.28 in991.5 mb 0.00 in0.0 mm 0.00 in/hr0.0 mm/hr 0.00 in0.0 mm
02:59 PM 69.3°F20.7°C 48.8°F9.3°C 48% 12.1 mph NE19.5 kmh NE 18.3 mph29.5 kmh 29.28 in991.5 mb 0.00 in0.0 mm 0.00 in/hr0.0 mm/hr 0.00 in0.0 mm
02:58 PM 69.3°F20.7°C 48.8°F9.3°C 48% 12.1 mph NNE19.5 kmh NNE 18.3 mph29.5 kmh 29.28 in991.5 mb 0.00 in0.0 mm 0.00 in/hr0.0 mm/hr 0.00 in0.0 mm
02:57 PM 69.1°F20.6°C 48.6°F9.2°C 48% 12.3 mph NNE19.8 kmh NNE 18.3 mph29.5 kmh 29.28 in991.5 mb 0.00 in0.0 mm 0.00 in/hr0.0 mm/hr 0.00 in0.0 mm
02:56 PM 69.1°F20.6°C 48.0°F8.9°C 47% 12.4 mph NNE20.0 kmh NNE 18.3 mph29.5 kmh 29.28 in991.5 mb 0.00 in0.0 mm 0.00 in/hr0.0 mm/hr 0.00 in0.0 mm
02:55 PM 68.9°F20.5°C 48.4°F9.1°C 48% 12.2 mph NE19.6 kmh NE 18.3 mph29.5 kmh 29.28 in991.5 mb 0.00 in0.0 mm 0.00 in/hr0.0 mm/hr 0.00 in0.0 mm
02:54 PM 68.9°F20.5°C 48.4°F9.1°C 48% 12.2 mph NE19.6 kmh NE 18.3 mph29.5 kmh 29.28 in991.5 mb 0.00 in0.0 mm 0.00 in/hr0.0 mm/hr 0.00 in0.0 mm
02:53 PM 68.9°F20.5°C 48.4°F9.1°C 48% 11.4 mph NNE18.3 kmh NNE 16.8 mph27.0 kmh 29.28 in991.5 mb 0.00 in0.0 mm 0.00 in/hr0.0 mm/hr 0.00 in0.0 mm
02:52 PM 68.9°F20.5°C 48.4°F9.1°C 48% 11.5 mph NE18.5 kmh NE 16.8 mph27.0 kmh 29.28 in991.5 mb 0.00 in0.0 mm 0.00 in/hr0.0 mm/hr 0.00 in0.0 mm
02:51 PM 68.7°F20.4°C 48.3°F9.1°C 48% 11.5 mph NE18.5 kmh NE 16.8 mph27.0 kmh 29.28 in991.5 mb 0.00 in0.0 mm 0.00 in/hr0.0 mm/hr 0.00 in0.0 mm
02:50 PM 68.5°F20.3°C 48.1°F8.9°C 48% 11.0 mph NE17.7 kmh NE 16.8 mph27.0 kmh 29.28 in991.5 mb 0.00 in0.0 mm 0.00 in/hr0.0 mm/hr 0.00 in0.0 mm
02:49 PM 68.5°F20.3°C 48.1°F8.9°C 48% 10.2 mph NE16.4 kmh NE 16.8 mph27.0 kmh 29.28 in991.5 mb 0.00 in0.0 mm 0.00 in/hr0.0 mm/hr 0.00 in0.0 mm
02:48 PM 68.5°F20.3°C 48.1°F8.9°C 48% 11.1 mph NNE17.9 kmh NNE 17.4 mph28.0 kmh 29.28 in991.5 mb 0.00 in0.0 mm 0.00 in/hr0.0 mm/hr 0.00 in0.0 mm
02:47 PM 68.5°F20.3°C 48.1°F8.9°C 48% 12.0 mph N19.3 kmh N 17.4 mph28.0 kmh 29.29 in991.9 mb 0.00 in0.0 mm 0.00 in/hr0.0 mm/hr 0.00 in0.0 mm
02:46 PM 68.7°F20.4°C 48.3°F9.1°C 48% 12.2 mph N19.6 kmh N 17.4 mph28.0 kmh 29.28 in991.5 mb 0.00 in0.0 mm 0.00 in/hr0.0 mm/hr 0.00 in0.0 mm
02:45 PM 68.7°F20.4°C 47.7°F8.7°C 47% 12.2 mph N19.6 kmh N 17.4 mph28.0 kmh 29.28 in991.5 mb 0.00 in0.0 mm 0.00 in/hr0.0 mm/hr 0.00 in0.0 mm
02:44 PM 68.9°F20.5°C 47.9°F8.8°C 47% 11.9 mph N19.2 kmh N 17.4 mph28.0 kmh 29.29 in991.9 mb 0.00 in0.0 mm 0.00 in/hr0.0 mm/hr 0.00 in0.0 mm
02:43 PM 69.1°F20.6°C 48.0°F8.9°C 47% 12.3 mph NNE19.8 kmh NNE 17.4 mph28.0 kmh 29.29 in991.9 mb 0.00 in0.0 mm 0.00 in/hr0.0 mm/hr 0.00 in0.0 mm
02:42 PM 69.4°F20.8°C 47.8°F8.8°C 46% 12.4 mph NNE20.0 kmh NNE 17.4 mph28.0 kmh 29.29 in991.9 mb 0.00 in0.0 mm 0.00 in/hr0.0 mm/hr 0.00 in0.0 mm
02:40 PM 69.4°F20.8°C 47.8°F8.8°C 46% 13.0 mph NNE20.9 kmh NNE 17.4 mph28.0 kmh 29.29 in991.9 mb 0.00 in0.0 mm 0.00 in/hr0.0 mm/hr 0.00 in0.0 mm
02:39 PM 69.6°F20.9°C 47.4°F8.6°C 45% 13.6 mph NE21.9 kmh NE 17.4 mph28.0 kmh 29.29 in991.9 mb 0.00 in0.0 mm 0.00 in/hr0.0 mm/hr 0.00 in0.0 mm
02:38 PM 69.8°F21.0°C 48.1°F8.9°C 46% 13.4 mph NE21.6 kmh NE 17.4 mph28.0 kmh 29.29 in991.9 mb 0.00 in0.0 mm 0.00 in/hr0.0 mm/hr 0.00 in0.0 mm
02:37 PM 69.8°F21.0°C 48.7°F9.3°C 47% 13.0 mph NE20.9 kmh NE 17.4 mph28.0 kmh 29.29 in991.9 mb 0.00 in0.0 mm 0.00 in/hr0.0 mm/hr 0.00 in0.0 mm
02:36 PM 70.0°F21.1°C 48.9°F9.4°C 47% 12.5 mph NE20.1 kmh NE 17.4 mph28.0 kmh 29.29 in991.9 mb 0.00 in0.0 mm 0.00 in/hr0.0 mm/hr 0.00 in0.0 mm
02:35 PM 69.8°F21.0°C 48.7°F9.3°C 47% 12.8 mph ENE20.6 kmh ENE 17.4 mph28.0 kmh 29.29 in991.9 mb 0.00 in0.0 mm 0.00 in/hr0.0 mm/hr 0.00 in0.0 mm
02:34 PM 69.8°F21.0°C 48.7°F9.3°C 47% 13.1 mph ENE21.1 kmh ENE 17.4 mph28.0 kmh 29.29 in991.9 mb 0.00 in0.0 mm 0.00 in/hr0.0 mm/hr 0.00 in0.0 mm
02:33 PM 69.8°F21.0°C 48.1°F8.9°C 46% 13.1 mph ENE21.1 kmh ENE 17.4 mph28.0 kmh 29.29 in991.9 mb 0.00 in0.0 mm 0.00 in/hr0.0 mm/hr 0.00 in0.0 mm
02:32 PM 69.8°F21.0°C 48.1°F8.9°C 46% 13.2 mph NE21.2 kmh NE 17.4 mph28.0 kmh 29.29 in991.9 mb 0.00 in0.0 mm 0.00 in/hr0.0 mm/hr 0.00 in0.0 mm
02:31 PM 69.6°F20.9°C 48.5°F9.2°C 47% 12.9 mph NE20.8 kmh NE 17.4 mph28.0 kmh 29.29 in991.9 mb 0.00 in0.0 mm 0.00 in/hr0.0 mm/hr 0.00 in0.0 mm
02:30 PM 69.6°F20.9°C 48.5°F9.2°C 47% 12.4 mph ENE20.0 kmh ENE 16.8 mph27.0 kmh 29.29 in991.9 mb 0.00 in0.0 mm 0.00 in/hr0.0 mm/hr 0.00 in0.0 mm
02:29 PM 69.4°F20.8°C 48.4°F9.1°C 47% 12.4 mph NE20.0 kmh NE 16.8 mph27.0 kmh 29.29 in991.9 mb 0.00 in0.0 mm 0.00 in/hr0.0 mm/hr 0.00 in0.0 mm
02:28 PM 69.4°F20.8°C 48.9°F9.4°C 48% 12.0 mph ENE19.3 kmh ENE 16.8 mph27.0 kmh 29.29 in991.9 mb 0.00 in0.0 mm 0.00 in/hr0.0 mm/hr 0.00 in0.0 mm
02:27 PM 69.3°F20.7°C 48.8°F9.3°C 48% 12.2 mph NE19.6 kmh NE 16.8 mph27.0 kmh 29.29 in991.9 mb 0.00 in0.0 mm 0.00 in/hr0.0 mm/hr 0.00 in0.0 mm
02:26 PM 69.1°F20.6°C 48.6°F9.2°C 48% 12.8 mph ENE20.6 kmh ENE 16.8 mph27.0 kmh 29.29 in991.9 mb 0.00 in0.0 mm 0.00 in/hr0.0 mm/hr 0.00 in0.0 mm
02:25 PM 68.9°F20.5°C 49.0°F9.4°C 49% 12.8 mph NE20.6 kmh NE 16.8 mph27.0 kmh 29.29 in991.9 mb 0.00 in0.0 mm 0.00 in/hr0.0 mm/hr 0.00 in0.0 mm
02:24 PM 68.7°F20.4°C 48.8°F9.3°C 49% 12.9 mph NE20.8 kmh NE 15.2 mph24.5 kmh 29.29 in991.9 mb 0.00 in0.0 mm 0.00 in/hr0.0 mm/hr 0.00 in0.0 mm
02:23 PM 68.4°F20.2°C 49.0°F9.4°C 50% 13.2 mph NE21.2 kmh NE 15.9 mph25.6 kmh 29.29 in991.9 mb 0.00 in0.0 mm 0.00 in/hr0.0 mm/hr 0.00 in0.0 mm
02:22 PM 68.2°F20.1°C 48.9°F9.4°C 50% 14.0 mph NE22.5 kmh NE 20.6 mph33.2 kmh 29.29 in991.9 mb 0.00 in0.0 mm 0.00 in/hr0.0 mm/hr 0.00 in0.0 mm
02:21 PM 68.0°F20.0°C 48.7°F9.3°C 50% 14.3 mph NE23.0 kmh NE 20.6 mph33.2 kmh 29.29 in991.9 mb 0.00 in0.0 mm 0.00 in/hr0.0 mm/hr 0.00 in0.0 mm
02:20 PM 67.8°F19.9°C 48.5°F9.2°C 50% 14.6 mph NE23.5 kmh NE 20.6 mph33.2 kmh 29.29 in991.9 mb 0.00 in0.0 mm 0.00 in/hr0.0 mm/hr 0.00 in0.0 mm
02:19 PM 67.5°F19.7°C 48.2°F9.0°C 50% 14.7 mph NE23.7 kmh NE 20.6 mph33.2 kmh 29.29 in991.9 mb 0.00 in0.0 mm 0.00 in/hr0.0 mm/hr 0.00 in0.0 mm
02:18 PM 67.3°F19.6°C 48.0°F8.9°C 50% 15.1 mph NE24.3 kmh NE 20.6 mph33.2 kmh 29.29 in991.9 mb 0.00 in0.0 mm 0.00 in/hr0.0 mm/hr 0.00 in0.0 mm
02:17 PM 67.3°F19.6°C 48.0°F8.9°C 50% 15.2 mph NE24.5 kmh NE 20.6 mph33.2 kmh 29.29 in991.9 mb 0.00 in0.0 mm 0.00 in/hr0.0 mm/hr 0.00 in0.0 mm
02:16 PM 67.1°F19.5°C 47.9°F8.8°C 50% 14.6 mph NE23.5 kmh NE 20.6 mph33.2 kmh 29.29 in991.9 mb 0.00 in0.0 mm 0.00 in/hr0.0 mm/hr 0.00 in0.0 mm
02:15 PM 66.9°F19.4°C 48.2°F9.0°C 51% 13.6 mph NE21.9 kmh NE 20.6 mph33.2 kmh 29.29 in991.9 mb 0.00 in0.0 mm 0.00 in/hr0.0 mm/hr 0.00 in0.0 mm
02:14 PM 66.7°F19.3°C 47.5°F8.6°C 50% 13.2 mph NE21.2 kmh NE 20.6 mph33.2 kmh 29.29 in991.9 mb 0.00 in0.0 mm 0.00 in/hr0.0 mm/hr 0.00 in0.0 mm
02:13 PM 66.7°F19.3°C 47.5°F8.6°C 50% 12.6 mph NE20.3 kmh NE 20.6 mph33.2 kmh 29.29 in991.9 mb 0.00 in0.0 mm 0.00 in/hr0.0 mm/hr 0.00 in0.0 mm
02:12 PM 66.7°F19.3°C 47.5°F8.6°C 50% 11.6 mph NE18.7 kmh NE 20.6 mph33.2 kmh 29.29 in991.9 mb 0.00 in0.0 mm 0.00 in/hr0.0 mm/hr 0.00 in0.0 mm
02:11 PM 66.7°F19.3°C 47.5°F8.6°C 50% 10.9 mph NE17.5 kmh NE 17.4 mph28.0 kmh 29.29 in991.9 mb 0.00 in0.0 mm 0.00 in/hr0.0 mm/hr 0.00 in0.0 mm
02:10 PM 66.7°F19.3°C 47.5°F8.6°C 50% 10.7 mph NE17.2 kmh NE 17.4 mph28.0 kmh 29.29 in991.9 mb 0.00 in0.0 mm 0.00 in/hr0.0 mm/hr 0.00 in0.0 mm
02:09 PM 66.7°F19.3°C 47.5°F8.6°C 50% 10.3 mph NNE16.6 kmh NNE 17.4 mph28.0 kmh 29.30 in992.2 mb 0.00 in0.0 mm 0.00 in/hr0.0 mm/hr 0.00 in0.0 mm
02:08 PM 66.7°F19.3°C 48.1°F8.9°C 51% 9.9 mph NNE15.9 kmh NNE 15.9 mph25.6 kmh 29.29 in991.9 mb 0.00 in0.0 mm 0.00 in/hr0.0 mm/hr 0.00 in0.0 mm
02:07 PM 66.7°F19.3°C 48.6°F9.2°C 52% 9.6 mph NNE15.4 kmh NNE 15.2 mph24.5 kmh 29.30 in992.2 mb 0.00 in0.0 mm 0.00 in/hr0.0 mm/hr 0.00 in0.0 mm
02:06 PM 66.6°F19.2°C 48.4°F9.1°C 52% 9.6 mph NNE15.4 kmh NNE 15.2 mph24.5 kmh 29.30 in992.2 mb 0.00 in0.0 mm 0.00 in/hr0.0 mm/hr 0.00 in0.0 mm
02:05 PM 66.6°F19.2°C 47.9°F8.8°C 51% 10.3 mph NE16.6 kmh NE 15.2 mph24.5 kmh 29.30 in992.2 mb 0.00 in0.0 mm 0.00 in/hr0.0 mm/hr 0.00 in0.0 mm
02:04 PM 66.6°F19.2°C 47.9°F8.8°C 51% 10.4 mph NE16.7 kmh NE 15.2 mph24.5 kmh 29.30 in992.2 mb 0.00 in0.0 mm 0.00 in/hr0.0 mm/hr 0.00 in0.0 mm
02:03 PM 66.6°F19.2°C 47.9°F8.8°C 51% 10.6 mph NE17.1 kmh NE 15.2 mph24.5 kmh 29.30 in992.2 mb 0.00 in0.0 mm 0.00 in/hr0.0 mm/hr 0.00 in0.0 mm
02:02 PM 66.7°F19.3°C 48.1°F8.9°C 51% 10.5 mph NE16.9 kmh NE 15.2 mph24.5 kmh 29.30 in992.2 mb 0.00 in0.0 mm 0.00 in/hr0.0 mm/hr 0.00 in0.0 mm
02:01 PM 66.7°F19.3°C 47.5°F8.6°C 50% 10.9 mph NE17.5 kmh NE 15.9 mph25.6 kmh 29.30 in992.2 mb 0.00 in0.0 mm 0.00 in/hr0.0 mm/hr 0.00 in0.0 mm
02:00 PM 66.9°F19.4°C 47.7°F8.7°C 50% 11.1 mph NE17.9 kmh NE 15.9 mph25.6 kmh 29.30 in992.2 mb 0.00 in0.0 mm 0.00 in/hr0.0 mm/hr 0.00 in0.0 mm
01:59 PM 66.9°F19.4°C 47.7°F8.7°C 50% 11.3 mph NE18.2 kmh NE 15.9 mph25.6 kmh 29.30 in992.2 mb 0.00 in0.0 mm 0.00 in/hr0.0 mm/hr 0.00 in0.0 mm
01:58 PM 67.1°F19.5°C 47.9°F8.8°C 50% 12.0 mph NE19.3 kmh NE 22.1 mph35.6 kmh 29.30 in992.2 mb 0.00 in0.0 mm 0.00 in/hr0.0 mm/hr 0.00 in0.0 mm
01:57 PM 67.1°F19.5°C 47.9°F8.8°C 50% 12.1 mph NE19.5 kmh NE 22.1 mph35.6 kmh 29.30 in992.2 mb 0.00 in0.0 mm 0.00 in/hr0.0 mm/hr 0.00 in0.0 mm
01:56 PM 67.3°F19.6°C 47.5°F8.6°C 49% 12.4 mph NE20.0 kmh NE 22.1 mph35.6 kmh 29.30 in992.2 mb 0.00 in0.0 mm 0.00 in/hr0.0 mm/hr 0.00 in0.0 mm
01:55 PM 67.5°F19.7°C 47.7°F8.7°C 49% 12.8 mph NE20.6 kmh NE 22.1 mph35.6 kmh 29.30 in992.2 mb 0.00 in0.0 mm 0.00 in/hr0.0 mm/hr 0.00 in0.0 mm
01:54 PM 67.5°F19.7°C 47.7°F8.7°C 49% 13.5 mph NE21.7 kmh NE 22.1 mph35.6 kmh 29.30 in992.2 mb 0.00 in0.0 mm 0.00 in/hr0.0 mm/hr 0.00 in0.0 mm
01:53 PM 67.6°F19.8°C 47.8°F8.8°C 49% 14.2 mph ENE22.9 kmh ENE 22.1 mph35.6 kmh 29.30 in992.2 mb 0.00 in0.0 mm 0.00 in/hr0.0 mm/hr 0.00 in0.0 mm
01:52 PM 67.8°F19.9°C 48.0°F8.9°C 49% 14.7 mph ENE23.7 kmh ENE 22.1 mph35.6 kmh 29.30 in992.2 mb 0.00 in0.0 mm 0.00 in/hr0.0 mm/hr 0.00 in0.0 mm
01:51 PM 68.0°F20.0°C 48.1°F8.9°C 49% 14.9 mph ENE24.0 kmh ENE 22.1 mph35.6 kmh 29.30 in992.2 mb 0.00 in0.0 mm 0.00 in/hr0.0 mm/hr 0.00 in0.0 mm
01:50 PM 68.0°F20.0°C 48.1°F8.9°C 49% 14.7 mph ENE23.7 kmh ENE 22.1 mph35.6 kmh 29.30 in992.2 mb 0.00 in0.0 mm 0.00 in/hr0.0 mm/hr 0.00 in0.0 mm
01:49 PM 68.2°F20.1°C 48.3°F9.1°C 49% 14.7 mph ENE23.7 kmh ENE 22.1 mph35.6 kmh 29.30 in992.2 mb 0.00 in0.0 mm 0.00 in/hr0.0 mm/hr 0.00 in0.0 mm
01:48 PM 68.2°F20.1°C 48.3°F9.1°C 49% 14.0 mph ENE22.5 kmh ENE 22.1 mph35.6 kmh 29.30 in992.2 mb 0.00 in0.0 mm 0.00 in/hr0.0 mm/hr 0.00 in0.0 mm
01:47 PM 68.4°F20.2°C 48.5°F9.2°C 49% 13.9 mph ENE22.4 kmh ENE 18.3 mph29.5 kmh 29.30 in992.2 mb 0.00 in0.0 mm 0.00 in/hr0.0 mm/hr 0.00 in0.0 mm
01:46 PM 68.5°F20.3°C 48.6°F9.2°C 49% 13.9 mph NE22.4 kmh NE 18.3 mph29.5 kmh 29.30 in992.2 mb 0.00 in0.0 mm 0.00 in/hr0.0 mm/hr 0.00 in0.0 mm
01:45 PM 68.5°F20.3°C 48.6°F9.2°C 49% 13.5 mph NE21.7 kmh NE 18.3 mph29.5 kmh 29.30 in992.2 mb 0.00 in0.0 mm 0.00 in/hr0.0 mm/hr 0.00 in0.0 mm
01:44 PM 68.5°F20.3°C 48.6°F9.2°C 49% 13.1 mph NE21.1 kmh NE 16.8 mph27.0 kmh 29.30 in992.2 mb 0.00 in0.0 mm 0.00 in/hr0.0 mm/hr 0.00 in0.0 mm
01:43 PM 68.5°F20.3°C 49.2°F9.6°C 50% 12.6 mph NE20.3 kmh NE 16.8 mph27.0 kmh 29.30 in992.2 mb 0.00 in0.0 mm 0.00 in/hr0.0 mm/hr 0.00 in0.0 mm
01:42 PM 68.5°F20.3°C 49.2°F9.6°C 50% 12.9 mph NE20.8 kmh NE 19.7 mph31.7 kmh 29.31 in992.6 mb 0.00 in0.0 mm 0.00 in/hr0.0 mm/hr 0.00 in0.0 mm
01:41 PM 68.5°F20.3°C 49.2°F9.6°C 50% 13.1 mph NE21.1 kmh NE 19.7 mph31.7 kmh 29.30 in992.2 mb 0.00 in0.0 mm 0.00 in/hr0.0 mm/hr 0.00 in0.0 mm
01:40 PM 68.4°F20.2°C 49.0°F9.4°C 50% 13.4 mph NE21.6 kmh NE 19.7 mph31.7 kmh 29.30 in992.2 mb 0.00 in0.0 mm 0.00 in/hr0.0 mm/hr 0.00 in0.0 mm
01:39 PM 68.2°F20.1°C 48.9°F9.4°C 50% 13.3 mph NE21.4 kmh NE 19.7 mph31.7 kmh 29.30 in992.2 mb 0.00 in0.0 mm 0.00 in/hr0.0 mm/hr 0.00 in0.0 mm
01:38 PM 68.2°F20.1°C 48.9°F9.4°C 50% 13.2 mph ENE21.2 kmh ENE 19.7 mph31.7 kmh 29.30 in992.2 mb 0.00 in0.0 mm 0.00 in/hr0.0 mm/hr 0.00 in0.0 mm
01:37 PM 68.2°F20.1°C 48.9°F9.4°C 50% 13.7 mph NE22.0 kmh NE 19.7 mph31.7 kmh 29.30 in992.2 mb 0.00 in0.0 mm 0.00 in/hr0.0 mm/hr 0.00 in0.0 mm
01:36 PM 68.0°F20.0°C 48.7°F9.3°C 50% 13.8 mph NE22.2 kmh NE 19.7 mph31.7 kmh 29.31 in992.6 mb 0.00 in0.0 mm 0.00 in/hr0.0 mm/hr 0.00 in0.0 mm
01:35 PM 68.2°F20.1°C 48.3°F9.1°C 49% 14.0 mph NE22.5 kmh NE 19.7 mph31.7 kmh 29.30 in992.2 mb 0.00 in0.0 mm 0.00 in/hr0.0 mm/hr 0.00 in0.0 mm
01:34 PM 68.2°F20.1°C 48.3°F9.1°C 49% 13.8 mph NE22.2 kmh NE 19.7 mph31.7 kmh 29.31 in992.6 mb 0.00 in0.0 mm 0.00 in/hr0.0 mm/hr 0.00 in0.0 mm
01:33 PM 68.4°F20.2°C 48.5°F9.2°C 49% 15.0 mph ENE24.1 kmh ENE 22.8 mph36.7 kmh 29.30 in992.2 mb 0.00 in0.0 mm 0.00 in/hr0.0 mm/hr 0.00 in0.0 mm
01:32 PM 68.4°F20.2°C 48.5°F9.2°C 49% 15.1 mph NE24.3 kmh NE 22.8 mph36.7 kmh 29.30 in992.2 mb 0.00 in0.0 mm 0.00 in/hr0.0 mm/hr 0.00 in0.0 mm
01:31 PM 68.4°F20.2°C 49.0°F9.4°C 50% 15.3 mph NE24.6 kmh NE 22.8 mph36.7 kmh 29.31 in992.6 mb 0.00 in0.0 mm 0.00 in/hr0.0 mm/hr 0.00 in0.0 mm
01:30 PM 68.4°F20.2°C 48.5°F9.2°C 49% 15.2 mph NE24.5 kmh NE 22.8 mph36.7 kmh 29.31 in992.6 mb 0.00 in0.0 mm 0.00 in/hr0.0 mm/hr 0.00 in0.0 mm
01:29 PM 68.5°F20.3°C 48.6°F9.2°C 49% 15.0 mph ENE24.1 kmh ENE 22.8 mph36.7 kmh 29.31 in992.6 mb 0.00 in0.0 mm 0.00 in/hr0.0 mm/hr 0.00 in0.0 mm
01:28 PM 68.5°F20.3°C 48.6°F9.2°C 49% 14.8 mph NE23.8 kmh NE 22.8 mph36.7 kmh 29.31 in992.6 mb 0.00 in0.0 mm 0.00 in/hr0.0 mm/hr 0.00 in0.0 mm
01:27 PM 68.5°F20.3°C 48.6°F9.2°C 49% 14.5 mph NE23.3 kmh NE 22.8 mph36.7 kmh 29.31 in992.6 mb 0.00 in0.0 mm 0.00 in/hr0.0 mm/hr 0.00 in0.0 mm
01:26 PM 68.5°F20.3°C 48.6°F9.2°C 49% 14.7 mph NE23.7 kmh NE 22.8 mph36.7 kmh 29.30 in992.2 mb 0.00 in0.0 mm 0.00 in/hr0.0 mm/hr 0.00 in0.0 mm
01:25 PM 68.7°F20.4°C 48.3°F9.1°C 48% 14.5 mph NE23.3 kmh NE 22.8 mph36.7 kmh 29.31 in992.6 mb 0.00 in0.0 mm 0.00 in/hr0.0 mm/hr 0.00 in0.0 mm
01:24 PM 68.9°F20.5°C 48.4°F9.1°C 48% 14.8 mph NE23.8 kmh NE 22.8 mph36.7 kmh 29.31 in992.6 mb 0.00 in0.0 mm 0.00 in/hr0.0 mm/hr 0.00 in0.0 mm
01:23 PM 68.9°F20.5°C 48.4°F9.1°C 48% 13.7 mph NE22.0 kmh NE 20.6 mph33.2 kmh 29.31 in992.6 mb 0.00 in0.0 mm 0.00 in/hr0.0 mm/hr 0.00 in0.0 mm
01:22 PM 69.1°F20.6°C 48.6°F9.2°C 48% 12.9 mph NE20.8 kmh NE 20.6 mph33.2 kmh 29.31 in992.6 mb 0.00 in0.0 mm 0.00 in/hr0.0 mm/hr 0.00 in0.0 mm
01:21 PM 69.1°F20.6°C 49.1°F9.5°C 49% 12.4 mph NE20.0 kmh NE 20.6 mph33.2 kmh 29.31 in992.6 mb 0.00 in0.0 mm 0.00 in/hr0.0 mm/hr 0.00 in0.0 mm
01:20 PM 69.1°F20.6°C 49.1°F9.5°C 49% 12.4 mph NE20.0 kmh NE 17.4 mph28.0 kmh 29.31 in992.6 mb 0.00 in0.0 mm 0.00 in/hr0.0 mm/hr 0.00 in0.0 mm
01:19 PM 68.9°F20.5°C 48.4°F9.1°C 48% 12.5 mph NE20.1 kmh NE 17.4 mph28.0 kmh 29.31 in992.6 mb 0.00 in0.0 mm 0.00 in/hr0.0 mm/hr 0.00 in0.0 mm
01:18 PM 68.9°F20.5°C 48.4°F9.1°C 48% 12.9 mph NE20.8 kmh NE 17.4 mph28.0 kmh 29.31 in992.6 mb 0.00 in0.0 mm 0.00 in/hr0.0 mm/hr 0.00 in0.0 mm
01:17 PM 68.9°F20.5°C 48.4°F9.1°C 48% 12.7 mph NE20.4 kmh NE 17.4 mph28.0 kmh 29.31 in992.6 mb 0.00 in0.0 mm 0.00 in/hr0.0 mm/hr 0.00 in0.0 mm
01:16 PM 68.9°F20.5°C 47.9°F8.8°C 47% 12.4 mph NE20.0 kmh NE 15.2 mph24.5 kmh 29.31 in992.6 mb 0.00 in0.0 mm 0.00 in/hr0.0 mm/hr 0.00 in0.0 mm
01:15 PM 69.1°F20.6°C 48.0°F8.9°C 47% 11.9 mph NE19.2 kmh NE 15.2 mph24.5 kmh 29.31 in992.6 mb 0.00 in0.0 mm 0.00 in/hr0.0 mm/hr 0.00 in0.0 mm
01:14 PM 69.1°F20.6°C 48.0°F8.9°C 47% 11.6 mph NE18.7 kmh NE 15.2 mph24.5 kmh 29.31 in992.6 mb 0.00 in0.0 mm 0.00 in/hr0.0 mm/hr 0.00 in0.0 mm
01:13 PM 69.3°F20.7°C 48.2°F9.0°C 47% 11.3 mph NE18.2 kmh NE 15.2 mph24.5 kmh 29.31 in992.6 mb 0.00 in0.0 mm 0.00 in/hr0.0 mm/hr 0.00 in0.0 mm
01:12 PM 69.4°F20.8°C 47.8°F8.8°C 46% 11.3 mph NE18.2 kmh NE 15.2 mph24.5 kmh 29.32 in992.9 mb 0.00 in0.0 mm 0.00 in/hr0.0 mm/hr 0.00 in0.0 mm
01:11 PM 69.6°F20.9°C 47.9°F8.8°C 46% 11.0 mph NE17.7 kmh NE 15.2 mph24.5 kmh 29.31 in992.6 mb 0.00 in0.0 mm 0.00 in/hr0.0 mm/hr 0.00 in0.0 mm
01:10 PM 69.8°F21.0°C 48.1°F8.9°C 46% 10.6 mph NE17.1 kmh NE 14.5 mph23.3 kmh 29.32 in992.9 mb 0.00 in0.0 mm 0.00 in/hr0.0 mm/hr 0.00 in0.0 mm
01:09 PM 69.8°F21.0°C 48.1°F8.9°C 46% 10.5 mph NE16.9 kmh NE 14.5 mph23.3 kmh 29.31 in992.6 mb 0.00 in0.0 mm 0.00 in/hr0.0 mm/hr 0.00 in0.0 mm
01:08 PM 70.0°F21.1°C 48.3°F9.1°C 46% 10.1 mph NE16.3 kmh NE 13.0 mph20.9 kmh 29.31 in992.6 mb 0.00 in0.0 mm 0.00 in/hr0.0 mm/hr 0.00 in0.0 mm
01:07 PM 70.2°F21.2°C 48.4°F9.1°C 46% 9.9 mph NE15.9 kmh NE 13.0 mph20.9 kmh 29.31 in992.6 mb 0.00 in0.0 mm 0.00 in/hr0.0 mm/hr 0.00 in0.0 mm
01:06 PM 70.3°F21.3°C 48.6°F9.2°C 46% 9.8 mph NE15.8 kmh NE 12.1 mph19.5 kmh 29.31 in992.6 mb 0.00 in0.0 mm 0.00 in/hr0.0 mm/hr 0.00 in0.0 mm
01:05 PM 70.3°F21.3°C 48.6°F9.2°C 46% 10.3 mph NNE16.6 kmh NNE 14.5 mph23.3 kmh 29.31 in992.6 mb 0.00 in0.0 mm 0.00 in/hr0.0 mm/hr 0.00 in0.0 mm
01:04 PM 70.5°F21.4°C 48.8°F9.3°C 46% 10.2 mph NNE16.4 kmh NNE 14.5 mph23.3 kmh 29.31 in992.6 mb 0.00 in0.0 mm 0.00 in/hr0.0 mm/hr 0.00 in0.0 mm
01:03 PM 70.5°F21.4°C 48.8°F9.3°C 46% 10.2 mph N16.4 kmh N 14.5 mph23.3 kmh 29.31 in992.6 mb 0.00 in0.0 mm 0.00 in/hr0.0 mm/hr 0.00 in0.0 mm
01:02 PM 70.5°F21.4°C 49.3°F9.6°C 47% 10.0 mph N16.1 kmh N 14.5 mph23.3 kmh 29.31 in992.6 mb 0.00 in0.0 mm 0.00 in/hr0.0 mm/hr 0.00 in0.0 mm
01:01 PM 70.5°F21.4°C 49.3°F9.6°C 47% 9.8 mph N15.8 kmh N 14.5 mph23.3 kmh 29.31 in992.6 mb 0.00 in0.0 mm 0.00 in/hr0.0 mm/hr 0.00 in0.0 mm
01:00 PM 70.3°F21.3°C 49.7°F9.8°C 48% 10.1 mph N16.3 kmh N 14.5 mph23.3 kmh 29.31 in992.6 mb 0.00 in0.0 mm 0.00 in/hr0.0 mm/hr 0.00 in0.0 mm
12:59 PM 70.3°F21.3°C 49.7°F9.8°C 48% 10.1 mph N16.3 kmh N 14.5 mph23.3 kmh 29.31 in992.6 mb 0.00 in0.0 mm 0.00 in/hr0.0 mm/hr 0.00 in0.0 mm
12:58 PM 70.3°F21.3°C 49.2°F9.6°C 47% 10.3 mph N16.6 kmh N 14.5 mph23.3 kmh 29.31 in992.6 mb 0.00 in0.0 mm 0.00 in/hr0.0 mm/hr 0.00 in0.0 mm
12:57 PM 70.2°F21.2°C 49.6°F9.8°C 48% 10.6 mph N17.1 kmh N 14.5 mph23.3 kmh 29.31 in992.6 mb 0.00 in0.0 mm 0.00 in/hr0.0 mm/hr 0.00 in0.0 mm
12:56 PM 70.0°F21.1°C 49.4°F9.7°C 48% 10.8 mph N17.4 kmh N 14.5 mph23.3 kmh 29.31 in992.6 mb 0.00 in0.0 mm 0.00 in/hr0.0 mm/hr 0.00 in0.0 mm
12:55 PM 69.8°F21.0°C 49.8°F9.9°C 49% 10.7 mph NNE17.2 kmh NNE 14.5 mph23.3 kmh 29.32 in992.9 mb 0.00 in0.0 mm 0.00 in/hr0.0 mm/hr 0.00 in0.0 mm
12:54 PM 69.6°F20.9°C 50.2°F10.1°C 50% 11.0 mph NNE17.7 kmh NNE 14.5 mph23.3 kmh 29.31 in992.6 mb 0.00 in0.0 mm 0.00 in/hr0.0 mm/hr 0.00 in0.0 mm
12:53 PM 69.4°F20.8°C 50.0°F10.0°C 50% 11.7 mph NE18.8 kmh NE 15.9 mph25.6 kmh 29.31 in992.6 mb 0.00 in0.0 mm 0.00 in/hr0.0 mm/hr 0.00 in0.0 mm
12:52 PM 69.4°F20.8°C 50.0°F10.0°C 50% 12.7 mph NE20.4 kmh NE 17.4 mph28.0 kmh 29.30 in992.2 mb 0.00 in0.0 mm 0.00 in/hr0.0 mm/hr 0.00 in0.0 mm
12:51 PM 69.3°F20.7°C 49.8°F9.9°C 50% 13.3 mph NE21.4 kmh NE 17.4 mph28.0 kmh 29.31 in992.6 mb 0.00 in0.0 mm 0.00 in/hr0.0 mm/hr 0.00 in0.0 mm
12:50 PM 69.1°F20.6°C 49.7°F9.8°C 50% 13.5 mph NE21.7 kmh NE 17.4 mph28.0 kmh 29.31 in992.6 mb 0.00 in0.0 mm 0.00 in/hr0.0 mm/hr 0.00 in0.0 mm
12:49 PM 69.1°F20.6°C 49.7°F9.8°C 50% 13.7 mph NE22.0 kmh NE 17.4 mph28.0 kmh 29.31 in992.6 mb 0.00 in0.0 mm 0.00 in/hr0.0 mm/hr 0.00 in0.0 mm
12:48 PM 69.1°F20.6°C 49.1°F9.5°C 49% 14.4 mph NE23.2 kmh NE 18.3 mph29.5 kmh 29.31 in992.6 mb 0.00 in0.0 mm 0.00 in/hr0.0 mm/hr 0.00 in0.0 mm
12:47 PM 69.1°F20.6°C 49.1°F9.5°C 49% 14.4 mph NE23.2 kmh NE 18.3 mph29.5 kmh 29.31 in992.6 mb 0.00 in0.0 mm 0.00 in/hr0.0 mm/hr 0.00 in0.0 mm
12:46 PM 69.1°F20.6°C 49.1°F9.5°C 49% 14.3 mph NE23.0 kmh NE 18.3 mph29.5 kmh 29.31 in992.6 mb 0.00 in0.0 mm 0.00 in/hr0.0 mm/hr 0.00 in0.0 mm
12:45 PM 69.1°F20.6°C 48.6°F9.2°C 48% 14.4 mph NE23.2 kmh NE 18.3 mph29.5 kmh 29.31 in992.6 mb 0.00 in0.0 mm 0.00 in/hr0.0 mm/hr 0.00 in0.0 mm
12:44 PM 69.3°F20.7°C 48.8°F9.3°C 48% 14.6 mph NE23.5 kmh NE 18.3 mph29.5 kmh 29.31 in992.6 mb 0.00 in0.0 mm 0.00 in/hr0.0 mm/hr 0.00 in0.0 mm
12:43 PM 69.4°F20.8°C 48.9°F9.4°C 48% 14.8 mph NE23.8 kmh NE 18.3 mph29.5 kmh 29.31 in992.6 mb 0.00 in0.0 mm 0.00 in/hr0.0 mm/hr 0.00 in0.0 mm
12:42 PM 69.6°F20.9°C 49.1°F9.5°C 48% 14.4 mph NE23.2 kmh NE 18.3 mph29.5 kmh 29.31 in992.6 mb 0.00 in0.0 mm 0.00 in/hr0.0 mm/hr 0.00 in0.0 mm
12:41 PM 69.6°F20.9°C 49.1°F9.5°C 48% 14.2 mph NE22.9 kmh NE 18.3 mph29.5 kmh 29.31 in992.6 mb 0.00 in0.0 mm 0.00 in/hr0.0 mm/hr 0.00 in0.0 mm
12:40 PM 69.6°F20.9°C 49.1°F9.5°C 48% 14.2 mph NE22.9 kmh NE 18.3 mph29.5 kmh 29.31 in992.6 mb 0.00 in0.0 mm 0.00 in/hr0.0 mm/hr 0.00 in0.0 mm
12:39 PM 69.6°F20.9°C 49.1°F9.5°C 48% 14.3 mph NE23.0 kmh NE 18.3 mph29.5 kmh 29.32 in992.9 mb 0.00 in0.0 mm 0.00 in/hr0.0 mm/hr 0.00 in0.0 mm
12:38 PM 69.6°F20.9°C 49.6°F9.8°C 49% 14.5 mph NE23.3 kmh NE 22.1 mph35.6 kmh 29.31 in992.6 mb 0.00 in0.0 mm 0.00 in/hr0.0 mm/hr 0.00 in0.0 mm
12:37 PM 69.4°F20.8°C 49.5°F9.7°C 49% 14.8 mph NE23.8 kmh NE 22.1 mph35.6 kmh 29.31 in992.6 mb 0.00 in0.0 mm 0.00 in/hr0.0 mm/hr 0.00 in0.0 mm
12:36 PM 69.3°F20.7°C 49.3°F9.6°C 49% 15.4 mph NE24.8 kmh NE 22.1 mph35.6 kmh 29.31 in992.6 mb 0.00 in0.0 mm 0.00 in/hr0.0 mm/hr 0.00 in0.0 mm
12:35 PM 68.9°F20.5°C 49.5°F9.7°C 50% 15.4 mph NE24.8 kmh NE 22.1 mph35.6 kmh 29.31 in992.6 mb 0.00 in0.0 mm 0.00 in/hr0.0 mm/hr 0.00 in0.0 mm
12:34 PM 68.7°F20.4°C 49.4°F9.7°C 50% 15.6 mph NE25.1 kmh NE 22.1 mph35.6 kmh 29.31 in992.6 mb 0.00 in0.0 mm 0.00 in/hr0.0 mm/hr 0.00 in0.0 mm
12:33 PM 68.5°F20.3°C 49.2°F9.6°C 50% 15.4 mph NE24.8 kmh NE 22.1 mph35.6 kmh 29.31 in992.6 mb 0.00 in0.0 mm 0.00 in/hr0.0 mm/hr 0.00 in0.0 mm
12:32 PM 68.4°F20.2°C 49.0°F9.4°C 50% 15.5 mph NE24.9 kmh NE 22.1 mph35.6 kmh 29.31 in992.6 mb 0.00 in0.0 mm 0.00 in/hr0.0 mm/hr 0.00 in0.0 mm
12:31 PM 68.2°F20.1°C 48.9°F9.4°C 50% 16.1 mph NE25.9 kmh NE 22.1 mph35.6 kmh 29.31 in992.6 mb 0.00 in0.0 mm 0.00 in/hr0.0 mm/hr 0.00 in0.0 mm
12:30 PM 68.0°F20.0°C 48.7°F9.3°C 50% 16.2 mph ENE26.1 kmh ENE 22.1 mph35.6 kmh 29.31 in992.6 mb 0.00 in0.0 mm 0.00 in/hr0.0 mm/hr 0.00 in0.0 mm
12:29 PM 68.0°F20.0°C 48.7°F9.3°C 50% 16.2 mph ENE26.1 kmh ENE 22.1 mph35.6 kmh 29.32 in992.9 mb 0.00 in0.0 mm 0.00 in/hr0.0 mm/hr 0.00 in0.0 mm
12:28 PM 68.0°F20.0°C 48.7°F9.3°C 50% 15.7 mph ENE25.3 kmh ENE 22.1 mph35.6 kmh 29.31 in992.6 mb 0.00 in0.0 mm 0.00 in/hr0.0 mm/hr 0.00 in0.0 mm
12:27 PM 67.8°F19.9°C 48.5°F9.2°C 50% 15.8 mph ENE25.4 kmh ENE 20.6 mph33.2 kmh 29.31 in992.6 mb 0.00 in0.0 mm 0.00 in/hr0.0 mm/hr 0.00 in0.0 mm
12:26 PM 67.8°F19.9°C 48.5°F9.2°C 50% 15.8 mph NE25.4 kmh NE 20.6 mph33.2 kmh 29.31 in992.6 mb 0.00 in0.0 mm 0.00 in/hr0.0 mm/hr 0.00 in0.0 mm
12:25 PM 67.8°F19.9°C 48.5°F9.2°C 50% 16.1 mph ENE25.9 kmh ENE 20.6 mph33.2 kmh 29.31 in992.6 mb 0.00 in0.0 mm 0.00 in/hr0.0 mm/hr 0.00 in0.0 mm
12:24 PM 67.8°F19.9°C 48.5°F9.2°C 50% 16.2 mph ENE26.1 kmh ENE 20.6 mph33.2 kmh 29.31 in992.6 mb 0.00 in0.0 mm 0.00 in/hr0.0 mm/hr 0.00 in0.0 mm
12:23 PM 68.0°F20.0°C 48.7°F9.3°C 50% 16.1 mph ENE25.9 kmh ENE 20.6 mph33.2 kmh 29.32 in992.9 mb 0.00 in0.0 mm 0.00 in/hr0.0 mm/hr 0.00 in0.0 mm
12:22 PM 68.2°F20.1°C 48.3°F9.1°C 49% 16.1 mph ENE25.9 kmh ENE 20.6 mph33.2 kmh 29.32 in992.9 mb 0.00 in0.0 mm 0.00 in/hr0.0 mm/hr 0.00 in0.0 mm
12:21 PM 68.2°F20.1°C 48.3°F9.1°C 49% 15.7 mph NE25.3 kmh NE 18.3 mph29.5 kmh 29.32 in992.9 mb 0.00 in0.0 mm 0.00 in/hr0.0 mm/hr 0.00 in0.0 mm
12:20 PM 68.4°F20.2°C 48.5°F9.2°C 49% 15.0 mph NE24.1 kmh NE 18.3 mph29.5 kmh 29.31 in992.6 mb 0.00 in0.0 mm 0.00 in/hr0.0 mm/hr 0.00 in0.0 mm
12:19 PM 68.5°F20.3°C 48.6°F9.2°C 49% 14.6 mph NE23.5 kmh NE 18.3 mph29.5 kmh 29.31 in992.6 mb 0.00 in0.0 mm 0.00 in/hr0.0 mm/hr 0.00 in0.0 mm
12:18 PM 68.7°F20.4°C 48.8°F9.3°C 49% 14.0 mph NE22.5 kmh NE 18.3 mph29.5 kmh 29.32 in992.9 mb 0.00 in0.0 mm 0.00 in/hr0.0 mm/hr 0.00 in0.0 mm
12:17 PM 68.9°F20.5°C 49.0°F9.4°C 49% 13.1 mph NE21.1 kmh NE 18.3 mph29.5 kmh 29.32 in992.9 mb 0.00 in0.0 mm 0.00 in/hr0.0 mm/hr 0.00 in0.0 mm
12:16 PM 68.9°F20.5°C 49.0°F9.4°C 49% 12.0 mph ENE19.3 kmh ENE 18.3 mph29.5 kmh 29.31 in992.6 mb 0.00 in0.0 mm 0.00 in/hr0.0 mm/hr 0.00 in0.0 mm
12:15 PM 69.1°F20.6°C 49.1°F9.5°C 49% 11.4 mph NE18.3 kmh NE 18.3 mph29.5 kmh 29.31 in992.6 mb 0.00 in0.0 mm 0.00 in/hr0.0 mm/hr 0.00 in0.0 mm
12:14 PM 69.1°F20.6°C 49.1°F9.5°C 49% 10.6 mph NE17.1 kmh NE 15.2 mph24.5 kmh 29.31 in992.6 mb 0.00 in0.0 mm 0.00 in/hr0.0 mm/hr 0.00 in0.0 mm
12:13 PM 69.3°F20.7°C 49.3°F9.6°C 49% 9.8 mph NE15.8 kmh NE 15.2 mph24.5 kmh 29.31 in992.6 mb 0.00 in0.0 mm 0.00 in/hr0.0 mm/hr 0.00 in0.0 mm
12:12 PM 69.3°F20.7°C 49.3°F9.6°C 49% 9.3 mph NE15.0 kmh NE 15.2 mph24.5 kmh 29.32 in992.9 mb 0.00 in0.0 mm 0.00 in/hr0.0 mm/hr 0.00 in0.0 mm
12:11 PM 69.4°F20.8°C 49.5°F9.7°C 49% 9.1 mph NE14.6 kmh NE 12.1 mph19.5 kmh 29.31 in992.6 mb 0.00 in0.0 mm 0.00 in/hr0.0 mm/hr 0.00 in0.0 mm
12:10 PM 69.6°F20.9°C 50.2°F10.1°C 50% 9.0 mph NE14.5 kmh NE 11.4 mph18.3 kmh 29.31 in992.6 mb 0.00 in0.0 mm 0.00 in/hr0.0 mm/hr 0.00 in0.0 mm
12:09 PM 69.8°F21.0°C 50.3°F10.2°C 50% 9.1 mph NE14.6 kmh NE 11.4 mph18.3 kmh 29.31 in992.6 mb 0.00 in0.0 mm 0.00 in/hr0.0 mm/hr 0.00 in0.0 mm
12:08 PM 69.8°F21.0°C 50.3°F10.2°C 50% 9.3 mph NE15.0 kmh NE 11.4 mph18.3 kmh 29.32 in992.9 mb 0.00 in0.0 mm 0.00 in/hr0.0 mm/hr 0.00 in0.0 mm
12:07 PM 69.8°F21.0°C 50.3°F10.2°C 50% 9.5 mph NE15.3 kmh NE 13.0 mph20.9 kmh 29.32 in992.9 mb 0.00 in0.0 mm 0.00 in/hr0.0 mm/hr 0.00 in0.0 mm
12:06 PM 70.0°F21.1°C 50.0°F10.0°C 49% 9.9 mph NE15.9 kmh NE 13.0 mph20.9 kmh 29.31 in992.6 mb 0.00 in0.0 mm 0.00 in/hr0.0 mm/hr 0.00 in0.0 mm
12:05 PM 70.0°F21.1°C 50.0°F10.0°C 49% 9.9 mph NE15.9 kmh NE 13.0 mph20.9 kmh 29.31 in992.6 mb 0.00 in0.0 mm 0.00 in/hr0.0 mm/hr 0.00 in0.0 mm
12:04 PM 70.2°F21.2°C 50.1°F10.1°C 49% 10.3 mph NE16.6 kmh NE 15.9 mph25.6 kmh 29.32 in992.9 mb 0.00 in0.0 mm 0.00 in/hr0.0 mm/hr 0.00 in0.0 mm
12:03 PM 70.3°F21.3°C 50.3°F10.2°C 49% 11.0 mph NE17.7 kmh NE 15.9 mph25.6 kmh 29.32 in992.9 mb 0.00 in0.0 mm 0.00 in/hr0.0 mm/hr 0.00 in0.0 mm
12:02 PM 70.3°F21.3°C 50.3°F10.2°C 49% 11.5 mph NE18.5 kmh NE 15.9 mph25.6 kmh 29.32 in992.9 mb 0.00 in0.0 mm 0.00 in/hr0.0 mm/hr 0.00 in0.0 mm
12:01 PM 70.5°F21.4°C 50.5°F10.3°C 49% 11.9 mph NE19.2 kmh NE 15.9 mph25.6 kmh 29.32 in992.9 mb 0.00 in0.0 mm 0.00 in/hr0.0 mm/hr 0.00 in0.0 mm
12:00 PM 70.5°F21.4°C 50.5°F10.3°C 49% 12.1 mph NE19.5 kmh NE 15.9 mph25.6 kmh 29.32 in992.9 mb 0.00 in0.0 mm 0.00 in/hr0.0 mm/hr 0.00 in0.0 mm
11:59 AM 70.5°F21.4°C 51.0°F10.6°C 50% 12.2 mph NE19.6 kmh NE 15.9 mph25.6 kmh 29.32 in992.9 mb 0.00 in0.0 mm 0.00 in/hr0.0 mm/hr 0.00 in0.0 mm
11:58 AM 70.5°F21.4°C 51.0°F10.6°C 50% 12.3 mph ENE19.8 kmh ENE 15.9 mph25.6 kmh 29.32 in992.9 mb 0.00 in0.0 mm 0.00 in/hr0.0 mm/hr 0.00 in0.0 mm
11:57 AM 70.5°F21.4°C 51.0°F10.6°C 50% 12.8 mph ENE20.6 kmh ENE 17.4 mph28.0 kmh 29.32 in992.9 mb 0.00 in0.0 mm 0.00 in/hr0.0 mm/hr 0.00 in0.0 mm
11:56 AM 70.5°F21.4°C 51.0°F10.6°C 50% 12.8 mph ENE20.6 kmh ENE 17.4 mph28.0 kmh 29.32 in992.9 mb 0.00 in0.0 mm 0.00 in/hr0.0 mm/hr 0.00 in0.0 mm
11:55 AM 70.5°F21.4°C 51.0°F10.6°C 50% 12.8 mph ENE20.6 kmh ENE 17.4 mph28.0 kmh 29.32 in992.9 mb 0.00 in0.0 mm 0.00 in/hr0.0 mm/hr 0.00 in0.0 mm
11:54 AM 70.3°F21.3°C 50.8°F10.4°C 50% 12.5 mph ENE20.1 kmh ENE 17.4 mph28.0 kmh 29.32 in992.9 mb 0.00 in0.0 mm 0.00 in/hr0.0 mm/hr 0.00 in0.0 mm
11:53 AM 70.3°F21.3°C 50.8°F10.4°C 50% 12.6 mph ENE20.3 kmh ENE 17.4 mph28.0 kmh 29.32 in992.9 mb 0.00 in0.0 mm 0.00 in/hr0.0 mm/hr 0.00 in0.0 mm
11:52 AM 70.2°F21.2°C 50.7°F10.4°C 50% 12.4 mph ENE20.0 kmh ENE 17.4 mph28.0 kmh 29.32 in992.9 mb 0.00 in0.0 mm 0.00 in/hr0.0 mm/hr 0.00 in0.0 mm
11:51 AM 69.8°F21.0°C 50.9°F10.5°C 51% 12.1 mph NE19.5 kmh NE 17.4 mph28.0 kmh 29.32 in992.9 mb 0.00 in0.0 mm 0.00 in/hr0.0 mm/hr 0.00 in0.0 mm
11:50 AM 69.4°F20.8°C 51.1°F10.6°C 52% 12.0 mph NE19.3 kmh NE 17.4 mph28.0 kmh 29.32 in992.9 mb 0.00 in0.0 mm 0.00 in/hr0.0 mm/hr 0.00 in0.0 mm
11:49 AM 69.3°F20.7°C 50.9°F10.5°C 52% 11.9 mph NE19.2 kmh NE 17.4 mph28.0 kmh 29.32 in992.9 mb 0.00 in0.0 mm 0.00 in/hr0.0 mm/hr 0.00 in0.0 mm
11:48 AM 69.1°F20.6°C 50.7°F10.4°C 52% 11.8 mph NE19.0 kmh NE 17.4 mph28.0 kmh 29.32 in992.9 mb 0.00 in0.0 mm 0.00 in/hr0.0 mm/hr 0.00 in0.0 mm
11:47 AM 68.5°F20.3°C 50.8°F10.4°C 53% 11.4 mph NE18.3 kmh NE 15.9 mph25.6 kmh 29.32 in992.9 mb 0.00 in0.0 mm 0.00 in/hr0.0 mm/hr 0.00 in0.0 mm
11:46 AM 68.2°F20.1°C 50.4°F10.2°C 53% 11.4 mph NE18.3 kmh NE 15.9 mph25.6 kmh 29.32 in992.9 mb 0.00 in0.0 mm 0.00 in/hr0.0 mm/hr 0.00 in0.0 mm
11:45 AM 68.0°F20.0°C 50.3°F10.2°C 53% 11.7 mph NE18.8 kmh NE 15.9 mph25.6 kmh 29.32 in992.9 mb 0.00 in0.0 mm 0.00 in/hr0.0 mm/hr 0.00 in0.0 mm
11:44 AM 67.8°F19.9°C 50.1°F10.1°C 53% 11.6 mph NE18.7 kmh NE 15.9 mph25.6 kmh 29.32 in992.9 mb 0.00 in0.0 mm 0.00 in/hr0.0 mm/hr 0.00 in0.0 mm
11:43 AM 67.5°F19.7°C 49.2°F9.6°C 52% 11.4 mph NE18.3 kmh NE 15.2 mph24.5 kmh 29.32 in992.9 mb 0.00 in0.0 mm 0.00 in/hr0.0 mm/hr 0.00 in0.0 mm
11:42 AM 67.5°F19.7°C 49.2°F9.6°C 52% 11.0 mph NNE17.7 kmh NNE 15.2 mph24.5 kmh 29.32 in992.9 mb 0.00 in0.0 mm 0.00 in/hr0.0 mm/hr 0.00 in0.0 mm
11:41 AM 67.5°F19.7°C 48.7°F9.3°C 51% 10.8 mph NNE17.4 kmh NNE 15.2 mph24.5 kmh 29.32 in992.9 mb 0.00 in0.0 mm 0.00 in/hr0.0 mm/hr 0.00 in0.0 mm
11:40 AM 67.5°F19.7°C 48.7°F9.3°C 51% 11.0 mph NNE17.7 kmh NNE 15.2 mph24.5 kmh 29.33 in993.2 mb 0.00 in0.0 mm 0.00 in/hr0.0 mm/hr 0.00 in0.0 mm
11:39 AM 67.6°F19.8°C 48.9°F9.4°C 51% 11.2 mph NE18.0 kmh NE 15.2 mph24.5 kmh 29.32 in992.9 mb 0.00 in0.0 mm 0.00 in/hr0.0 mm/hr 0.00 in0.0 mm
11:38 AM 67.6°F19.8°C 48.9°F9.4°C 51% 11.3 mph NNE18.2 kmh NNE 15.2 mph24.5 kmh 29.32 in992.9 mb 0.00 in0.0 mm 0.00 in/hr0.0 mm/hr 0.00 in0.0 mm
11:37 AM 67.6°F19.8°C 48.9°F9.4°C 51% 10.9 mph NNE17.5 kmh NNE 15.2 mph24.5 kmh 29.32 in992.9 mb 0.00 in0.0 mm 0.00 in/hr0.0 mm/hr 0.00 in0.0 mm
11:36 AM 67.8°F19.9°C 49.1°F9.5°C 51% 11.2 mph NNE18.0 kmh NNE 15.2 mph24.5 kmh 29.32 in992.9 mb 0.00 in0.0 mm 0.00 in/hr0.0 mm/hr 0.00 in0.0 mm
11:35 AM 68.0°F20.0°C 48.7°F9.3°C 50% 10.9 mph NNE17.5 kmh NNE 13.6 mph21.9 kmh 29.33 in993.2 mb 0.00 in0.0 mm 0.00 in/hr0.0 mm/hr 0.00 in0.0 mm
11:34 AM 68.0°F20.0°C 48.7°F9.3°C 50% 10.9 mph NNE17.5 kmh NNE 13.6 mph21.9 kmh 29.32 in992.9 mb 0.00 in0.0 mm 0.00 in/hr0.0 mm/hr 0.00 in0.0 mm
11:33 AM 68.0°F20.0°C 48.7°F9.3°C 50% 10.8 mph NNE17.4 kmh NNE 13.6 mph21.9 kmh 29.32 in992.9 mb 0.00 in0.0 mm 0.00 in/hr0.0 mm/hr 0.00 in0.0 mm
11:32 AM 68.2°F20.1°C 48.9°F9.4°C 50% 11.2 mph NNE18.0 kmh NNE 15.9 mph25.6 kmh 29.32 in992.9 mb 0.00 in0.0 mm 0.00 in/hr0.0 mm/hr 0.00 in0.0 mm
11:31 AM 68.2°F20.1°C 48.9°F9.4°C 50% 11.5 mph NNE18.5 kmh NNE 15.9 mph25.6 kmh 29.32 in992.9 mb 0.00 in0.0 mm 0.00 in/hr0.0 mm/hr 0.00 in0.0 mm
11:30 AM 68.4°F20.2°C 49.0°F9.4°C 50% 11.6 mph N18.7 kmh N 15.9 mph25.6 kmh 29.32 in992.9 mb 0.00 in0.0 mm 0.00 in/hr0.0 mm/hr 0.00 in0.0 mm
11:29 AM 68.4°F20.2°C 49.0°F9.4°C 50% 11.6 mph N18.7 kmh N 15.9 mph25.6 kmh 29.32 in992.9 mb 0.00 in0.0 mm 0.00 in/hr0.0 mm/hr 0.00 in0.0 mm
11:28 AM 68.4°F20.2°C 49.0°F9.4°C 50% 11.6 mph NNE18.7 kmh NNE 15.9 mph25.6 kmh 29.32 in992.9 mb 0.00 in0.0 mm 0.00 in/hr0.0 mm/hr 0.00 in0.0 mm
11:27 AM 68.4°F20.2°C 49.0°F9.4°C 50% 11.9 mph NNE19.2 kmh NNE 15.9 mph25.6 kmh 29.32 in992.9 mb 0.00 in0.0 mm 0.00 in/hr0.0 mm/hr 0.00 in0.0 mm
11:26 AM 68.4°F20.2°C 49.6°F9.8°C 51% 11.5 mph N18.5 kmh N 15.9 mph25.6 kmh 29.32 in992.9 mb 0.00 in0.0 mm 0.00 in/hr0.0 mm/hr 0.00 in0.0 mm
11:25 AM 68.2°F20.1°C 49.4°F9.7°C 51% 11.4 mph N18.3 kmh N 15.9 mph25.6 kmh 29.32 in992.9 mb 0.00 in0.0 mm 0.00 in/hr0.0 mm/hr 0.00 in0.0 mm
11:24 AM 68.2°F20.1°C 48.9°F9.4°C 50% 11.3 mph N18.2 kmh N 15.9 mph25.6 kmh 29.32 in992.9 mb 0.00 in0.0 mm 0.00 in/hr0.0 mm/hr 0.00 in0.0 mm
11:23 AM 68.0°F20.0°C 49.2°F9.6°C 51% 11.1 mph N17.9 kmh N 15.9 mph25.6 kmh 29.32 in992.9 mb 0.00 in0.0 mm 0.00 in/hr0.0 mm/hr 0.00 in0.0 mm
11:22 AM 67.8°F19.9°C 49.1°F9.5°C 51% 10.3 mph N16.6 kmh N 15.2 mph24.5 kmh 29.32 in992.9 mb 0.00 in0.0 mm 0.00 in/hr0.0 mm/hr 0.00 in0.0 mm
11:21 AM 67.8°F19.9°C 49.1°F9.5°C 51% 10.3 mph N16.6 kmh N 15.2 mph24.5 kmh 29.32 in992.9 mb 0.00 in0.0 mm 0.00 in/hr0.0 mm/hr 0.00 in0.0 mm
11:20 AM 67.8°F19.9°C 49.1°F9.5°C 51% 10.0 mph N16.1 kmh N 15.2 mph24.5 kmh 29.32 in992.9 mb 0.00 in0.0 mm 0.00 in/hr0.0 mm/hr 0.00 in0.0 mm
11:19 AM 67.6°F19.8°C 48.9°F9.4°C 51% 9.8 mph N15.8 kmh N 15.2 mph24.5 kmh 29.32 in992.9 mb 0.00 in0.0 mm 0.00 in/hr0.0 mm/hr 0.00 in0.0 mm
11:18 AM 67.6°F19.8°C 48.9°F9.4°C 51% 9.5 mph N15.3 kmh N 15.2 mph24.5 kmh 29.32 in992.9 mb 0.00 in0.0 mm 0.00 in/hr0.0 mm/hr 0.00 in0.0 mm
11:17 AM 67.6°F19.8°C 48.9°F9.4°C 51% 9.2 mph N14.8 kmh N 11.4 mph18.3 kmh 29.32 in992.9 mb 0.00 in0.0 mm 0.00 in/hr0.0 mm/hr 0.00 in0.0 mm
11:16 AM 67.6°F19.8°C 48.9°F9.4°C 51% 9.6 mph N15.4 kmh N 13.0 mph20.9 kmh 29.32 in992.9 mb 0.00 in0.0 mm 0.00 in/hr0.0 mm/hr 0.00 in0.0 mm
11:15 AM 67.6°F19.8°C 48.9°F9.4°C 51% 9.6 mph N15.4 kmh N 13.0 mph20.9 kmh 29.32 in992.9 mb 0.00 in0.0 mm 0.00 in/hr0.0 mm/hr 0.00 in0.0 mm
11:14 AM 67.6°F19.8°C 48.9°F9.4°C 51% 9.4 mph N15.1 kmh N 13.0 mph20.9 kmh 29.32 in992.9 mb 0.00 in0.0 mm 0.00 in/hr0.0 mm/hr 0.00 in0.0 mm
11:13 AM 67.6°F19.8°C 48.9°F9.4°C 51% 9.2 mph N14.8 kmh N 13.0 mph20.9 kmh 29.32 in992.9 mb 0.00 in0.0 mm 0.00 in/hr0.0 mm/hr 0.00 in0.0 mm
11:12 AM 67.6°F19.8°C 48.4°F9.1°C 50% 9.5 mph N15.3 kmh N 13.0 mph20.9 kmh 29.32 in992.9 mb 0.00 in0.0 mm 0.00 in/hr0.0 mm/hr 0.00 in0.0 mm
11:11 AM 67.6°F19.8°C 48.4°F9.1°C 50% 9.2 mph N14.8 kmh N 13.0 mph20.9 kmh 29.32 in992.9 mb 0.00 in0.0 mm 0.00 in/hr0.0 mm/hr 0.00 in0.0 mm
11:10 AM 67.8°F19.9°C 48.5°F9.2°C 50% 8.6 mph N13.8 kmh N 13.0 mph20.9 kmh 29.33 in993.2 mb 0.00 in0.0 mm 0.00 in/hr0.0 mm/hr 0.00 in0.0 mm
11:09 AM 67.8°F19.9°C 48.5°F9.2°C 50% 8.4 mph N13.5 kmh N 13.0 mph20.9 kmh 29.33 in993.2 mb 0.00 in0.0 mm 0.00 in/hr0.0 mm/hr 0.00 in0.0 mm
11:08 AM 68.0°F20.0°C 48.7°F9.3°C 50% 8.6 mph NNE13.8 kmh NNE 13.0 mph20.9 kmh 29.33 in993.2 mb 0.00 in0.0 mm 0.00 in/hr0.0 mm/hr 0.00 in0.0 mm
11:07 AM 68.0°F20.0°C 48.7°F9.3°C 50% 8.8 mph NNE14.2 kmh NNE 13.0 mph20.9 kmh 29.33 in993.2 mb 0.00 in0.0 mm 0.00 in/hr0.0 mm/hr 0.00 in0.0 mm
11:06 AM 68.2°F20.1°C 49.4°F9.7°C 51% 9.0 mph NNE14.5 kmh NNE 15.2 mph24.5 kmh 29.33 in993.2 mb 0.00 in0.0 mm 0.00 in/hr0.0 mm/hr 0.00 in0.0 mm
11:05 AM 68.2°F20.1°C 49.4°F9.7°C 51% 9.0 mph NNE14.5 kmh NNE 15.2 mph24.5 kmh 29.33 in993.2 mb 0.00 in0.0 mm 0.00 in/hr0.0 mm/hr 0.00 in0.0 mm
11:04 AM 68.2°F20.1°C 49.4°F9.7°C 51% 9.4 mph NNE15.1 kmh NNE 15.2 mph24.5 kmh 29.33 in993.2 mb 0.00 in0.0 mm 0.00 in/hr0.0 mm/hr 0.00 in0.0 mm
11:03 AM 68.4°F20.2°C 49.0°F9.4°C 50% 9.9 mph NNE15.9 kmh NNE 15.2 mph24.5 kmh 29.33 in993.2 mb 0.00 in0.0 mm 0.00 in/hr0.0 mm/hr 0.00 in0.0 mm
11:02 AM 68.5°F20.3°C 49.2°F9.6°C 50% 10.0 mph NNE16.1 kmh NNE 15.2 mph24.5 kmh 29.33 in993.2 mb 0.00 in0.0 mm 0.00 in/hr0.0 mm/hr 0.00 in0.0 mm
11:01 AM 68.5°F20.3°C 49.2°F9.6°C 50% 10.3 mph NNE16.6 kmh NNE 15.2 mph24.5 kmh 29.33 in993.2 mb 0.00 in0.0 mm 0.00 in/hr0.0 mm/hr 0.00 in0.0 mm
11:00 AM 68.7°F20.4°C 49.4°F9.7°C 50% 10.8 mph NE17.4 kmh NE 15.2 mph24.5 kmh 29.33 in993.2 mb 0.00 in0.0 mm 0.00 in/hr0.0 mm/hr 0.00 in0.0 mm
10:59 AM 69.1°F20.6°C 49.7°F9.8°C 50% 11.3 mph NE18.2 kmh NE 15.2 mph24.5 kmh 29.33 in993.2 mb 0.00 in0.0 mm 0.00 in/hr0.0 mm/hr 0.00 in0.0 mm
10:58 AM 69.1°F20.6°C 50.2°F10.1°C 51% 11.2 mph NE18.0 kmh NE 15.2 mph24.5 kmh 29.33 in993.2 mb 0.00 in0.0 mm 0.00 in/hr0.0 mm/hr 0.00 in0.0 mm
10:57 AM 69.1°F20.6°C 50.2°F10.1°C 51% 11.0 mph NE17.7 kmh NE 15.2 mph24.5 kmh 29.33 in993.2 mb 0.00 in0.0 mm 0.00 in/hr0.0 mm/hr 0.00 in0.0 mm
10:56 AM 69.1°F20.6°C 50.2°F10.1°C 51% 10.8 mph NE17.4 kmh NE 15.2 mph24.5 kmh 29.33 in993.2 mb 0.00 in0.0 mm 0.00 in/hr0.0 mm/hr 0.00 in0.0 mm
10:55 AM 69.1°F20.6°C 50.7°F10.4°C 52% 10.7 mph NE17.2 kmh NE 13.6 mph21.9 kmh 29.33 in993.2 mb 0.00 in0.0 mm 0.00 in/hr0.0 mm/hr 0.00 in0.0 mm
10:54 AM 68.9°F20.5°C 50.6°F10.3°C 52% 10.3 mph NE16.6 kmh NE 13.6 mph21.9 kmh 29.33 in993.2 mb 0.00 in0.0 mm 0.00 in/hr0.0 mm/hr 0.00 in0.0 mm
10:53 AM 68.9°F20.5°C 50.6°F10.3°C 52% 9.8 mph NE15.8 kmh NE 13.0 mph20.9 kmh 29.33 in993.2 mb 0.00 in0.0 mm 0.00 in/hr0.0 mm/hr 0.00 in0.0 mm
10:52 AM 68.7°F20.4°C 50.4°F10.2°C 52% 9.6 mph NE15.4 kmh NE 13.0 mph20.9 kmh 29.33 in993.2 mb 0.00 in0.0 mm 0.00 in/hr0.0 mm/hr 0.00 in0.0 mm
10:51 AM 68.7°F20.4°C 50.9°F10.5°C 53% 9.2 mph NE14.8 kmh NE 13.0 mph20.9 kmh 29.33 in993.2 mb 0.00 in0.0 mm 0.00 in/hr0.0 mm/hr 0.00 in0.0 mm
10:50 AM 68.5°F20.3°C 50.8°F10.4°C 53% 9.3 mph NE15.0 kmh NE 13.0 mph20.9 kmh 29.33 in993.2 mb 0.00 in0.0 mm 0.00 in/hr0.0 mm/hr 0.00 in0.0 mm
10:49 AM 68.5°F20.3°C 51.3°F10.7°C 54% 9.3 mph NE15.0 kmh NE 15.9 mph25.6 kmh 29.33 in993.2 mb 0.00 in0.0 mm 0.00 in/hr0.0 mm/hr 0.00 in0.0 mm
10:48 AM 68.4°F20.2°C 51.6°F10.9°C 55% 9.7 mph NE15.6 kmh NE 15.9 mph25.6 kmh 29.33 in993.2 mb 0.00 in0.0 mm 0.00 in/hr0.0 mm/hr 0.00 in0.0 mm
10:47 AM 67.8°F19.9°C 51.1°F10.6°C 55% 9.7 mph NE15.6 kmh NE 15.9 mph25.6 kmh 29.33 in993.2 mb 0.00 in0.0 mm 0.00 in/hr0.0 mm/hr 0.00 in0.0 mm
10:46 AM 67.6°F19.8°C 50.9°F10.5°C 55% 9.7 mph NNE15.6 kmh NNE 15.9 mph25.6 kmh 29.33 in993.2 mb 0.00 in0.0 mm 0.00 in/hr0.0 mm/hr 0.00 in0.0 mm
10:45 AM 67.3°F19.6°C 51.1°F10.6°C 56% 10.0 mph NNE16.1 kmh NNE 15.9 mph25.6 kmh 29.33 in993.2 mb 0.00 in0.0 mm 0.00 in/hr0.0 mm/hr 0.00 in0.0 mm
10:44 AM 67.1°F19.5°C 50.9°F10.5°C 56% 10.3 mph NE16.6 kmh NE 15.9 mph25.6 kmh 29.33 in993.2 mb 0.00 in0.0 mm 0.00 in/hr0.0 mm/hr 0.00 in0.0 mm
10:43 AM 66.6°F19.2°C 50.4°F10.2°C 56% 10.3 mph NE16.6 kmh NE 15.9 mph25.6 kmh 29.34 in993.6 mb 0.00 in0.0 mm 0.00 in/hr0.0 mm/hr 0.00 in0.0 mm
10:42 AM 66.4°F19.1°C 50.2°F10.1°C 56% 10.0 mph NE16.1 kmh NE 15.9 mph25.6 kmh 29.34 in993.6 mb 0.00 in0.0 mm 0.00 in/hr0.0 mm/hr 0.00 in0.0 mm
10:41 AM 66.2°F19.0°C 50.5°F10.3°C 57% 9.8 mph NE15.8 kmh NE 15.9 mph25.6 kmh 29.34 in993.6 mb 0.00 in0.0 mm 0.00 in/hr0.0 mm/hr 0.00 in0.0 mm
10:40 AM 66.0°F18.9°C 50.4°F10.2°C 57% 9.3 mph NE15.0 kmh NE 15.9 mph25.6 kmh 29.34 in993.6 mb 0.00 in0.0 mm 0.00 in/hr0.0 mm/hr 0.00 in0.0 mm
10:39 AM 65.7°F18.7°C 50.5°F10.3°C 58% 8.8 mph NE14.2 kmh NE 15.9 mph25.6 kmh 29.34 in993.6 mb 0.00 in0.0 mm 0.00 in/hr0.0 mm/hr 0.00 in0.0 mm
10:38 AM 65.5°F18.6°C 50.8°F10.4°C 59% 8.2 mph NNE13.2 kmh NNE 13.6 mph21.9 kmh 29.34 in993.6 mb 0.00 in0.0 mm 0.00 in/hr0.0 mm/hr 0.00 in0.0 mm
10:37 AM 65.3°F18.5°C 50.6°F10.3°C 59% 8.0 mph NE12.9 kmh NE 13.6 mph21.9 kmh 29.34 in993.6 mb 0.00 in0.0 mm 0.00 in/hr0.0 mm/hr 0.00 in0.0 mm
10:36 AM 64.9°F18.3°C 50.3°F10.2°C 59% 7.7 mph NE12.4 kmh NE 13.6 mph21.9 kmh 29.34 in993.6 mb 0.00 in0.0 mm 0.00 in/hr0.0 mm/hr 0.00 in0.0 mm
10:35 AM 64.8°F18.2°C 50.1°F10.1°C 59% 7.4 mph NE11.9 kmh NE 13.6 mph21.9 kmh 29.34 in993.6 mb 0.00 in0.0 mm 0.00 in/hr0.0 mm/hr 0.00 in0.0 mm
10:34 AM 64.6°F18.1°C 49.9°F9.9°C 59% 7.4 mph NNE11.9 kmh NNE 12.1 mph19.5 kmh 29.34 in993.6 mb 0.00 in0.0 mm 0.00 in/hr0.0 mm/hr 0.00 in0.0 mm
10:33 AM 64.6°F18.1°C 49.9°F9.9°C 59% 7.5 mph NNE12.1 kmh NNE 12.1 mph19.5 kmh 29.34 in993.6 mb 0.00 in0.0 mm 0.00 in/hr0.0 mm/hr 0.00 in0.0 mm
10:32 AM 64.4°F18.0°C 49.8°F9.9°C 59% 7.7 mph NNE12.4 kmh NNE 12.1 mph19.5 kmh 29.34 in993.6 mb 0.00 in0.0 mm 0.00 in/hr0.0 mm/hr 0.00 in0.0 mm
10:31 AM 64.4°F18.0°C 49.8°F9.9°C 59% 7.9 mph NNE12.7 kmh NNE 12.1 mph19.5 kmh 29.34 in993.6 mb 0.00 in0.0 mm 0.00 in/hr0.0 mm/hr 0.00 in0.0 mm
10:30 AM 64.4°F18.0°C 49.8°F9.9°C 59% 8.8 mph NE14.2 kmh NE 16.8 mph27.0 kmh 29.34 in993.6 mb 0.00 in0.0 mm 0.00 in/hr0.0 mm/hr 0.00 in0.0 mm
10:29 AM 64.4°F18.0°C 49.8°F9.9°C 59% 9.2 mph NE14.8 kmh NE 16.8 mph27.0 kmh 29.34 in993.6 mb 0.00 in0.0 mm 0.00 in/hr0.0 mm/hr 0.00 in0.0 mm
10:28 AM 64.2°F17.9°C 50.1°F10.1°C 60% 9.4 mph NE15.1 kmh NE 16.8 mph27.0 kmh 29.34 in993.6 mb 0.00 in0.0 mm 0.00 in/hr0.0 mm/hr 0.00 in0.0 mm
10:27 AM 64.0°F17.8°C 49.9°F9.9°C 60% 9.6 mph NE15.4 kmh NE 16.8 mph27.0 kmh 29.34 in993.6 mb 0.00 in0.0 mm 0.00 in/hr0.0 mm/hr 0.00 in0.0 mm
10:26 AM 64.0°F17.8°C 49.9°F9.9°C 60% 10.0 mph NE16.1 kmh NE 16.8 mph27.0 kmh 29.34 in993.6 mb 0.00 in0.0 mm 0.00 in/hr0.0 mm/hr 0.00 in0.0 mm
10:25 AM 63.9°F17.7°C 49.7°F9.8°C 60% 10.1 mph NE16.3 kmh NE 16.8 mph27.0 kmh 29.34 in993.6 mb 0.00 in0.0 mm 0.00 in/hr0.0 mm/hr 0.00 in0.0 mm
10:24 AM 63.9°F17.7°C 49.7°F9.8°C 60% 10.0 mph NE16.1 kmh NE 16.8 mph27.0 kmh 29.34 in993.6 mb 0.00 in0.0 mm 0.00 in/hr0.0 mm/hr 0.00 in0.0 mm
10:23 AM 63.7°F17.6°C 49.6°F9.8°C 60% 10.1 mph NE16.3 kmh NE 16.8 mph27.0 kmh 29.34 in993.6 mb 0.00 in0.0 mm 0.00 in/hr0.0 mm/hr 0.00 in0.0 mm
10:22 AM 63.5°F17.5°C 49.4°F9.7°C 60% 10.5 mph NE16.9 kmh NE 16.8 mph27.0 kmh 29.34 in993.6 mb 0.00 in0.0 mm 0.00 in/hr0.0 mm/hr 0.00 in0.0 mm
10:21 AM 63.5°F17.5°C 49.4°F9.7°C 60% 10.7 mph NE17.2 kmh NE 16.8 mph27.0 kmh 29.34 in993.6 mb 0.00 in0.0 mm 0.00 in/hr0.0 mm/hr 0.00 in0.0 mm
10:20 AM 63.3°F17.4°C 49.2°F9.6°C 60% 10.2 mph NE16.4 kmh NE 16.8 mph27.0 kmh 29.34 in993.6 mb 0.00 in0.0 mm 0.00 in/hr0.0 mm/hr 0.00 in0.0 mm
10:19 AM 63.3°F17.4°C 49.7°F9.8°C 61% 10.2 mph NE16.4 kmh NE 13.0 mph20.9 kmh 29.34 in993.6 mb 0.00 in0.0 mm 0.00 in/hr0.0 mm/hr 0.00 in0.0 mm
10:18 AM 63.3°F17.4°C 49.7°F9.8°C 61% 10.1 mph NE16.3 kmh NE 13.0 mph20.9 kmh 29.34 in993.6 mb 0.00 in0.0 mm 0.00 in/hr0.0 mm/hr 0.00 in0.0 mm
10:17 AM 63.1°F17.3°C 49.5°F9.7°C 61% 9.8 mph NE15.8 kmh NE 13.0 mph20.9 kmh 29.34 in993.6 mb 0.00 in0.0 mm 0.00 in/hr0.0 mm/hr 0.00 in0.0 mm
10:16 AM 63.1°F17.3°C 49.5°F9.7°C 61% 9.7 mph NE15.6 kmh NE 13.0 mph20.9 kmh 29.34 in993.6 mb 0.00 in0.0 mm 0.00 in/hr0.0 mm/hr 0.00 in0.0 mm
10:15 AM 63.0°F17.2°C 49.3°F9.6°C 61% 9.7 mph NE15.6 kmh NE 13.0 mph20.9 kmh 29.34 in993.6 mb 0.00 in0.0 mm 0.00 in/hr0.0 mm/hr 0.00 in0.0 mm
10:14 AM 63.0°F17.2°C 49.3°F9.6°C 61% 9.5 mph NE15.3 kmh NE 13.0 mph20.9 kmh 29.34 in993.6 mb 0.00 in0.0 mm 0.00 in/hr0.0 mm/hr 0.00 in0.0 mm
10:13 AM 63.0°F17.2°C 49.8°F9.9°C 62% 9.8 mph NE15.8 kmh NE 13.0 mph20.9 kmh 29.34 in993.6 mb 0.00 in0.0 mm 0.00 in/hr0.0 mm/hr 0.00 in0.0 mm
10:12 AM 62.8°F17.1°C 49.6°F9.8°C 62% 9.5 mph NE15.3 kmh NE 13.0 mph20.9 kmh 29.35 in993.9 mb 0.00 in0.0 mm 0.00 in/hr0.0 mm/hr 0.00 in0.0 mm
10:11 AM 62.8°F17.1°C 49.6°F9.8°C 62% 9.6 mph NE15.4 kmh NE 13.0 mph20.9 kmh 29.35 in993.9 mb 0.00 in0.0 mm 0.00 in/hr0.0 mm/hr 0.00 in0.0 mm
10:10 AM 62.6°F17.0°C 49.4°F9.7°C 62% 9.5 mph NE15.3 kmh NE 13.0 mph20.9 kmh 29.34 in993.6 mb 0.00 in0.0 mm 0.00 in/hr0.0 mm/hr 0.00 in0.0 mm
10:09 AM 62.6°F17.0°C 49.4°F9.7°C 62% 9.3 mph NE15.0 kmh NE 13.0 mph20.9 kmh 29.34 in993.6 mb 0.00 in0.0 mm 0.00 in/hr0.0 mm/hr 0.00 in0.0 mm
10:08 AM 62.4°F16.9°C 49.2°F9.6°C 62% 9.4 mph NE15.1 kmh NE 13.0 mph20.9 kmh 29.34 in993.6 mb 0.00 in0.0 mm 0.00 in/hr0.0 mm/hr 0.00 in0.0 mm
10:07 AM 62.2°F16.8°C 49.1°F9.5°C 62% 9.7 mph NE15.6 kmh NE 13.0 mph20.9 kmh 29.34 in993.6 mb 0.00 in0.0 mm 0.00 in/hr0.0 mm/hr 0.00 in0.0 mm
10:06 AM 62.2°F16.8°C 48.6°F9.2°C 61% 9.9 mph NNE15.9 kmh NNE 13.0 mph20.9 kmh 29.34 in993.6 mb 0.00 in0.0 mm 0.00 in/hr0.0 mm/hr 0.00 in0.0 mm
10:05 AM 62.2°F16.8°C 48.6°F9.2°C 61% 10.1 mph NNE16.3 kmh NNE 16.8 mph27.0 kmh 29.34 in993.6 mb 0.00 in0.0 mm 0.00 in/hr0.0 mm/hr 0.00 in0.0 mm
10:04 AM 62.2°F16.8°C 48.6°F9.2°C 61% 10.8 mph N17.4 kmh N 17.4 mph28.0 kmh 29.34 in993.6 mb 0.00 in0.0 mm 0.00 in/hr0.0 mm/hr 0.00 in0.0 mm
10:03 AM 62.2°F16.8°C 48.2°F9.0°C 60% 10.9 mph NNE17.5 kmh NNE 17.4 mph28.0 kmh 29.34 in993.6 mb 0.00 in0.0 mm 0.00 in/hr0.0 mm/hr 0.00 in0.0 mm
10:02 AM 62.4°F16.9°C 48.4°F9.1°C 60% 11.1 mph NNE17.9 kmh NNE 17.4 mph28.0 kmh 29.34 in993.6 mb 0.00 in0.0 mm 0.00 in/hr0.0 mm/hr 0.00 in0.0 mm
10:01 AM 62.4°F16.9°C 48.4°F9.1°C 60% 11.6 mph NE18.7 kmh NE 17.4 mph28.0 kmh 29.34 in993.6 mb 0.00 in0.0 mm 0.00 in/hr0.0 mm/hr 0.00 in0.0 mm
10:00 AM 62.6°F17.0°C 48.1°F8.9°C 59% 12.3 mph NNE19.8 kmh NNE 17.4 mph28.0 kmh 29.34 in993.6 mb 0.00 in0.0 mm 0.00 in/hr0.0 mm/hr 0.00 in0.0 mm
09:59 AM 62.6°F17.0°C 48.1°F8.9°C 59% 12.5 mph NE20.1 kmh NE 17.4 mph28.0 kmh 29.34 in993.6 mb 0.00 in0.0 mm 0.00 in/hr0.0 mm/hr 0.00 in0.0 mm
09:58 AM 62.8°F17.1°C 48.3°F9.1°C 59% 12.2 mph NE19.6 kmh NE 17.4 mph28.0 kmh 29.34 in993.6 mb 0.00 in0.0 mm 0.00 in/hr0.0 mm/hr 0.00 in0.0 mm
09:57 AM 62.8°F17.1°C 48.3°F9.1°C 59% 12.6 mph NE20.3 kmh NE 17.4 mph28.0 kmh 29.34 in993.6 mb 0.00 in0.0 mm 0.00 in/hr0.0 mm/hr 0.00 in0.0 mm
09:56 AM 63.0°F17.2°C 48.4°F9.1°C 59% 12.7 mph NE20.4 kmh NE 17.4 mph28.0 kmh 29.34 in993.6 mb 0.00 in0.0 mm 0.00 in/hr0.0 mm/hr 0.00 in0.0 mm
09:55 AM 63.1°F17.3°C 48.6°F9.2°C 59% 12.6 mph NE20.3 kmh NE 17.4 mph28.0 kmh 29.34 in993.6 mb 0.00 in0.0 mm 0.00 in/hr0.0 mm/hr 0.00 in0.0 mm
09:54 AM 63.1°F17.3°C 48.6°F9.2°C 59% 11.9 mph NE19.2 kmh NE 17.4 mph28.0 kmh 29.34 in993.6 mb 0.00 in0.0 mm 0.00 in/hr0.0 mm/hr 0.00 in0.0 mm
09:53 AM 63.1°F17.3°C 48.6°F9.2°C 59% 12.0 mph NE19.3 kmh NE 15.9 mph25.6 kmh 29.34 in993.6 mb 0.00 in0.0 mm 0.00 in/hr0.0 mm/hr 0.00 in0.0 mm
09:52 AM 63.3°F17.4°C 48.3°F9.1°C 58% 12.4 mph NE20.0 kmh NE 15.9 mph25.6 kmh 29.34 in993.6 mb 0.00 in0.0 mm 0.00 in/hr0.0 mm/hr 0.00 in0.0 mm
09:51 AM 63.3°F17.4°C 48.3°F9.1°C 58% 11.8 mph NE19.0 kmh NE 15.2 mph24.5 kmh 29.35 in993.9 mb 0.00 in0.0 mm 0.00 in/hr0.0 mm/hr 0.00 in0.0 mm
09:50 AM 63.5°F17.5°C 48.5°F9.2°C 58% 11.3 mph NE18.2 kmh NE 15.2 mph24.5 kmh 29.34 in993.6 mb 0.00 in0.0 mm 0.00 in/hr0.0 mm/hr 0.00 in0.0 mm
09:49 AM 63.5°F17.5°C 48.0°F8.9°C 57% 11.1 mph NE17.9 kmh NE 15.2 mph24.5 kmh 29.34 in993.6 mb 0.00 in0.0 mm 0.00 in/hr0.0 mm/hr 0.00 in0.0 mm
09:48 AM 63.7°F17.6°C 48.2°F9.0°C 57% 11.1 mph NE17.9 kmh NE 15.2 mph24.5 kmh 29.34 in993.6 mb 0.00 in0.0 mm 0.00 in/hr0.0 mm/hr 0.00 in0.0 mm
09:47 AM 63.9°F17.7°C 48.3°F9.1°C 57% 10.4 mph NE16.7 kmh NE 15.2 mph24.5 kmh 29.35 in993.9 mb 0.00 in0.0 mm 0.00 in/hr0.0 mm/hr 0.00 in0.0 mm
09:46 AM 64.0°F17.8°C 48.5°F9.2°C 57% 9.6 mph NE15.4 kmh NE 15.2 mph24.5 kmh 29.34 in993.6 mb 0.00 in0.0 mm 0.00 in/hr0.0 mm/hr 0.00 in0.0 mm
09:45 AM 64.2°F17.9°C 48.2°F9.0°C 56% 9.0 mph NE14.5 kmh NE 15.2 mph24.5 kmh 29.35 in993.9 mb 0.00 in0.0 mm 0.00 in/hr0.0 mm/hr 0.00 in0.0 mm
09:44 AM 64.4°F18.0°C 48.4°F9.1°C 56% 8.5 mph ENE13.7 kmh ENE 15.2 mph24.5 kmh 29.35 in993.9 mb 0.00 in0.0 mm 0.00 in/hr0.0 mm/hr 0.00 in0.0 mm
09:43 AM 64.6°F18.1°C 48.5°F9.2°C 56% 7.8 mph ENE12.6 kmh ENE 15.2 mph24.5 kmh 29.35 in993.9 mb 0.00 in0.0 mm 0.00 in/hr0.0 mm/hr 0.00 in0.0 mm
09:42 AM 64.8°F18.2°C 48.7°F9.3°C 56% 7.2 mph ENE11.6 kmh ENE 10.7 mph17.2 kmh 29.35 in993.9 mb 0.00 in0.0 mm 0.00 in/hr0.0 mm/hr 0.00 in0.0 mm
09:41 AM 64.8°F18.2°C 48.2°F9.0°C 55% 6.8 mph ENE10.9 kmh ENE 10.7 mph17.2 kmh 29.35 in993.9 mb 0.00 in0.0 mm 0.00 in/hr0.0 mm/hr 0.00 in0.0 mm
09:40 AM 64.9°F18.3°C 48.4°F9.1°C 55% 6.8 mph NE10.9 kmh NE 10.7 mph17.2 kmh 29.34 in993.6 mb 0.00 in0.0 mm 0.00 in/hr0.0 mm/hr 0.00 in0.0 mm
09:39 AM 65.1°F18.4°C 48.6°F9.2°C 55% 7.0 mph NE11.3 kmh NE 10.7 mph17.2 kmh 29.34 in993.6 mb 0.00 in0.0 mm 0.00 in/hr0.0 mm/hr 0.00 in0.0 mm
09:38 AM 65.3°F18.5°C 49.2°F9.6°C 56% 7.1 mph NE11.4 kmh NE 10.7 mph17.2 kmh 29.34 in993.6 mb 0.00 in0.0 mm 0.00 in/hr0.0 mm/hr 0.00 in0.0 mm
09:37 AM 65.3°F18.5°C 49.2°F9.6°C 56% 7.2 mph NE11.6 kmh NE 10.7 mph17.2 kmh 29.34 in993.6 mb 0.00 in0.0 mm 0.00 in/hr0.0 mm/hr 0.00 in0.0 mm
09:36 AM 65.3°F18.5°C 48.7°F9.3°C 55% 7.5 mph NE12.1 kmh NE 10.7 mph17.2 kmh 29.34 in993.6 mb 0.00 in0.0 mm 0.00 in/hr0.0 mm/hr 0.00 in0.0 mm
09:35 AM 65.5°F18.6°C 48.9°F9.4°C 55% 7.5 mph NE12.1 kmh NE 10.7 mph17.2 kmh 29.35 in993.9 mb 0.00 in0.0 mm 0.00 in/hr0.0 mm/hr 0.00 in0.0 mm
09:34 AM 65.5°F18.6°C 48.9°F9.4°C 55% 7.6 mph NE12.2 kmh NE 10.7 mph17.2 kmh 29.34 in993.6 mb 0.00 in0.0 mm 0.00 in/hr0.0 mm/hr 0.00 in0.0 mm
09:33 AM 65.5°F18.6°C 48.9°F9.4°C 55% 7.8 mph NE12.6 kmh NE 10.7 mph17.2 kmh 29.34 in993.6 mb 0.00 in0.0 mm 0.00 in/hr0.0 mm/hr 0.00 in0.0 mm
09:32 AM 65.5°F18.6°C 48.9°F9.4°C 55% 7.9 mph NNE12.7 kmh NNE 10.7 mph17.2 kmh 29.34 in993.6 mb 0.00 in0.0 mm 0.00 in/hr0.0 mm/hr 0.00 in0.0 mm
09:31 AM 65.7°F18.7°C 49.1°F9.5°C 55% 8.0 mph NNE12.9 kmh NNE 10.7 mph17.2 kmh 29.35 in993.9 mb 0.00 in0.0 mm 0.00 in/hr0.0 mm/hr 0.00 in0.0 mm
09:30 AM 65.7°F18.7°C 49.1°F9.5°C 55% 7.7 mph NE12.4 kmh NE 10.7 mph17.2 kmh 29.35 in993.9 mb 0.00 in0.0 mm 0.00 in/hr0.0 mm/hr 0.00 in0.0 mm
09:29 AM 65.7°F18.7°C 49.1°F9.5°C 55% 7.2 mph NE11.6 kmh NE 10.7 mph17.2 kmh 29.35 in993.9 mb 0.00 in0.0 mm 0.00 in/hr0.0 mm/hr 0.00 in0.0 mm
09:28 AM 65.7°F18.7°C 49.1°F9.5°C 55% 7.1 mph NNE11.4 kmh NNE 9.8 mph15.8 kmh 29.35 in993.9 mb 0.00 in0.0 mm 0.00 in/hr0.0 mm/hr 0.00 in0.0 mm
09:27 AM 65.7°F18.7°C 49.1°F9.5°C 55% 7.2 mph NE11.6 kmh NE 9.8 mph15.8 kmh 29.35 in993.9 mb 0.00 in0.0 mm 0.00 in/hr0.0 mm/hr 0.00 in0.0 mm
09:26 AM 65.7°F18.7°C 49.1°F9.5°C 55% 7.0 mph NE11.3 kmh NE 9.8 mph15.8 kmh 29.35 in993.9 mb 0.00 in0.0 mm 0.00 in/hr0.0 mm/hr 0.00 in0.0 mm
09:25 AM 65.7°F18.7°C 49.1°F9.5°C 55% 7.1 mph NE11.4 kmh NE 9.8 mph15.8 kmh 29.35 in993.9 mb 0.00 in0.0 mm 0.00 in/hr0.0 mm/hr 0.00 in0.0 mm
09:24 AM 65.7°F18.7°C 49.1°F9.5°C 55% 7.1 mph NE11.4 kmh NE 9.8 mph15.8 kmh 29.35 in993.9 mb 0.00 in0.0 mm 0.00 in/hr0.0 mm/hr 0.00 in0.0 mm
09:23 AM 65.7°F18.7°C 49.1°F9.5°C 55% 6.7 mph NE10.8 kmh NE 9.8 mph15.8 kmh 29.36 in994.2 mb 0.00 in0.0 mm 0.00 in/hr0.0 mm/hr 0.00 in0.0 mm
09:22 AM 65.7°F18.7°C 49.1°F9.5°C 55% 6.3 mph NE10.1 kmh NE 9.8 mph15.8 kmh 29.35 in993.9 mb 0.00 in0.0 mm 0.00 in/hr0.0 mm/hr 0.00 in0.0 mm
09:21 AM 65.8°F18.8°C 49.2°F9.6°C 55% 6.3 mph NE10.1 kmh NE 9.8 mph15.8 kmh 29.35 in993.9 mb 0.00 in0.0 mm 0.00 in/hr0.0 mm/hr 0.00 in0.0 mm
09:20 AM 65.8°F18.8°C 49.2°F9.6°C 55% 6.2 mph NE10.0 kmh NE 9.8 mph15.8 kmh 29.35 in993.9 mb 0.00 in0.0 mm 0.00 in/hr0.0 mm/hr 0.00 in0.0 mm
09:19 AM 65.8°F18.8°C 49.2°F9.6°C 55% 6.2 mph NE10.0 kmh NE 9.8 mph15.8 kmh 29.35 in993.9 mb 0.00 in0.0 mm 0.00 in/hr0.0 mm/hr 0.00 in0.0 mm
09:18 AM 65.8°F18.8°C 49.2°F9.6°C 55% 5.8 mph NE9.3 kmh NE 9.8 mph15.8 kmh 29.35 in993.9 mb 0.00 in0.0 mm 0.00 in/hr0.0 mm/hr 0.00 in0.0 mm
09:17 AM 65.8°F18.8°C 49.2°F9.6°C 55% 5.2 mph NE8.4 kmh NE 8.3 mph13.4 kmh 29.35 in993.9 mb 0.00 in0.0 mm 0.00 in/hr0.0 mm/hr 0.00 in0.0 mm
09:16 AM 65.8°F18.8°C 49.2°F9.6°C 55% 5.3 mph NE8.5 kmh NE 7.6 mph12.2 kmh 29.35 in993.9 mb 0.00 in0.0 mm 0.00 in/hr0.0 mm/hr 0.00 in0.0 mm
09:15 AM 65.8°F18.8°C 49.2°F9.6°C 55% 5.1 mph NNE8.2 kmh NNE 7.6 mph12.2 kmh 29.35 in993.9 mb 0.00 in0.0 mm 0.00 in/hr0.0 mm/hr 0.00 in0.0 mm
09:14 AM 65.8°F18.8°C 49.2°F9.6°C 55% 5.0 mph NNE8.0 kmh NNE 7.6 mph12.2 kmh 29.35 in993.9 mb 0.00 in0.0 mm 0.00 in/hr0.0 mm/hr 0.00 in0.0 mm
09:13 AM 65.8°F18.8°C 49.2°F9.6°C 55% 4.8 mph NNE7.7 kmh NNE 7.6 mph12.2 kmh 29.36 in994.2 mb 0.00 in0.0 mm 0.00 in/hr0.0 mm/hr 0.00 in0.0 mm
09:12 AM 65.8°F18.8°C 49.2°F9.6°C 55% 4.7 mph NNE7.6 kmh NNE 7.6 mph12.2 kmh 29.35 in993.9 mb 0.00 in0.0 mm 0.00 in/hr0.0 mm/hr 0.00 in0.0 mm
09:11 AM 65.8°F18.8°C 50.2°F10.1°C 57% 4.4 mph N7.1 kmh N 7.6 mph12.2 kmh 29.35 in993.9 mb 0.00 in0.0 mm 0.00 in/hr0.0 mm/hr 0.00 in0.0 mm
09:10 AM 65.8°F18.8°C 50.2°F10.1°C 57% 4.4 mph N7.1 kmh N 7.6 mph12.2 kmh 29.35 in993.9 mb 0.00 in0.0 mm 0.00 in/hr0.0 mm/hr 0.00 in0.0 mm
09:09 AM 65.8°F18.8°C 50.2°F10.1°C 57% 4.3 mph NNW6.9 kmh NNW 7.6 mph12.2 kmh 29.35 in993.9 mb 0.00 in0.0 mm 0.00 in/hr0.0 mm/hr 0.00 in0.0 mm
09:08 AM 65.8°F18.8°C 50.2°F10.1°C 57% 4.7 mph NNW7.6 kmh NNW 7.6 mph12.2 kmh 29.35 in993.9 mb 0.00 in0.0 mm 0.00 in/hr0.0 mm/hr 0.00 in0.0 mm
09:07 AM 65.7°F18.7°C 50.0°F10.0°C 57% 4.9 mph NW7.9 kmh NW 7.6 mph12.2 kmh 29.35 in993.9 mb 0.00 in0.0 mm 0.00 in/hr0.0 mm/hr 0.00 in0.0 mm
09:06 AM 65.7°F18.7°C 50.0°F10.0°C 57% 4.6 mph NW7.4 kmh NW 7.6 mph12.2 kmh 29.35 in993.9 mb 0.00 in0.0 mm 0.00 in/hr0.0 mm/hr 0.00 in0.0 mm
09:05 AM 65.7°F18.7°C 49.6°F9.8°C 56% 4.8 mph NNW7.7 kmh NNW 7.6 mph12.2 kmh 29.35 in993.9 mb 0.00 in0.0 mm 0.00 in/hr0.0 mm/hr 0.00 in0.0 mm
09:04 AM 65.7°F18.7°C 49.6°F9.8°C 56% 5.2 mph N8.4 kmh N 9.2 mph14.8 kmh 29.35 in993.9 mb 0.00 in0.0 mm 0.00 in/hr0.0 mm/hr 0.00 in0.0 mm
09:03 AM 65.7°F18.7°C 50.0°F10.0°C 57% 5.7 mph N9.2 kmh N 9.2 mph14.8 kmh 29.35 in993.9 mb 0.00 in0.0 mm 0.00 in/hr0.0 mm/hr 0.00 in0.0 mm
09:02 AM 65.7°F18.7°C 50.0°F10.0°C 57% 5.8 mph NNE9.3 kmh NNE 9.2 mph14.8 kmh 29.35 in993.9 mb 0.00 in0.0 mm 0.00 in/hr0.0 mm/hr 0.00 in0.0 mm
09:01 AM 65.7°F18.7°C 50.0°F10.0°C 57% 5.8 mph NE9.3 kmh NE 9.2 mph14.8 kmh 29.35 in993.9 mb 0.00 in0.0 mm 0.00 in/hr0.0 mm/hr 0.00 in0.0 mm
09:00 AM 65.7°F18.7°C 50.0°F10.0°C 57% 6.0 mph NE9.7 kmh NE 9.2 mph14.8 kmh 29.34 in993.6 mb 0.00 in0.0 mm 0.00 in/hr0.0 mm/hr 0.00 in0.0 mm
08:59 AM 65.7°F18.7°C 50.0°F10.0°C 57% 6.1 mph NE9.8 kmh NE 9.2 mph14.8 kmh 29.35 in993.9 mb 0.00 in0.0 mm 0.00 in/hr0.0 mm/hr 0.00 in0.0 mm
08:58 AM 65.5°F18.6°C 49.9°F9.9°C 57% 5.6 mph ENE9.0 kmh ENE 9.2 mph14.8 kmh 29.35 in993.9 mb 0.00 in0.0 mm 0.00 in/hr0.0 mm/hr 0.00 in0.0 mm
08:57 AM 65.5°F18.6°C 49.9°F9.9°C 57% 5.4 mph ENE8.7 kmh ENE 9.2 mph14.8 kmh 29.35 in993.9 mb 0.00 in0.0 mm 0.00 in/hr0.0 mm/hr 0.00 in0.0 mm
08:56 AM 65.5°F18.6°C 49.4°F9.7°C 56% 5.4 mph ENE8.7 kmh ENE 9.2 mph14.8 kmh 29.35 in993.9 mb 0.00 in0.0 mm 0.00 in/hr0.0 mm/hr 0.00 in0.0 mm
08:55 AM 65.7°F18.7°C 50.0°F10.0°C 57% 5.2 mph ENE8.4 kmh ENE 9.2 mph14.8 kmh 29.35 in993.9 mb 0.00 in0.0 mm 0.00 in/hr0.0 mm/hr 0.00 in0.0 mm
08:54 AM 65.7°F18.7°C 50.0°F10.0°C 57% 4.8 mph ENE7.7 kmh ENE 9.2 mph14.8 kmh 29.35 in993.9 mb 0.00 in0.0 mm 0.00 in/hr0.0 mm/hr 0.00 in0.0 mm
08:53 AM 65.7°F18.7°C 50.0°F10.0°C 57% 4.7 mph ENE7.6 kmh ENE 9.2 mph14.8 kmh 29.35 in993.9 mb 0.00 in0.0 mm 0.00 in/hr0.0 mm/hr 0.00 in0.0 mm
08:52 AM 65.8°F18.8°C 50.2°F10.1°C 57% 4.6 mph ENE7.4 kmh ENE 9.2 mph14.8 kmh 29.34 in993.6 mb 0.00 in0.0 mm 0.00 in/hr0.0 mm/hr 0.00 in0.0 mm
08:51 AM 65.8°F18.8°C 50.7°F10.4°C 58% 4.9 mph ENE7.9 kmh ENE 9.2 mph14.8 kmh 29.34 in993.6 mb 0.00 in0.0 mm 0.00 in/hr0.0 mm/hr 0.00 in0.0 mm
08:50 AM 66.0°F18.9°C 50.8°F10.4°C 58% 4.7 mph E7.6 kmh E 9.2 mph14.8 kmh 29.34 in993.6 mb 0.00 in0.0 mm 0.00 in/hr0.0 mm/hr 0.00 in0.0 mm
08:49 AM 66.0°F18.9°C 50.8°F10.4°C 58% 4.7 mph E7.6 kmh E 6.9 mph11.1 kmh 29.35 in993.9 mb 0.00 in0.0 mm 0.00 in/hr0.0 mm/hr 0.00 in0.0 mm
08:48 AM 66.2°F19.0°C 51.0°F10.6°C 58% 4.9 mph E7.9 kmh E 6.9 mph11.1 kmh 29.35 in993.9 mb 0.00 in0.0 mm 0.00 in/hr0.0 mm/hr 0.00 in0.0 mm
08:47 AM 66.4°F19.1°C 50.7°F10.4°C 57% 5.1 mph ENE8.2 kmh ENE 6.9 mph11.1 kmh 29.35 in993.9 mb 0.00 in0.0 mm 0.00 in/hr0.0 mm/hr 0.00 in0.0 mm
08:46 AM 66.4°F19.1°C 50.7°F10.4°C 57% 5.2 mph ENE8.4 kmh ENE 6.9 mph11.1 kmh 29.35 in993.9 mb 0.00 in0.0 mm 0.00 in/hr0.0 mm/hr 0.00 in0.0 mm
08:45 AM 66.6°F19.2°C 50.9°F10.5°C 57% 5.4 mph ENE8.7 kmh ENE 6.9 mph11.1 kmh 29.35 in993.9 mb 0.00 in0.0 mm 0.00 in/hr0.0 mm/hr 0.00 in0.0 mm
08:44 AM 66.6°F19.2°C 51.3°F10.7°C 58% 5.4 mph ENE8.7 kmh ENE 6.9 mph11.1 kmh 29.35 in993.9 mb 0.00 in0.0 mm 0.00 in/hr0.0 mm/hr 0.00 in0.0 mm
08:43 AM 66.7°F19.3°C 51.0°F10.6°C 57% 5.2 mph E8.4 kmh E 6.0 mph9.7 kmh 29.35 in993.9 mb 0.00 in0.0 mm 0.00 in/hr0.0 mm/hr 0.00 in0.0 mm
08:42 AM 66.7°F19.3°C 51.5°F10.8°C 58% 5.2 mph E8.4 kmh E 6.0 mph9.7 kmh 29.35 in993.9 mb 0.00 in0.0 mm 0.00 in/hr0.0 mm/hr 0.00 in0.0 mm
08:41 AM 66.7°F19.3°C 51.5°F10.8°C 58% 4.9 mph E7.9 kmh E 6.0 mph9.7 kmh 29.35 in993.9 mb 0.00 in0.0 mm 0.00 in/hr0.0 mm/hr 0.00 in0.0 mm
08:40 AM 66.7°F19.3°C 51.5°F10.8°C 58% 4.7 mph E7.6 kmh E 6.0 mph9.7 kmh 29.35 in993.9 mb 0.00 in0.0 mm 0.00 in/hr0.0 mm/hr 0.00 in0.0 mm
08:39 AM 66.7°F19.3°C 51.5°F10.8°C 58% 4.5 mph E7.2 kmh E 6.0 mph9.7 kmh 29.35 in993.9 mb 0.00 in0.0 mm 0.00 in/hr0.0 mm/hr 0.00 in0.0 mm
08:38 AM 66.7°F19.3°C 51.0°F10.6°C 57% 4.3 mph E6.9 kmh E 6.0 mph9.7 kmh 29.35 in993.9 mb 0.00 in0.0 mm 0.00 in/hr0.0 mm/hr 0.00 in0.0 mm
08:37 AM 66.9°F19.4°C 51.2°F10.7°C 57% 4.2 mph ESE6.8 kmh ESE 6.0 mph9.7 kmh 29.35 in993.9 mb 0.00 in0.0 mm 0.00 in/hr0.0 mm/hr 0.00 in0.0 mm
08:36 AM 66.9°F19.4°C 51.2°F10.7°C 57% 3.9 mph ESE6.3 kmh ESE 6.0 mph9.7 kmh 29.35 in993.9 mb 0.00 in0.0 mm 0.00 in/hr0.0 mm/hr 0.00 in0.0 mm
08:35 AM 67.1°F19.5°C 51.9°F11.1°C 58% 3.8 mph SE6.1 kmh SE 4.5 mph7.2 kmh 29.35 in993.9 mb 0.00 in0.0 mm 0.00 in/hr0.0 mm/hr 0.00 in0.0 mm
08:34 AM 67.1°F19.5°C 51.9°F11.1°C 58% 3.7 mph ESE6.0 kmh ESE 4.5 mph7.2 kmh 29.35 in993.9 mb 0.00 in0.0 mm 0.00 in/hr0.0 mm/hr 0.00 in0.0 mm
08:33 AM 66.9°F19.4°C 51.7°F10.9°C 58% 3.6 mph ESE5.8 kmh ESE 4.5 mph7.2 kmh 29.35 in993.9 mb 0.00 in0.0 mm 0.00 in/hr0.0 mm/hr 0.00 in0.0 mm
08:32 AM 66.9°F19.4°C 51.7°F10.9°C 58% 3.7 mph SE6.0 kmh SE 5.4 mph8.7 kmh 29.35 in993.9 mb 0.00 in0.0 mm 0.00 in/hr0.0 mm/hr 0.00 in0.0 mm
08:31 AM 66.7°F19.3°C 52.0°F11.1°C 59% 3.8 mph SE6.1 kmh SE 5.4 mph8.7 kmh 29.35 in993.9 mb 0.00 in0.0 mm 0.00 in/hr0.0 mm/hr 0.00 in0.0 mm
08:30 AM 66.7°F19.3°C 52.0°F11.1°C 59% 4.1 mph SE6.6 kmh SE 6.9 mph11.1 kmh 29.35 in993.9 mb 0.00 in0.0 mm 0.00 in/hr0.0 mm/hr 0.00 in0.0 mm
08:29 AM 66.6°F19.2°C 51.8°F11.0°C 59% 4.3 mph ESE6.9 kmh ESE 6.9 mph11.1 kmh 29.36 in994.2 mb 0.00 in0.0 mm 0.00 in/hr0.0 mm/hr 0.00 in0.0 mm
08:28 AM 66.6°F19.2°C 51.8°F11.0°C 59% 4.6 mph ESE7.4 kmh ESE 6.9 mph11.1 kmh 29.35 in993.9 mb 0.00 in0.0 mm 0.00 in/hr0.0 mm/hr 0.00 in0.0 mm
08:27 AM 66.2°F19.0°C 51.9°F11.1°C 60% 4.7 mph E7.6 kmh E 6.9 mph11.1 kmh 29.35 in993.9 mb 0.00 in0.0 mm 0.00 in/hr0.0 mm/hr 0.00 in0.0 mm
08:26 AM 66.2°F19.0°C 51.9°F11.1°C 60% 5.0 mph ESE8.0 kmh ESE 6.9 mph11.1 kmh 29.35 in993.9 mb 0.00 in0.0 mm 0.00 in/hr0.0 mm/hr 0.00 in0.0 mm
08:25 AM 66.0°F18.9°C 52.2°F11.2°C 61% 5.0 mph ESE8.0 kmh ESE 6.9 mph11.1 kmh 29.36 in994.2 mb 0.00 in0.0 mm 0.00 in/hr0.0 mm/hr 0.00 in0.0 mm
08:24 AM 65.8°F18.8°C 52.0°F11.1°C 61% 5.4 mph E8.7 kmh E 7.6 mph12.2 kmh 29.35 in993.9 mb 0.00 in0.0 mm 0.00 in/hr0.0 mm/hr 0.00 in0.0 mm
08:23 AM 65.7°F18.7°C 51.4°F10.8°C 60% 5.9 mph E9.5 kmh E 7.6 mph12.2 kmh 29.35 in993.9 mb 0.00 in0.0 mm 0.00 in/hr0.0 mm/hr 0.00 in0.0 mm
08:22 AM 65.5°F18.6°C 51.2°F10.7°C 60% 6.2 mph E10.0 kmh E 8.3 mph13.4 kmh 29.35 in993.9 mb 0.00 in0.0 mm 0.00 in/hr0.0 mm/hr 0.00 in0.0 mm
08:21 AM 65.5°F18.6°C 51.2°F10.7°C 60% 6.7 mph E10.8 kmh E 9.8 mph15.8 kmh 29.35 in993.9 mb 0.00 in0.0 mm 0.00 in/hr0.0 mm/hr 0.00 in0.0 mm
08:20 AM 65.5°F18.6°C 51.2°F10.7°C 60% 6.9 mph E11.1 kmh E 9.8 mph15.8 kmh 29.35 in993.9 mb 0.00 in0.0 mm 0.00 in/hr0.0 mm/hr 0.00 in0.0 mm
08:19 AM 65.5°F18.6°C 51.2°F10.7°C 60% 7.0 mph E11.3 kmh E 9.8 mph15.8 kmh 29.35 in993.9 mb 0.00 in0.0 mm 0.00 in/hr0.0 mm/hr 0.00 in0.0 mm
08:18 AM 65.5°F18.6°C 51.2°F10.7°C 60% 7.1 mph E11.4 kmh E 9.8 mph15.8 kmh 29.35 in993.9 mb 0.00 in0.0 mm 0.00 in/hr0.0 mm/hr 0.00 in0.0 mm
08:17 AM 65.5°F18.6°C 51.7°F10.9°C 61% 7.2 mph E11.6 kmh E 9.8 mph15.8 kmh 29.35 in993.9 mb 0.00 in0.0 mm 0.00 in/hr0.0 mm/hr 0.00 in0.0 mm
08:16 AM 65.5°F18.6°C 51.7°F10.9°C 61% 7.0 mph E11.3 kmh E 9.8 mph15.8 kmh 29.35 in993.9 mb 0.00 in0.0 mm 0.00 in/hr0.0 mm/hr 0.00 in0.0 mm
08:15 AM 65.5°F18.6°C 51.7°F10.9°C 61% 7.0 mph E11.3 kmh E 9.8 mph15.8 kmh 29.35 in993.9 mb 0.00 in0.0 mm 0.00 in/hr0.0 mm/hr 0.00 in0.0 mm
08:14 AM 65.5°F18.6°C 51.7°F10.9°C 61% 6.7 mph E10.8 kmh E 9.8 mph15.8 kmh 29.35 in993.9 mb 0.00 in0.0 mm 0.00 in/hr0.0 mm/hr 0.00 in0.0 mm
08:13 AM 65.3°F18.5°C 52.0°F11.1°C 62% 6.4 mph ENE10.3 kmh ENE 9.8 mph15.8 kmh 29.35 in993.9 mb 0.00 in0.0 mm 0.00 in/hr0.0 mm/hr 0.00 in0.0 mm
08:12 AM 65.3°F18.5°C 52.0°F11.1°C 62% 6.2 mph ENE10.0 kmh ENE 9.8 mph15.8 kmh 29.35 in993.9 mb 0.00 in0.0 mm 0.00 in/hr0.0 mm/hr 0.00 in0.0 mm
08:11 AM 65.3°F18.5°C 52.0°F11.1°C 62% 5.7 mph NE9.2 kmh NE 8.3 mph13.4 kmh 29.35 in993.9 mb 0.00 in0.0 mm 0.00 in/hr0.0 mm/hr 0.00 in0.0 mm
08:10 AM 65.1°F18.4°C 51.8°F11.0°C 62% 5.4 mph NE8.7 kmh NE 8.3 mph13.4 kmh 29.35 in993.9 mb 0.00 in0.0 mm 0.00 in/hr0.0 mm/hr 0.00 in0.0 mm
08:09 AM 65.1°F18.4°C 52.2°F11.2°C 63% 5.3 mph NE8.5 kmh NE 8.3 mph13.4 kmh 29.35 in993.9 mb 0.00 in0.0 mm 0.00 in/hr0.0 mm/hr 0.00 in0.0 mm
08:08 AM 65.1°F18.4°C 52.2°F11.2°C 63% 5.5 mph NE8.9 kmh NE 9.2 mph14.8 kmh 29.34 in993.6 mb 0.00 in0.0 mm 0.00 in/hr0.0 mm/hr 0.00 in0.0 mm
08:07 AM 64.9°F18.3°C 52.1°F11.2°C 63% 5.3 mph NE8.5 kmh NE 9.2 mph14.8 kmh 29.35 in993.9 mb 0.00 in0.0 mm 0.00 in/hr0.0 mm/hr 0.00 in0.0 mm
08:06 AM 64.9°F18.3°C 52.1°F11.2°C 63% 5.4 mph NE8.7 kmh NE 9.2 mph14.8 kmh 29.35 in993.9 mb 0.00 in0.0 mm 0.00 in/hr0.0 mm/hr 0.00 in0.0 mm
08:05 AM 64.9°F18.3°C 52.1°F11.2°C 63% 5.4 mph NE8.7 kmh NE 9.2 mph14.8 kmh 29.35 in993.9 mb 0.00 in0.0 mm 0.00 in/hr0.0 mm/hr 0.00 in0.0 mm
08:04 AM 64.8°F18.2°C 51.9°F11.1°C 63% 5.5 mph NE8.9 kmh NE 9.2 mph14.8 kmh 29.35 in993.9 mb 0.00 in0.0 mm 0.00 in/hr0.0 mm/hr 0.00 in0.0 mm
08:03 AM 64.8°F18.2°C 51.9°F11.1°C 63% 5.7 mph NE9.2 kmh NE 9.2 mph14.8 kmh 29.35 in993.9 mb 0.00 in0.0 mm 0.00 in/hr0.0 mm/hr 0.00 in0.0 mm
08:02 AM 64.8°F18.2°C 52.3°F11.3°C 64% 5.8 mph NE9.3 kmh NE 9.2 mph14.8 kmh 29.35 in993.9 mb 0.00 in0.0 mm 0.00 in/hr0.0 mm/hr 0.00 in0.0 mm
08:01 AM 64.8°F18.2°C 52.3°F11.3°C 64% 5.6 mph NE9.0 kmh NE 9.2 mph14.8 kmh 29.35 in993.9 mb 0.00 in0.0 mm 0.00 in/hr0.0 mm/hr 0.00 in0.0 mm
08:00 AM 64.8°F18.2°C 52.3°F11.3°C 64% 5.6 mph NE9.0 kmh NE 9.2 mph14.8 kmh 29.35 in993.9 mb 0.00 in0.0 mm 0.00 in/hr0.0 mm/hr 0.00 in0.0 mm
07:59 AM 64.8°F18.2°C 52.7°F11.5°C 65% 5.3 mph NE8.5 kmh NE 9.2 mph14.8 kmh 29.35 in993.9 mb 0.00 in0.0 mm 0.00 in/hr0.0 mm/hr 0.00 in0.0 mm
07:58 AM 64.6°F18.1°C 52.6°F11.4°C 65% 5.0 mph NE8.0 kmh NE 6.9 mph11.1 kmh 29.35 in993.9 mb 0.00 in0.0 mm 0.00 in/hr0.0 mm/hr 0.00 in0.0 mm
07:57 AM 64.6°F18.1°C 53.0°F11.7°C 66% 4.8 mph NE7.7 kmh NE 6.9 mph11.1 kmh 29.35 in993.9 mb 0.00 in0.0 mm 0.00 in/hr0.0 mm/hr 0.00 in0.0 mm
07:56 AM 64.6°F18.1°C 53.0°F11.7°C 66% 4.9 mph NE7.9 kmh NE 6.9 mph11.1 kmh 29.35 in993.9 mb 0.00 in0.0 mm 0.00 in/hr0.0 mm/hr 0.00 in0.0 mm
07:55 AM 64.4°F18.0°C 52.8°F11.6°C 66% 4.8 mph NE7.7 kmh NE 6.9 mph11.1 kmh 29.35 in993.9 mb 0.00 in0.0 mm 0.00 in/hr0.0 mm/hr 0.00 in0.0 mm
07:54 AM 64.2°F17.9°C 53.1°F11.7°C 67% 4.7 mph NE7.6 kmh NE 6.9 mph11.1 kmh 29.34 in993.6 mb 0.00 in0.0 mm 0.00 in/hr0.0 mm/hr 0.00 in0.0 mm
07:53 AM 64.0°F17.8°C 52.9°F11.6°C 67% 4.5 mph NE7.2 kmh NE 6.9 mph11.1 kmh 29.35 in993.9 mb 0.00 in0.0 mm 0.00 in/hr0.0 mm/hr 0.00 in0.0 mm
07:52 AM 64.0°F17.8°C 52.9°F11.6°C 67% 4.3 mph NE6.9 kmh NE 6.0 mph9.7 kmh 29.34 in993.6 mb 0.00 in0.0 mm 0.00 in/hr0.0 mm/hr 0.00 in0.0 mm
07:51 AM 63.7°F17.6°C 52.9°F11.6°C 68% 4.5 mph NE7.2 kmh NE 8.3 mph13.4 kmh 29.34 in993.6 mb 0.00 in0.0 mm 0.00 in/hr0.0 mm/hr 0.00 in0.0 mm
07:50 AM 63.5°F17.5°C 52.8°F11.6°C 68% 4.9 mph NE7.9 kmh NE 9.2 mph14.8 kmh 29.34 in993.6 mb 0.00 in0.0 mm 0.00 in/hr0.0 mm/hr 0.00 in0.0 mm
07:49 AM 63.3°F17.4°C 52.6°F11.4°C 68% 5.1 mph NE8.2 kmh NE 9.2 mph14.8 kmh 29.34 in993.6 mb 0.00 in0.0 mm 0.00 in/hr0.0 mm/hr 0.00 in0.0 mm
07:48 AM 63.1°F17.3°C 52.8°F11.6°C 69% 5.4 mph NE8.7 kmh NE 9.2 mph14.8 kmh 29.34 in993.6 mb 0.00 in0.0 mm 0.00 in/hr0.0 mm/hr 0.00 in0.0 mm
07:47 AM 63.0°F17.2°C 53.0°F11.7°C 70% 5.7 mph NE9.2 kmh NE 9.2 mph14.8 kmh 29.34 in993.6 mb 0.00 in0.0 mm 0.00 in/hr0.0 mm/hr 0.00 in0.0 mm
07:46 AM 63.0°F17.2°C 53.0°F11.7°C 70% 5.9 mph NE9.5 kmh NE 9.2 mph14.8 kmh 29.34 in993.6 mb 0.00 in0.0 mm 0.00 in/hr0.0 mm/hr 0.00 in0.0 mm
07:45 AM 62.8°F17.1°C 52.9°F11.6°C 70% 5.9 mph NE9.5 kmh NE 9.2 mph14.8 kmh 29.34 in993.6 mb 0.00 in0.0 mm 0.00 in/hr0.0 mm/hr 0.00 in0.0 mm
07:44 AM 62.6°F17.0°C 53.1°F11.7°C 71% 5.9 mph NE9.5 kmh NE 9.2 mph14.8 kmh 29.34 in993.6 mb 0.00 in0.0 mm 0.00 in/hr0.0 mm/hr 0.00 in0.0 mm
07:43 AM 62.2°F16.8°C 52.7°F11.5°C 71% 6.0 mph NE9.7 kmh NE 9.2 mph14.8 kmh 29.34 in993.6 mb 0.00 in0.0 mm 0.00 in/hr0.0 mm/hr 0.00 in0.0 mm
07:42 AM 62.1°F16.7°C 52.6°F11.4°C 71% 6.3 mph NE10.1 kmh NE 9.2 mph14.8 kmh 29.34 in993.6 mb 0.00 in0.0 mm 0.00 in/hr0.0 mm/hr 0.00 in0.0 mm
07:41 AM 62.1°F16.7°C 52.9°F11.6°C 72% 6.3 mph NE10.1 kmh NE 9.2 mph14.8 kmh 29.34 in993.6 mb 0.00 in0.0 mm 0.00 in/hr0.0 mm/hr 0.00 in0.0 mm
07:40 AM 61.9°F16.6°C 52.8°F11.6°C 72% 6.1 mph NE9.8 kmh NE 9.2 mph14.8 kmh 29.34 in993.6 mb 0.00 in0.0 mm 0.00 in/hr0.0 mm/hr 0.00 in0.0 mm
07:39 AM 61.7°F16.5°C 53.0°F11.7°C 73% 6.4 mph NE10.3 kmh NE 9.8 mph15.8 kmh 29.35 in993.9 mb 0.00 in0.0 mm 0.00 in/hr0.0 mm/hr 0.00 in0.0 mm
07:38 AM 61.3°F16.3°C 53.0°F11.7°C 74% 6.5 mph NE10.5 kmh NE 9.8 mph15.8 kmh 29.34 in993.6 mb 0.00 in0.0 mm 0.00 in/hr0.0 mm/hr 0.00 in0.0 mm
07:37 AM 61.2°F16.2°C 52.8°F11.6°C 74% 6.4 mph NE10.3 kmh NE 9.8 mph15.8 kmh 29.35 in993.9 mb 0.00 in0.0 mm 0.00 in/hr0.0 mm/hr 0.00 in0.0 mm
07:36 AM 61.0°F16.1°C 52.6°F11.4°C 74% 6.4 mph NE10.3 kmh NE 9.8 mph15.8 kmh 29.34 in993.6 mb 0.00 in0.0 mm 0.00 in/hr0.0 mm/hr 0.00 in0.0 mm
07:35 AM 60.6°F15.9°C 52.3°F11.3°C 74% 6.5 mph NE10.5 kmh NE 9.8 mph15.8 kmh 29.35 in993.9 mb 0.00 in0.0 mm 0.00 in/hr0.0 mm/hr 0.00 in0.0 mm
07:34 AM 60.6°F15.9°C 52.3°F11.3°C 74% 6.8 mph NE10.9 kmh NE 9.8 mph15.8 kmh 29.35 in993.9 mb 0.00 in0.0 mm 0.00 in/hr0.0 mm/hr 0.00 in0.0 mm
07:33 AM 60.4°F15.8°C 51.8°F11.0°C 73% 6.8 mph NE10.9 kmh NE 9.8 mph15.8 kmh 29.34 in993.6 mb 0.00 in0.0 mm 0.00 in/hr0.0 mm/hr 0.00 in0.0 mm
07:32 AM 60.4°F15.8°C 51.8°F11.0°C 73% 6.3 mph NE10.1 kmh NE 9.8 mph15.8 kmh 29.34 in993.6 mb 0.00 in0.0 mm 0.00 in/hr0.0 mm/hr 0.00 in0.0 mm
07:31 AM 60.3°F15.7°C 51.6°F10.9°C 73% 6.0 mph NE9.7 kmh NE 9.8 mph15.8 kmh 29.34 in993.6 mb 0.00 in0.0 mm 0.00 in/hr0.0 mm/hr 0.00 in0.0 mm
07:30 AM 60.3°F15.7°C 51.6°F10.9°C 73% 5.7 mph NE9.2 kmh NE 9.8 mph15.8 kmh 29.35 in993.9 mb 0.00 in0.0 mm 0.00 in/hr0.0 mm/hr 0.00 in0.0 mm
07:29 AM 60.3°F15.7°C 51.6°F10.9°C 73% 5.0 mph NE8.0 kmh NE 9.8 mph15.8 kmh 29.35 in993.9 mb 0.00 in0.0 mm 0.00 in/hr0.0 mm/hr 0.00 in0.0 mm
07:28 AM 60.4°F15.8°C 51.8°F11.0°C 73% 4.4 mph NE7.1 kmh NE 8.3 mph13.4 kmh 29.35 in993.9 mb 0.00 in0.0 mm 0.00 in/hr0.0 mm/hr 0.00 in0.0 mm
07:27 AM 60.6°F15.9°C 52.3°F11.3°C 74% 4.0 mph NE6.4 kmh NE 8.3 mph13.4 kmh 29.35 in993.9 mb 0.00 in0.0 mm 0.00 in/hr0.0 mm/hr 0.00 in0.0 mm
07:26 AM 60.8°F16.0°C 52.5°F11.4°C 74% 3.5 mph NE5.6 kmh NE 7.6 mph12.2 kmh 29.35 in993.9 mb 0.00 in0.0 mm 0.00 in/hr0.0 mm/hr 0.00 in0.0 mm
07:25 AM 60.8°F16.0°C 52.8°F11.6°C 75% 3.1 mph NE5.0 kmh NE 7.6 mph12.2 kmh 29.35 in993.9 mb 0.00 in0.0 mm 0.00 in/hr0.0 mm/hr 0.00 in0.0 mm
07:24 AM 61.0°F16.1°C 53.0°F11.7°C 75% 2.8 mph NE4.5 kmh NE 7.6 mph12.2 kmh 29.35 in993.9 mb 0.00 in0.0 mm 0.00 in/hr0.0 mm/hr 0.00 in0.0 mm
07:23 AM 61.0°F16.1°C 53.4°F11.9°C 76% 2.7 mph NNE4.3 kmh NNE 4.5 mph7.2 kmh 29.34 in993.6 mb 0.00 in0.0 mm 0.00 in/hr0.0 mm/hr 0.00 in0.0 mm
07:22 AM 60.8°F16.0°C 53.2°F11.8°C 76% 2.7 mph NNE4.3 kmh NNE 4.5 mph7.2 kmh 29.34 in993.6 mb 0.00 in0.0 mm 0.00 in/hr0.0 mm/hr 0.00 in0.0 mm
07:21 AM 60.8°F16.0°C 53.6°F12.0°C 77% 2.6 mph NNE4.2 kmh NNE 4.5 mph7.2 kmh 29.34 in993.6 mb 0.00 in0.0 mm 0.00 in/hr0.0 mm/hr 0.00 in0.0 mm
07:20 AM 60.8°F16.0°C 53.6°F12.0°C 77% 2.6 mph NNE4.2 kmh NNE 3.8 mph6.1 kmh 29.34 in993.6 mb 0.00 in0.0 mm 0.00 in/hr0.0 mm/hr 0.00 in0.0 mm
07:19 AM 60.6°F15.9°C 53.7°F12.1°C 78% 2.6 mph NNE4.2 kmh NNE 3.8 mph6.1 kmh 29.34 in993.6 mb 0.00 in0.0 mm 0.00 in/hr0.0 mm/hr 0.00 in0.0 mm
07:18 AM 60.4°F15.8°C 53.9°F12.2°C 79% 2.7 mph NNE4.3 kmh NNE 3.8 mph6.1 kmh 29.35 in993.9 mb 0.00 in0.0 mm 0.00 in/hr0.0 mm/hr 0.00 in0.0 mm
07:17 AM 60.3°F15.7°C 53.7°F12.1°C 79% 2.6 mph NNE4.2 kmh NNE 3.8 mph6.1 kmh 29.35 in993.9 mb 0.00 in0.0 mm 0.00 in/hr0.0 mm/hr 0.00 in0.0 mm
07:16 AM 60.3°F15.7°C 54.1°F12.3°C 80% 2.6 mph NNE4.2 kmh NNE 3.8 mph6.1 kmh 29.35 in993.9 mb 0.00 in0.0 mm 0.00 in/hr0.0 mm/hr 0.00 in0.0 mm
07:15 AM 59.9°F15.5°C 54.1°F12.3°C 81% 2.5 mph NNE4.0 kmh NNE 3.8 mph6.1 kmh 29.35 in993.9 mb 0.00 in0.0 mm 0.00 in/hr0.0 mm/hr 0.00 in0.0 mm
07:14 AM 59.7°F15.4°C 54.2°F12.3°C 82% 2.4 mph NNE3.9 kmh NNE 3.8 mph6.1 kmh 29.34 in993.6 mb 0.00 in0.0 mm 0.00 in/hr0.0 mm/hr 0.00 in0.0 mm
07:13 AM 59.5°F15.3°C 54.1°F12.3°C 82% 2.3 mph NE3.7 kmh NE 3.8 mph6.1 kmh 29.35 in993.9 mb 0.00 in0.0 mm 0.00 in/hr0.0 mm/hr 0.00 in0.0 mm
07:12 AM 59.4°F15.2°C 54.2°F12.3°C 83% 2.4 mph NE3.9 kmh NE 3.8 mph6.1 kmh 29.35 in993.9 mb 0.00 in0.0 mm 0.00 in/hr0.0 mm/hr 0.00 in0.0 mm
07:11 AM 58.8°F14.9°C 53.7°F12.1°C 83% 2.5 mph NE4.0 kmh NE 3.8 mph6.1 kmh 29.34 in993.6 mb 0.00 in0.0 mm 0.00 in/hr0.0 mm/hr 0.00 in0.0 mm
07:10 AM 58.6°F14.8°C 53.5°F11.9°C 83% 2.4 mph NNE3.9 kmh NNE 3.8 mph6.1 kmh 29.34 in993.6 mb 0.00 in0.0 mm 0.00 in/hr0.0 mm/hr 0.00 in0.0 mm
07:09 AM 58.5°F14.7°C 53.7°F12.1°C 84% 2.4 mph NNE3.9 kmh NNE 3.8 mph6.1 kmh 29.34 in993.6 mb 0.00 in0.0 mm 0.00 in/hr0.0 mm/hr 0.00 in0.0 mm
07:08 AM 58.1°F14.5°C 53.3°F11.8°C 84% 2.4 mph N3.9 kmh N 3.8 mph6.1 kmh 29.34 in993.6 mb 0.00 in0.0 mm 0.00 in/hr0.0 mm/hr 0.00 in0.0 mm
07:07 AM 57.7°F14.3°C 53.3°F11.8°C 85% 2.5 mph N4.0 kmh N 3.8 mph6.1 kmh 29.34 in993.6 mb 0.00 in0.0 mm 0.00 in/hr0.0 mm/hr 0.00 in0.0 mm
07:06 AM 57.6°F14.2°C 53.1°F11.7°C 85% 2.4 mph N3.9 kmh N 3.8 mph6.1 kmh 29.34 in993.6 mb 0.00 in0.0 mm 0.00 in/hr0.0 mm/hr 0.00 in0.0 mm
07:05 AM 57.4°F14.1°C 52.9°F11.6°C 85% 2.3 mph NNW3.7 kmh NNW 3.8 mph6.1 kmh 29.34 in993.6 mb 0.00 in0.0 mm 0.00 in/hr0.0 mm/hr 0.00 in0.0 mm
07:04 AM 57.4°F14.1°C 53.2°F11.8°C 86% 2.3 mph NW3.7 kmh NW 3.8 mph6.1 kmh 29.34 in993.6 mb 0.00 in0.0 mm 0.00 in/hr0.0 mm/hr 0.00 in0.0 mm
07:03 AM 57.0°F13.9°C 52.9°F11.6°C 86% 2.3 mph NW3.7 kmh NW 3.8 mph6.1 kmh 29.34 in993.6 mb 0.00 in0.0 mm 0.00 in/hr0.0 mm/hr 0.00 in0.0 mm
07:02 AM 57.0°F13.9°C 53.2°F11.8°C 87% 2.2 mph WNW3.5 kmh WNW 3.8 mph6.1 kmh 29.34 in993.6 mb 0.00 in0.0 mm 0.00 in/hr0.0 mm/hr 0.00 in0.0 mm
07:01 AM 56.8°F13.8°C 53.0°F11.7°C 87% 2.1 mph WNW3.4 kmh WNW 3.8 mph6.1 kmh 29.34 in993.6 mb 0.00 in0.0 mm 0.00 in/hr0.0 mm/hr 0.00 in0.0 mm
07:00 AM 56.7°F13.7°C 53.2°F11.8°C 88% 2.1 mph W3.4 kmh W 3.8 mph6.1 kmh 29.34 in993.6 mb 0.00 in0.0 mm 0.00 in/hr0.0 mm/hr 0.00 in0.0 mm
06:59 AM 56.7°F13.7°C 53.5°F11.9°C 89% 1.9 mph WNW3.1 kmh WNW 3.1 mph5.0 kmh 29.34 in993.6 mb 0.00 in0.0 mm 0.00 in/hr0.0 mm/hr 0.00 in0.0 mm
06:58 AM 56.5°F13.6°C 53.6°F12.0°C 90% 1.8 mph WNW2.9 kmh WNW 3.1 mph5.0 kmh 29.34 in993.6 mb 0.00 in0.0 mm 0.00 in/hr0.0 mm/hr 0.00 in0.0 mm
06:57 AM 56.3°F13.5°C 53.7°F12.1°C 91% 1.9 mph NW3.1 kmh NW 3.1 mph5.0 kmh 29.34 in993.6 mb 0.00 in0.0 mm 0.00 in/hr0.0 mm/hr 0.00 in0.0 mm
06:56 AM 56.1°F13.4°C 53.8°F12.1°C 92% 1.9 mph WNW3.1 kmh WNW 3.1 mph5.0 kmh 29.34 in993.6 mb 0.00 in0.0 mm 0.00 in/hr0.0 mm/hr 0.00 in0.0 mm
06:55 AM 55.9°F13.3°C 53.7°F12.1°C 92% 1.9 mph WNW3.1 kmh WNW 3.1 mph5.0 kmh 29.34 in993.6 mb 0.00 in0.0 mm 0.00 in/hr0.0 mm/hr 0.00 in0.0 mm
06:54 AM 55.8°F13.2°C 53.8°F12.1°C 93% 1.9 mph WNW3.1 kmh WNW 3.1 mph5.0 kmh 29.34 in993.6 mb 0.00 in0.0 mm 0.00 in/hr0.0 mm/hr 0.00 in0.0 mm
06:53 AM 55.4°F13.0°C 53.4°F11.9°C 93% 2.0 mph W3.2 kmh W 3.1 mph5.0 kmh 29.34 in993.6 mb 0.00 in0.0 mm 0.00 in/hr0.0 mm/hr 0.00 in0.0 mm
06:52 AM 55.0°F12.8°C 53.4°F11.9°C 94% 1.9 mph WSW3.1 kmh WSW 2.2 mph3.5 kmh 29.34 in993.6 mb 0.00 in0.0 mm 0.00 in/hr0.0 mm/hr 0.00 in0.0 mm
06:51 AM 54.9°F12.7°C 53.5°F11.9°C 95% 2.0 mph WSW3.2 kmh WSW 3.1 mph5.0 kmh 29.34 in993.6 mb 0.00 in0.0 mm 0.00 in/hr0.0 mm/hr 0.00 in0.0 mm
06:50 AM 54.7°F12.6°C 53.3°F11.8°C 95% 2.0 mph SW3.2 kmh SW 3.1 mph5.0 kmh 29.34 in993.6 mb 0.00 in0.0 mm 0.00 in/hr0.0 mm/hr 0.00 in0.0 mm
06:49 AM 54.3°F12.4°C 53.2°F11.8°C 96% 2.0 mph SW3.2 kmh SW 3.1 mph5.0 kmh 29.34 in993.6 mb 0.00 in0.0 mm 0.00 in/hr0.0 mm/hr 0.00 in0.0 mm
06:48 AM 54.0°F12.2°C 52.9°F11.6°C 96% 2.2 mph SW3.5 kmh SW 3.1 mph5.0 kmh 29.34 in993.6 mb 0.00 in0.0 mm 0.00 in/hr0.0 mm/hr 0.00 in0.0 mm
06:47 AM 53.8°F12.1°C 53.0°F11.7°C 97% 2.4 mph SW3.9 kmh SW 3.1 mph5.0 kmh 29.34 in993.6 mb 0.00 in0.0 mm 0.00 in/hr0.0 mm/hr 0.00 in0.0 mm
06:46 AM 53.6°F12.0°C 52.8°F11.6°C 97% 2.4 mph WSW3.9 kmh WSW 3.1 mph5.0 kmh 29.34 in993.6 mb 0.00 in0.0 mm 0.00 in/hr0.0 mm/hr 0.00 in0.0 mm
06:45 AM 53.4°F11.9°C 52.9°F11.6°C 98% 2.5 mph WSW4.0 kmh WSW 3.1 mph5.0 kmh 29.34 in993.6 mb 0.00 in0.0 mm 0.00 in/hr0.0 mm/hr 0.00 in0.0 mm
06:44 AM 53.1°F11.7°C 52.8°F11.6°C 99% 2.6 mph WSW4.2 kmh WSW 3.1 mph5.0 kmh 29.34 in993.6 mb 0.00 in0.0 mm 0.00 in/hr0.0 mm/hr 0.00 in0.0 mm
06:43 AM 53.1°F11.7°C 52.8°F11.6°C 99% 2.7 mph W4.3 kmh W 3.8 mph6.1 kmh 29.34 in993.6 mb 0.00 in0.0 mm 0.00 in/hr0.0 mm/hr 0.00 in0.0 mm
06:42 AM 52.9°F11.6°C 52.6°F11.4°C 99% 2.9 mph W4.7 kmh W 4.5 mph7.2 kmh 29.34 in993.6 mb 0.00 in0.0 mm 0.00 in/hr0.0 mm/hr 0.00 in0.0 mm
06:41 AM 52.9°F11.6°C 52.6°F11.4°C 99% 2.8 mph WNW4.5 kmh WNW 4.5 mph7.2 kmh 29.34 in993.6 mb 0.00 in0.0 mm 0.00 in/hr0.0 mm/hr 0.00 in0.0 mm
06:40 AM 52.5°F11.4°C 52.3°F11.3°C 99% 2.8 mph WNW4.5 kmh WNW 4.5 mph7.2 kmh 29.34 in993.6 mb 0.00 in0.0 mm 0.00 in/hr0.0 mm/hr 0.00 in0.0 mm
06:39 AM 52.2°F11.2°C 51.9°F11.1°C 99% 2.8 mph WNW4.5 kmh WNW 4.5 mph7.2 kmh 29.34 in993.6 mb 0.00 in0.0 mm 0.00 in/hr0.0 mm/hr 0.00 in0.0 mm
06:38 AM 52.3°F11.3°C 52.1°F11.2°C 99% 2.8 mph WNW4.5 kmh WNW 4.5 mph7.2 kmh 29.34 in993.6 mb 0.00 in0.0 mm 0.00 in/hr0.0 mm/hr 0.00 in0.0 mm
06:37 AM 51.8°F11.0°C 51.5°F10.8°C 99% 2.6 mph WNW4.2 kmh WNW 4.5 mph7.2 kmh 29.34 in993.6 mb 0.00 in0.0 mm 0.00 in/hr0.0 mm/hr 0.00 in0.0 mm
06:36 AM 51.1°F10.6°C 50.8°F10.4°C 99% 2.6 mph WNW4.2 kmh WNW 4.5 mph7.2 kmh 29.34 in993.6 mb 0.00 in0.0 mm 0.00 in/hr0.0 mm/hr 0.00 in0.0 mm
06:35 AM 50.7°F10.4°C 50.5°F10.3°C 99% 2.3 mph WNW3.7 kmh WNW 4.5 mph7.2 kmh 29.34 in993.6 mb 0.00 in0.0 mm 0.00 in/hr0.0 mm/hr 0.00 in0.0 mm
06:34 AM 50.5°F10.3°C 50.3°F10.2°C 99% 2.2 mph WNW3.5 kmh WNW 4.5 mph7.2 kmh 29.34 in993.6 mb 0.00 in0.0 mm 0.00 in/hr0.0 mm/hr 0.00 in0.0 mm
06:33 AM 50.2°F10.1°C 49.9°F9.9°C 99% 2.0 mph W3.2 kmh W 4.5 mph7.2 kmh 29.34 in993.6 mb 0.00 in0.0 mm 0.00 in/hr0.0 mm/hr 0.00 in0.0 mm
06:32 AM 49.5°F9.7°C 49.2°F9.6°C 99% 1.7 mph W2.7 kmh W 3.1 mph5.0 kmh 29.34 in993.6 mb 0.00 in0.0 mm 0.00 in/hr0.0 mm/hr 0.00 in0.0 mm
06:31 AM 49.1°F9.5°C 48.8°F9.3°C 99% 1.7 mph W2.7 kmh W 3.1 mph5.0 kmh 29.33 in993.2 mb 0.00 in0.0 mm 0.00 in/hr0.0 mm/hr 0.00 in0.0 mm
06:30 AM 48.7°F9.3°C 48.5°F9.2°C 99% 1.7 mph W2.7 kmh W 3.1 mph5.0 kmh 29.34 in993.6 mb 0.00 in0.0 mm 0.00 in/hr0.0 mm/hr 0.00 in0.0 mm
06:29 AM 48.6°F9.2°C 48.3°F9.1°C 99% 1.8 mph W2.9 kmh W 3.1 mph5.0 kmh 29.34 in993.6 mb 0.00 in0.0 mm 0.00 in/hr0.0 mm/hr 0.00 in0.0 mm
06:28 AM 48.2°F9.0°C 47.9°F8.8°C 99% 1.8 mph W2.9 kmh W 3.1 mph5.0 kmh 29.33 in993.2 mb 0.00 in0.0 mm 0.00 in/hr0.0 mm/hr 0.00 in0.0 mm
06:27 AM 47.7°F8.7°C 47.4°F8.6°C 99% 1.8 mph W2.9 kmh W 3.1 mph5.0 kmh 29.33 in993.2 mb 0.00 in0.0 mm 0.00 in/hr0.0 mm/hr 0.00 in0.0 mm
06:26 AM 47.3°F8.5°C 47.0°F8.3°C 99% 1.9 mph W3.1 kmh W 3.8 mph6.1 kmh 29.33 in993.2 mb 0.00 in0.0 mm 0.00 in/hr0.0 mm/hr 0.00 in0.0 mm
06:25 AM 47.1°F8.4°C 46.9°F8.3°C 99% 2.1 mph W3.4 kmh W 3.8 mph6.1 kmh 29.33 in993.2 mb 0.00 in0.0 mm 0.00 in/hr0.0 mm/hr 0.00 in0.0 mm
06:24 AM 46.9°F8.3°C 46.7°F8.2°C 99% 2.3 mph W3.7 kmh W 3.8 mph6.1 kmh 29.33 in993.2 mb 0.00 in0.0 mm 0.00 in/hr0.0 mm/hr 0.00 in0.0 mm
06:23 AM 46.6°F8.1°C 46.3°F7.9°C 99% 2.4 mph W3.9 kmh W 3.8 mph6.1 kmh 29.33 in993.2 mb 0.00 in0.0 mm 0.00 in/hr0.0 mm/hr 0.00 in0.0 mm
06:22 AM 46.4°F8.0°C 46.1°F7.8°C 99% 2.5 mph W4.0 kmh W 3.8 mph6.1 kmh 29.33 in993.2 mb 0.00 in0.0 mm 0.00 in/hr0.0 mm/hr 0.00 in0.0 mm
06:21 AM 46.4°F8.0°C 46.1°F7.8°C 99% 2.6 mph W4.2 kmh W 3.8 mph6.1 kmh 29.33 in993.2 mb 0.00 in0.0 mm 0.00 in/hr0.0 mm/hr 0.00 in0.0 mm
06:20 AM 46.2°F7.9°C 46.0°F7.8°C 99% 2.6 mph W4.2 kmh W 3.8 mph6.1 kmh 29.33 in993.2 mb 0.00 in0.0 mm 0.00 in/hr0.0 mm/hr 0.00 in0.0 mm
06:19 AM 46.0°F7.8°C 45.8°F7.7°C 99% 2.6 mph W4.2 kmh W 3.8 mph6.1 kmh 29.33 in993.2 mb 0.00 in0.0 mm 0.00 in/hr0.0 mm/hr 0.00 in0.0 mm
06:18 AM 45.9°F7.7°C 45.6°F7.6°C 99% 2.5 mph W4.0 kmh W 3.8 mph6.1 kmh 29.34 in993.6 mb 0.00 in0.0 mm 0.00 in/hr0.0 mm/hr 0.00 in0.0 mm
06:17 AM 45.9°F7.7°C 45.6°F7.6°C 99% 2.6 mph W4.2 kmh W 3.8 mph6.1 kmh 29.33 in993.2 mb 0.00 in0.0 mm 0.00 in/hr0.0 mm/hr 0.00 in0.0 mm
06:16 AM 45.9°F7.7°C 45.6°F7.6°C 99% 2.4 mph W3.9 kmh W 3.8 mph6.1 kmh 29.33 in993.2 mb 0.00 in0.0 mm 0.00 in/hr0.0 mm/hr 0.00 in0.0 mm
06:15 AM 45.7°F7.6°C 45.4°F7.4°C 99% 2.2 mph W3.5 kmh W 3.8 mph6.1 kmh 29.34 in993.6 mb 0.00 in0.0 mm 0.00 in/hr0.0 mm/hr 0.00 in0.0 mm
06:14 AM 45.7°F7.6°C 45.4°F7.4°C 99% 2.0 mph W3.2 kmh W 3.8 mph6.1 kmh 29.33 in993.2 mb 0.00 in0.0 mm 0.00 in/hr0.0 mm/hr 0.00 in0.0 mm
06:13 AM 45.7°F7.6°C 45.4°F7.4°C 99% 1.7 mph W2.7 kmh W 3.8 mph6.1 kmh 29.33 in993.2 mb 0.00 in0.0 mm 0.00 in/hr0.0 mm/hr 0.00 in0.0 mm
06:12 AM 45.7°F7.6°C 45.4°F7.4°C 99% 1.4 mph W2.3 kmh W 3.8 mph6.1 kmh 29.33 in993.2 mb 0.00 in0.0 mm 0.00 in/hr0.0 mm/hr 0.00 in0.0 mm
06:11 AM 45.5°F7.5°C 45.2°F7.3°C 99% 1.3 mph W2.1 kmh W 3.8 mph6.1 kmh 29.33 in993.2 mb 0.00 in0.0 mm 0.00 in/hr0.0 mm/hr 0.00 in0.0 mm
06:10 AM 45.5°F7.5°C 45.2°F7.3°C 99% 1.0 mph WSW1.6 kmh WSW 3.8 mph6.1 kmh 29.33 in993.2 mb 0.00 in0.0 mm 0.00 in/hr0.0 mm/hr 0.00 in0.0 mm
06:09 AM 45.5°F7.5°C 45.2°F7.3°C 99% 0.8 mph WSW1.3 kmh WSW 2.2 mph3.5 kmh 29.33 in993.2 mb 0.00 in0.0 mm 0.00 in/hr0.0 mm/hr 0.00 in0.0 mm
06:08 AM 45.5°F7.5°C 45.2°F7.3°C 99% 0.5 mph WSW0.8 kmh WSW 2.2 mph3.5 kmh 29.33 in993.2 mb 0.00 in0.0 mm 0.00 in/hr0.0 mm/hr 0.00 in0.0 mm
06:07 AM 45.3°F7.4°C 45.1°F7.3°C 99% 0.3 mph WSW0.5 kmh WSW 1.6 mph2.6 kmh 29.33 in993.2 mb 0.00 in0.0 mm 0.00 in/hr0.0 mm/hr 0.00 in0.0 mm
06:06 AM 45.3°F7.4°C 45.1°F7.3°C 99% 0.2 mph SW0.3 kmh SW 0.7 mph1.1 kmh 29.33 in993.2 mb 0.00 in0.0 mm 0.00 in/hr0.0 mm/hr 0.00 in0.0 mm
06:05 AM 45.3°F7.4°C 45.1°F7.3°C 99% 0.3 mph SW0.5 kmh SW 0.7 mph1.1 kmh 29.33 in993.2 mb 0.00 in0.0 mm 0.00 in/hr0.0 mm/hr 0.00 in0.0 mm
06:04 AM 45.3°F7.4°C 45.1°F7.3°C 99% 0.3 mph SW0.5 kmh SW 0.7 mph1.1 kmh 29.33 in993.2 mb 0.00 in0.0 mm 0.00 in/hr0.0 mm/hr 0.00 in0.0 mm
06:03 AM 45.1°F7.3°C 44.9°F7.2°C 99% 0.4 mph SW0.6 kmh SW 1.6 mph2.6 kmh 29.33 in993.2 mb 0.00 in0.0 mm 0.00 in/hr0.0 mm/hr 0.00 in0.0 mm
06:02 AM 45.1°F7.3°C 44.9°F7.2°C 99% 0.5 mph SW0.8 kmh SW 1.6 mph2.6 kmh 29.33 in993.2 mb 0.00 in0.0 mm 0.00 in/hr0.0 mm/hr 0.00 in0.0 mm
06:01 AM 45.1°F7.3°C 44.9°F7.2°C 99% 0.6 mph SW1.0 kmh SW 1.6 mph2.6 kmh 29.33 in993.2 mb 0.00 in0.0 mm 0.00 in/hr0.0 mm/hr 0.00 in0.0 mm
06:00 AM 45.1°F7.3°C 44.9°F7.2°C 99% 0.6 mph SW1.0 kmh SW 1.6 mph2.6 kmh 29.33 in993.2 mb 0.00 in0.0 mm 0.00 in/hr0.0 mm/hr 0.00 in0.0 mm
05:59 AM 45.0°F7.2°C 44.7°F7.1°C 99% 0.7 mph SW1.1 kmh SW 1.6 mph2.6 kmh 29.32 in992.9 mb 0.00 in0.0 mm 0.00 in/hr0.0 mm/hr 0.00 in0.0 mm
05:58 AM 45.0°F7.2°C 44.7°F7.1°C 99% 0.8 mph SW1.3 kmh SW 1.6 mph2.6 kmh 29.33 in993.2 mb 0.00 in0.0 mm 0.00 in/hr0.0 mm/hr 0.00 in0.0 mm
05:57 AM 45.0°F7.2°C 44.7°F7.1°C 99% 0.9 mph SW1.4 kmh SW 1.6 mph2.6 kmh 29.33 in993.2 mb 0.00 in0.0 mm 0.00 in/hr0.0 mm/hr 0.00 in0.0 mm
05:56 AM 44.8°F7.1°C 44.5°F6.9°C 99% 1.0 mph SW1.6 kmh SW 1.6 mph2.6 kmh 29.33 in993.2 mb 0.00 in0.0 mm 0.00 in/hr0.0 mm/hr 0.00 in0.0 mm
05:55 AM 44.8°F7.1°C 44.5°F6.9°C 99% 0.9 mph SW1.4 kmh SW 1.6 mph2.6 kmh 29.33 in993.2 mb 0.00 in0.0 mm 0.00 in/hr0.0 mm/hr 0.00 in0.0 mm
05:54 AM 44.8°F7.1°C 44.5°F6.9°C 99% 0.9 mph SW1.4 kmh SW 1.6 mph2.6 kmh 29.32 in992.9 mb 0.00 in0.0 mm 0.00 in/hr0.0 mm/hr 0.00 in0.0 mm
05:53 AM 44.8°F7.1°C 44.5°F6.9°C 99% 1.0 mph SW1.6 kmh SW 2.2 mph3.5 kmh 29.33 in993.2 mb 0.00 in0.0 mm 0.00 in/hr0.0 mm/hr 0.00 in0.0 mm
05:52 AM 44.6°F7.0°C 44.3°F6.8°C 99% 0.9 mph SW1.4 kmh SW 2.2 mph3.5 kmh 29.32 in992.9 mb 0.00 in0.0 mm 0.00 in/hr0.0 mm/hr 0.00 in0.0 mm
05:51 AM 44.6°F7.0°C 44.3°F6.8°C 99% 0.9 mph SW1.4 kmh SW 2.2 mph3.5 kmh 29.33 in993.2 mb 0.00 in0.0 mm 0.00 in/hr0.0 mm/hr 0.00 in0.0 mm
05:50 AM 44.6°F7.0°C 44.3°F6.8°C 99% 0.9 mph SW1.4 kmh SW 2.2 mph3.5 kmh 29.33 in993.2 mb 0.00 in0.0 mm 0.00 in/hr0.0 mm/hr 0.00 in0.0 mm
05:49 AM 44.6°F7.0°C 44.3°F6.8°C 99% 1.0 mph SW1.6 kmh SW 2.2 mph3.5 kmh 29.33 in993.2 mb 0.00 in0.0 mm 0.00 in/hr0.0 mm/hr 0.00 in0.0 mm
05:48 AM 44.4°F6.9°C 44.2°F6.8°C 99% 1.1 mph SW1.8 kmh SW 2.2 mph3.5 kmh 29.33 in993.2 mb 0.00 in0.0 mm 0.00 in/hr0.0 mm/hr 0.00 in0.0 mm
05:47 AM 44.4°F6.9°C 44.2°F6.8°C 99% 1.1 mph WSW1.8 kmh WSW 2.2 mph3.5 kmh 29.33 in993.2 mb 0.00 in0.0 mm 0.00 in/hr0.0 mm/hr 0.00 in0.0 mm
05:46 AM 44.4°F6.9°C 44.2°F6.8°C 99% 1.1 mph WSW1.8 kmh WSW 2.2 mph3.5 kmh 29.33 in993.2 mb 0.00 in0.0 mm 0.00 in/hr0.0 mm/hr 0.00 in0.0 mm
05:45 AM 44.4°F6.9°C 44.2°F6.8°C 99% 1.2 mph WSW1.9 kmh WSW 2.2 mph3.5 kmh 29.32 in992.9 mb 0.00 in0.0 mm 0.00 in/hr0.0 mm/hr 0.00 in0.0 mm
05:44 AM 44.4°F6.9°C 44.2°F6.8°C 99% 1.2 mph WSW1.9 kmh WSW 2.2 mph3.5 kmh 29.32 in992.9 mb 0.00 in0.0 mm 0.00 in/hr0.0 mm/hr 0.00 in0.0 mm
05:43 AM 44.2°F6.8°C 44.0°F6.7°C 99% 1.1 mph W1.8 kmh W 1.6 mph2.6 kmh 29.32 in992.9 mb 0.00 in0.0 mm 0.00 in/hr0.0 mm/hr 0.00 in0.0 mm
05:42 AM 44.2°F6.8°C 44.0°F6.7°C 99% 1.1 mph W1.8 kmh W 1.6 mph2.6 kmh 29.32 in992.9 mb 0.00 in0.0 mm 0.00 in/hr0.0 mm/hr 0.00 in0.0 mm
05:41 AM 44.2°F6.8°C 44.0°F6.7°C 99% 1.0 mph W1.6 kmh W 1.6 mph2.6 kmh 29.32 in992.9 mb 0.00 in0.0 mm 0.00 in/hr0.0 mm/hr 0.00 in0.0 mm
05:40 AM 44.2°F6.8°C 44.0°F6.7°C 99% 0.9 mph W1.4 kmh W 1.6 mph2.6 kmh 29.32 in992.9 mb 0.00 in0.0 mm 0.00 in/hr0.0 mm/hr 0.00 in0.0 mm
05:39 AM 44.1°F6.7°C 43.8°F6.6°C 99% 0.8 mph WNW1.3 kmh WNW 1.6 mph2.6 kmh 29.33 in993.2 mb 0.00 in0.0 mm 0.00 in/hr0.0 mm/hr 0.00 in0.0 mm
05:38 AM 44.1°F6.7°C 43.8°F6.6°C 99% 0.6 mph WNW1.0 kmh WNW 1.6 mph2.6 kmh 29.32 in992.9 mb 0.00 in0.0 mm 0.00 in/hr0.0 mm/hr 0.00 in0.0 mm
05:37 AM 44.1°F6.7°C 43.8°F6.6°C 99% 0.5 mph NW0.8 kmh NW 1.6 mph2.6 kmh 29.32 in992.9 mb 0.00 in0.0 mm 0.00 in/hr0.0 mm/hr 0.00 in0.0 mm
05:36 AM 44.1°F6.7°C 43.8°F6.6°C 99% 0.4 mph NW0.6 kmh NW 1.6 mph2.6 kmh 29.32 in992.9 mb 0.00 in0.0 mm 0.00 in/hr0.0 mm/hr 0.00 in0.0 mm
05:35 AM 44.1°F6.7°C 43.8°F6.6°C 99% 0.2 mph NW0.3 kmh NW 0.7 mph1.1 kmh 29.33 in993.2 mb 0.00 in0.0 mm 0.00 in/hr0.0 mm/hr 0.00 in0.0 mm
05:34 AM 43.9°F6.6°C 43.6°F6.4°C 99% 0.2 mph NW0.3 kmh NW 0.7 mph1.1 kmh 29.33 in993.2 mb 0.00 in0.0 mm 0.00 in/hr0.0 mm/hr 0.00 in0.0 mm
05:33 AM 43.9°F6.6°C 43.6°F6.4°C 99% 0.1 mph NW0.2 kmh NW 0.7 mph1.1 kmh 29.32 in992.9 mb 0.00 in0.0 mm 0.00 in/hr0.0 mm/hr 0.00 in0.0 mm
05:32 AM 43.9°F6.6°C 43.6°F6.4°C 99% Calm Calm 0.7 mph1.1 kmh 29.32 in992.9 mb 0.00 in0.0 mm 0.00 in/hr0.0 mm/hr 0.00 in0.0 mm
05:31 AM 43.9°F6.6°C 43.6°F6.4°C 99% Calm Calm -- 29.32 in992.9 mb 0.00 in0.0 mm 0.00 in/hr0.0 mm/hr 0.00 in0.0 mm
05:30 AM 43.9°F6.6°C 43.6°F6.4°C 99% Calm Calm 0.7 mph1.1 kmh 29.32 in992.9 mb 0.00 in0.0 mm 0.00 in/hr0.0 mm/hr 0.00 in0.0 mm
05:29 AM 43.9°F6.6°C 43.6°F6.4°C 99% 0.1 mph NW0.2 kmh NW 0.7 mph1.1 kmh 29.32 in992.9 mb 0.00 in0.0 mm 0.00 in/hr0.0 mm/hr 0.00 in0.0 mm
05:28 AM 43.9°F6.6°C 43.6°F6.4°C 99% 0.1 mph NW0.2 kmh NW 0.7 mph1.1 kmh 29.33 in993.2 mb 0.00 in0.0 mm 0.00 in/hr0.0 mm/hr 0.00 in0.0 mm
05:27 AM 43.9°F6.6°C 43.6°F6.4°C 99% 0.1 mph NW0.2 kmh NW 0.7 mph1.1 kmh 29.33 in993.2 mb 0.00 in0.0 mm 0.00 in/hr0.0 mm/hr 0.00 in0.0 mm
05:26 AM 43.9°F6.6°C 43.6°F6.4°C 99% 0.1 mph NW0.2 kmh NW 0.7 mph1.1 kmh 29.33 in993.2 mb 0.00 in0.0 mm 0.00 in/hr0.0 mm/hr 0.00 in0.0 mm
05:25 AM 43.9°F6.6°C 43.6°F6.4°C 99% 0.1 mph NW0.2 kmh NW 0.7 mph1.1 kmh 29.33 in993.2 mb 0.00 in0.0 mm 0.00 in/hr0.0 mm/hr 0.00 in0.0 mm
05:24 AM 43.9°F6.6°C 43.6°F6.4°C 99% 0.1 mph NW0.2 kmh NW 0.7 mph1.1 kmh 29.33 in993.2 mb 0.00 in0.0 mm 0.00 in/hr0.0 mm/hr 0.00 in0.0 mm
05:23 AM 43.9°F6.6°C 43.6°F6.4°C 99% 0.2 mph NW0.3 kmh NW 0.7 mph1.1 kmh 29.33 in993.2 mb 0.00 in0.0 mm 0.00 in/hr0.0 mm/hr 0.00 in0.0 mm
05:22 AM 44.1°F6.7°C 43.8°F6.6°C 99% 0.3 mph NW0.5 kmh NW 0.7 mph1.1 kmh 29.33 in993.2 mb 0.00 in0.0 mm 0.00 in/hr0.0 mm/hr 0.00 in0.0 mm
05:21 AM 44.1°F6.7°C 43.8°F6.6°C 99% 0.3 mph NW0.5 kmh NW 0.7 mph1.1 kmh 29.33 in993.2 mb 0.00 in0.0 mm 0.00 in/hr0.0 mm/hr 0.00 in0.0 mm
05:20 AM 44.1°F6.7°C 43.8°F6.6°C 99% 0.2 mph NW0.3 kmh NW 0.7 mph1.1 kmh 29.33 in993.2 mb 0.00 in0.0 mm 0.00 in/hr0.0 mm/hr 0.00 in0.0 mm
05:19 AM 44.1°F6.7°C 43.8°F6.6°C 99% 0.2 mph NW0.3 kmh NW 0.7 mph1.1 kmh 29.33 in993.2 mb 0.00 in0.0 mm 0.00 in/hr0.0 mm/hr 0.00 in0.0 mm
05:18 AM 44.1°F6.7°C 43.8°F6.6°C 99% 0.4 mph NW0.6 kmh NW 1.6 mph2.6 kmh 29.33 in993.2 mb 0.00 in0.0 mm 0.00 in/hr0.0 mm/hr 0.00 in0.0 mm
05:17 AM 44.1°F6.7°C 43.8°F6.6°C 99% 0.6 mph NW1.0 kmh NW 2.2 mph3.5 kmh 29.33 in993.2 mb 0.00 in0.0 mm 0.00 in/hr0.0 mm/hr 0.00 in0.0 mm
05:16 AM 44.1°F6.7°C 43.8°F6.6°C 99% 0.8 mph NW1.3 kmh NW 3.8 mph6.1 kmh 29.33 in993.2 mb 0.00 in0.0 mm 0.00 in/hr0.0 mm/hr 0.00 in0.0 mm
05:15 AM 44.1°F6.7°C 43.8°F6.6°C 99% 1.1 mph NW1.8 kmh NW 3.8 mph6.1 kmh 29.33 in993.2 mb 0.00 in0.0 mm 0.00 in/hr0.0 mm/hr 0.00 in0.0 mm
05:14 AM 44.2°F6.8°C 44.0°F6.7°C 99% 1.3 mph NW2.1 kmh NW 3.8 mph6.1 kmh 29.33 in993.2 mb 0.00 in0.0 mm 0.00 in/hr0.0 mm/hr 0.00 in0.0 mm
05:13 AM 44.2°F6.8°C 44.0°F6.7°C 99% 1.6 mph NW2.6 kmh NW 3.8 mph6.1 kmh 29.33 in993.2 mb 0.00 in0.0 mm 0.00 in/hr0.0 mm/hr 0.00 in0.0 mm
05:12 AM 44.2°F6.8°C 44.0°F6.7°C 99% 1.7 mph NW2.7 kmh NW 3.8 mph6.1 kmh 29.33 in993.2 mb 0.00 in0.0 mm 0.00 in/hr0.0 mm/hr 0.00 in0.0 mm
05:11 AM 44.2°F6.8°C 44.0°F6.7°C 99% 1.9 mph NW3.1 kmh NW 3.8 mph6.1 kmh 29.33 in993.2 mb 0.00 in0.0 mm 0.00 in/hr0.0 mm/hr 0.00 in0.0 mm
05:10 AM 44.2°F6.8°C 44.0°F6.7°C 99% 2.1 mph NW3.4 kmh NW 3.8 mph6.1 kmh 29.33 in993.2 mb 0.00 in0.0 mm 0.00 in/hr0.0 mm/hr 0.00 in0.0 mm
05:09 AM 44.2°F6.8°C 44.0°F6.7°C 99% 2.2 mph NW3.5 kmh NW 3.8 mph6.1 kmh 29.33 in993.2 mb 0.00 in0.0 mm 0.00 in/hr0.0 mm/hr 0.00 in0.0 mm
05:08 AM 44.2°F6.8°C 44.0°F6.7°C 99% 2.1 mph NW3.4 kmh NW 3.8 mph6.1 kmh 29.33 in993.2 mb 0.00 in0.0 mm 0.00 in/hr0.0 mm/hr 0.00 in0.0 mm
05:07 AM 44.2°F6.8°C 44.0°F6.7°C 99% 2.0 mph NW3.2 kmh NW 3.8 mph6.1 kmh 29.33 in993.2 mb 0.00 in0.0 mm 0.00 in/hr0.0 mm/hr 0.00 in0.0 mm
05:06 AM 44.2°F6.8°C 44.0°F6.7°C 99% 1.8 mph NW2.9 kmh NW 3.8 mph6.1 kmh 29.33 in993.2 mb 0.00 in0.0 mm 0.00 in/hr0.0 mm/hr 0.00 in0.0 mm
05:05 AM 44.2°F6.8°C 44.0°F6.7°C 99% 1.7 mph NNW2.7 kmh NNW 3.8 mph6.1 kmh 29.33 in993.2 mb 0.00 in0.0 mm 0.00 in/hr0.0 mm/hr 0.00 in0.0 mm
05:04 AM 44.2°F6.8°C 44.0°F6.7°C 99% 1.7 mph NNW2.7 kmh NNW 3.8 mph6.1 kmh 29.33 in993.2 mb 0.00 in0.0 mm 0.00 in/hr0.0 mm/hr 0.00 in0.0 mm
05:03 AM 44.2°F6.8°C 44.0°F6.7°C 99% 1.6 mph N2.6 kmh N 3.8 mph6.1 kmh 29.33 in993.2 mb 0.00 in0.0 mm 0.00 in/hr0.0 mm/hr 0.00 in0.0 mm
05:02 AM 44.2°F6.8°C 44.0°F6.7°C 99% 1.8 mph NNW2.9 kmh NNW 3.8 mph6.1 kmh 29.33 in993.2 mb 0.00 in0.0 mm 0.00 in/hr0.0 mm/hr 0.00 in0.0 mm
05:01 AM 44.2°F6.8°C 44.0°F6.7°C 99% 1.8 mph NNW2.9 kmh NNW 3.8 mph6.1 kmh 29.33 in993.2 mb 0.00 in0.0 mm 0.00 in/hr0.0 mm/hr 0.00 in0.0 mm
05:00 AM 44.2°F6.8°C 44.0°F6.7°C 99% 1.8 mph NW2.9 kmh NW 3.8 mph6.1 kmh 29.32 in992.9 mb 0.00 in0.0 mm 0.00 in/hr0.0 mm/hr 0.00 in0.0 mm
04:59 AM 44.1°F6.7°C 43.8°F6.6°C 99% 1.9 mph NW3.1 kmh NW 3.8 mph6.1 kmh 29.33 in993.2 mb 0.00 in0.0 mm 0.00 in/hr0.0 mm/hr 0.00 in0.0 mm
04:58 AM 44.1°F6.7°C 43.8°F6.6°C 99% 2.2 mph NNW3.5 kmh NNW 3.8 mph6.1 kmh 29.32 in992.9 mb 0.00 in0.0 mm 0.00 in/hr0.0 mm/hr 0.00 in0.0 mm
04:57 AM 44.1°F6.7°C 43.8°F6.6°C 99% 2.3 mph NNW3.7 kmh NNW 3.8 mph6.1 kmh 29.32 in992.9 mb 0.00 in0.0 mm 0.00 in/hr0.0 mm/hr 0.00 in0.0 mm
04:56 AM 44.1°F6.7°C 43.8°F6.6°C 99% 2.5 mph N4.0 kmh N 3.8 mph6.1 kmh 29.32 in992.9 mb 0.00 in0.0 mm 0.00 in/hr0.0 mm/hr 0.00 in0.0 mm
04:55 AM 43.9°F6.6°C 43.6°F6.4°C 99% 2.7 mph N4.3 kmh N 3.8 mph6.1 kmh 29.32 in992.9 mb 0.00 in0.0 mm 0.00 in/hr0.0 mm/hr 0.00 in0.0 mm
04:54 AM 43.9°F6.6°C 43.6°F6.4°C 99% 2.8 mph N4.5 kmh N 3.8 mph6.1 kmh 29.32 in992.9 mb 0.00 in0.0 mm 0.00 in/hr0.0 mm/hr 0.00 in0.0 mm
04:53 AM 43.9°F6.6°C 43.6°F6.4°C 99% 2.9 mph N4.7 kmh N 3.8 mph6.1 kmh 29.32 in992.9 mb 0.00 in0.0 mm 0.00 in/hr0.0 mm/hr 0.00 in0.0 mm
04:52 AM 43.7°F6.5°C 43.4°F6.3°C 99% 3.0 mph NNE4.8 kmh NNE 4.5 mph7.2 kmh 29.32 in992.9 mb 0.00 in0.0 mm 0.00 in/hr0.0 mm/hr 0.00 in0.0 mm
04:51 AM 43.7°F6.5°C 43.4°F6.3°C 99% 3.0 mph NNE4.8 kmh NNE 4.5 mph7.2 kmh 29.32 in992.9 mb 0.00 in0.0 mm 0.00 in/hr0.0 mm/hr 0.00 in0.0 mm
04:50 AM 43.5°F6.4°C 43.3°F6.3°C 99% 3.3 mph NNE5.3 kmh NNE 4.5 mph7.2 kmh 29.32 in992.9 mb 0.00 in0.0 mm 0.00 in/hr0.0 mm/hr 0.00 in0.0 mm
04:49 AM 43.5°F6.4°C 43.3°F6.3°C 99% 3.3 mph NNE5.3 kmh NNE 4.5 mph7.2 kmh 29.32 in992.9 mb 0.00 in0.0 mm 0.00 in/hr0.0 mm/hr 0.00 in0.0 mm
04:48 AM 43.3°F6.3°C 43.1°F6.2°C 99% 3.3 mph NE5.3 kmh NE 4.5 mph7.2 kmh 29.32 in992.9 mb 0.00 in0.0 mm 0.00 in/hr0.0 mm/hr 0.00 in0.0 mm
04:47 AM 43.3°F6.3°C 43.1°F6.2°C 99% 3.4 mph NE5.5 kmh NE 4.5 mph7.2 kmh 29.32 in992.9 mb 0.00 in0.0 mm 0.00 in/hr0.0 mm/hr 0.00 in0.0 mm
04:46 AM 43.2°F6.2°C 42.9°F6.1°C 99% 3.4 mph NE5.5 kmh NE 4.5 mph7.2 kmh 29.32 in992.9 mb 0.00 in0.0 mm 0.00 in/hr0.0 mm/hr 0.00 in0.0 mm
04:45 AM 43.2°F6.2°C 42.9°F6.1°C 99% 3.5 mph NE5.6 kmh NE 4.5 mph7.2 kmh 29.32 in992.9 mb 0.00 in0.0 mm 0.00 in/hr0.0 mm/hr 0.00 in0.0 mm
04:44 AM 43.2°F6.2°C 42.9°F6.1°C 99% 3.7 mph NE6.0 kmh NE 5.4 mph8.7 kmh 29.32 in992.9 mb 0.00 in0.0 mm 0.00 in/hr0.0 mm/hr 0.00 in0.0 mm
04:43 AM 43.0°F6.1°C 42.7°F5.9°C 99% 3.7 mph NE6.0 kmh NE 5.4 mph8.7 kmh 29.32 in992.9 mb 0.00 in0.0 mm 0.00 in/hr0.0 mm/hr 0.00 in0.0 mm
04:42 AM 42.8°F6.0°C 42.5°F5.8°C 99% 3.7 mph NE6.0 kmh NE 5.4 mph8.7 kmh 29.32 in992.9 mb 0.00 in0.0 mm 0.00 in/hr0.0 mm/hr 0.00 in0.0 mm
04:41 AM 42.8°F6.0°C 42.5°F5.8°C 99% 3.8 mph NE6.1 kmh NE 5.4 mph8.7 kmh 29.32 in992.9 mb 0.00 in0.0 mm 0.00 in/hr0.0 mm/hr 0.00 in0.0 mm
04:40 AM 42.6°F5.9°C 42.4°F5.8°C 99% 3.8 mph NE6.1 kmh NE 5.4 mph8.7 kmh 29.32 in992.9 mb 0.00 in0.0 mm 0.00 in/hr0.0 mm/hr 0.00 in0.0 mm
04:39 AM 42.4°F5.8°C 42.2°F5.7°C 99% 3.7 mph NE6.0 kmh NE 5.4 mph8.7 kmh 29.32 in992.9 mb 0.00 in0.0 mm 0.00 in/hr0.0 mm/hr 0.00 in0.0 mm
04:38 AM 42.3°F5.7°C 42.0°F5.6°C 99% 3.6 mph NE5.8 kmh NE 5.4 mph8.7 kmh 29.32 in992.9 mb 0.00 in0.0 mm 0.00 in/hr0.0 mm/hr 0.00 in0.0 mm
04:37 AM 42.3°F5.7°C 42.0°F5.6°C 99% 3.4 mph NE5.5 kmh NE 5.4 mph8.7 kmh 29.32 in992.9 mb 0.00 in0.0 mm 0.00 in/hr0.0 mm/hr 0.00 in0.0 mm
04:36 AM 42.1°F5.6°C 41.8°F5.4°C 99% 3.4 mph NE5.5 kmh NE 5.4 mph8.7 kmh 29.32 in992.9 mb 0.00 in0.0 mm 0.00 in/hr0.0 mm/hr 0.00 in0.0 mm
04:35 AM 42.1°F5.6°C 41.8°F5.4°C 99% 3.1 mph NE5.0 kmh NE 5.4 mph8.7 kmh 29.32 in992.9 mb 0.00 in0.0 mm 0.00 in/hr0.0 mm/hr 0.00 in0.0 mm
04:34 AM 41.9°F5.5°C 41.6°F5.3°C 99% 2.7 mph NE4.3 kmh NE 4.5 mph7.2 kmh 29.32 in992.9 mb 0.00 in0.0 mm 0.00 in/hr0.0 mm/hr 0.00 in0.0 mm
04:33 AM 41.9°F5.5°C 41.6°F5.3°C 99% 2.3 mph NE3.7 kmh NE 4.5 mph7.2 kmh 29.31 in992.6 mb 0.00 in0.0 mm 0.00 in/hr0.0 mm/hr 0.00 in0.0 mm
04:32 AM 41.9°F5.5°C 41.6°F5.3°C 99% 2.0 mph NE3.2 kmh NE 3.8 mph6.1 kmh 29.32 in992.9 mb 0.00 in0.0 mm 0.00 in/hr0.0 mm/hr 0.00 in0.0 mm
04:31 AM 41.7°F5.4°C 41.5°F5.3°C 99% 1.8 mph NE2.9 kmh NE 3.8 mph6.1 kmh 29.32 in992.9 mb 0.00 in0.0 mm 0.00 in/hr0.0 mm/hr 0.00 in0.0 mm
04:30 AM 41.7°F5.4°C 41.5°F5.3°C 99% 1.6 mph NE2.6 kmh NE 3.8 mph6.1 kmh 29.32 in992.9 mb 0.00 in0.0 mm 0.00 in/hr0.0 mm/hr 0.00 in0.0 mm
04:29 AM 41.7°F5.4°C 41.5°F5.3°C 99% 1.6 mph NNE2.6 kmh NNE 3.8 mph6.1 kmh 29.32 in992.9 mb 0.00 in0.0 mm 0.00 in/hr0.0 mm/hr 0.00 in0.0 mm
04:28 AM 41.7°F5.4°C 41.5°F5.3°C 99% 1.6 mph NNE2.6 kmh NNE 3.8 mph6.1 kmh 29.31 in992.6 mb 0.00 in0.0 mm 0.00 in/hr0.0 mm/hr 0.00 in0.0 mm
04:27 AM 41.7°F5.4°C 41.5°F5.3°C 99% 1.6 mph NNE2.6 kmh NNE 3.8 mph6.1 kmh 29.31 in992.6 mb 0.00 in0.0 mm 0.00 in/hr0.0 mm/hr 0.00 in0.0 mm
04:26 AM 41.7°F5.4°C 41.5°F5.3°C 99% 1.5 mph N2.4 kmh N 2.2 mph3.5 kmh 29.32 in992.9 mb 0.00 in0.0 mm 0.00 in/hr0.0 mm/hr 0.00 in0.0 mm
04:25 AM 41.7°F5.4°C 41.5°F5.3°C 99% 1.6 mph N2.6 kmh N 2.2 mph3.5 kmh 29.31 in992.6 mb 0.00 in0.0 mm 0.00 in/hr0.0 mm/hr 0.00 in0.0 mm
04:24 AM 41.7°F5.4°C 41.5°F5.3°C 99% 1.7 mph N2.7 kmh N 2.2 mph3.5 kmh 29.31 in992.6 mb 0.00 in0.0 mm 0.00 in/hr0.0 mm/hr 0.00 in0.0 mm
04:23 AM 41.7°F5.4°C 41.5°F5.3°C 99% 1.8 mph NNW2.9 kmh NNW 2.2 mph3.5 kmh 29.31 in992.6 mb 0.00 in0.0 mm 0.00 in/hr0.0 mm/hr 0.00 in0.0 mm
04:22 AM 41.7°F5.4°C 41.5°F5.3°C 99% 1.9 mph NNW3.1 kmh NNW 2.2 mph3.5 kmh 29.31 in992.6 mb 0.00 in0.0 mm 0.00 in/hr0.0 mm/hr 0.00 in0.0 mm
04:21 AM 41.7°F5.4°C 41.5°F5.3°C 99% 2.0 mph NNW3.2 kmh NNW 2.2 mph3.5 kmh 29.32 in992.9 mb 0.00 in0.0 mm 0.00 in/hr0.0 mm/hr 0.00 in0.0 mm
04:20 AM 41.7°F5.4°C 41.5°F5.3°C 99% 2.0 mph NW3.2 kmh NW 2.2 mph3.5 kmh 29.31 in992.6 mb 0.00 in0.0 mm 0.00 in/hr0.0 mm/hr 0.00 in0.0 mm
04:19 AM 41.7°F5.4°C 41.5°F5.3°C 99% 2.0 mph WNW3.2 kmh WNW 2.2 mph3.5 kmh 29.31 in992.6 mb 0.00 in0.0 mm 0.00 in/hr0.0 mm/hr 0.00 in0.0 mm
04:18 AM 41.7°F5.4°C 41.5°F5.3°C 99% 2.0 mph W3.2 kmh W 2.2 mph3.5 kmh 29.32 in992.9 mb 0.00 in0.0 mm 0.00 in/hr0.0 mm/hr 0.00 in0.0 mm
04:17 AM 41.7°F5.4°C 41.5°F5.3°C 99% 2.0 mph WSW3.2 kmh WSW 2.2 mph3.5 kmh 29.31 in992.6 mb 0.00 in0.0 mm 0.00 in/hr0.0 mm/hr 0.00 in0.0 mm
04:16 AM 41.7°F5.4°C 41.5°F5.3°C 99% 2.1 mph WSW3.4 kmh WSW 2.2 mph3.5 kmh 29.32 in992.9 mb 0.00 in0.0 mm 0.00 in/hr0.0 mm/hr 0.00 in0.0 mm
04:15 AM 41.5°F5.3°C 41.3°F5.2°C 99% 2.1 mph W3.4 kmh W 2.2 mph3.5 kmh 29.32 in992.9 mb 0.00 in0.0 mm 0.00 in/hr0.0 mm/hr 0.00 in0.0 mm
04:12 AM 41.5°F5.3°C 41.3°F5.2°C 99% 2.0 mph WSW3.2 kmh WSW 2.2 mph3.5 kmh 29.32 in992.9 mb 0.00 in0.0 mm 0.00 in/hr0.0 mm/hr 0.00 in0.0 mm
04:10 AM 41.4°F5.2°C 41.1°F5.1°C 99% 1.8 mph WSW2.9 kmh WSW 2.2 mph3.5 kmh 29.32 in992.9 mb 0.00 in0.0 mm 0.00 in/hr0.0 mm/hr 0.00 in0.0 mm
04:09 AM 41.4°F5.2°C 41.1°F5.1°C 99% 1.7 mph W2.7 kmh W 2.2 mph3.5 kmh 29.32 in992.9 mb 0.00 in0.0 mm 0.00 in/hr0.0 mm/hr 0.00 in0.0 mm
04:08 AM 41.5°F5.3°C 41.3°F5.2°C 99% 1.4 mph WNW2.3 kmh WNW 2.2 mph3.5 kmh 29.32 in992.9 mb 0.00 in0.0 mm 0.00 in/hr0.0 mm/hr 0.00 in0.0 mm
04:07 AM 41.4°F5.2°C 41.1°F5.1°C 99% 1.3 mph NW2.1 kmh NW 2.2 mph3.5 kmh 29.31 in992.6 mb 0.00 in0.0 mm 0.00 in/hr0.0 mm/hr 0.00 in0.0 mm
04:06 AM 41.4°F5.2°C 41.1°F5.1°C 99% 1.2 mph N1.9 kmh N 2.2 mph3.5 kmh 29.31 in992.6 mb 0.00 in0.0 mm 0.00 in/hr0.0 mm/hr 0.00 in0.0 mm
04:05 AM 41.4°F5.2°C 41.1°F5.1°C 99% 1.2 mph N1.9 kmh N 2.2 mph3.5 kmh 29.32 in992.9 mb 0.00 in0.0 mm 0.00 in/hr0.0 mm/hr 0.00 in0.0 mm
04:04 AM 41.4°F5.2°C 41.1°F5.1°C 99% 1.1 mph NE1.8 kmh NE 2.2 mph3.5 kmh 29.32 in992.9 mb 0.00 in0.0 mm 0.00 in/hr0.0 mm/hr 0.00 in0.0 mm
04:03 AM 41.4°F5.2°C 41.1°F5.1°C 99% 0.9 mph SE1.4 kmh SE 2.2 mph3.5 kmh 29.32 in992.9 mb 0.00 in0.0 mm 0.00 in/hr0.0 mm/hr 0.00 in0.0 mm
04:02 AM 41.4°F5.2°C 41.1°F5.1°C 99% 0.8 mph SSE1.3 kmh SSE 1.6 mph2.6 kmh 29.31 in992.6 mb 0.00 in0.0 mm 0.00 in/hr0.0 mm/hr 0.00 in0.0 mm
04:01 AM 41.4°F5.2°C 41.1°F5.1°C 99% 0.9 mph N1.4 kmh N 2.2 mph3.5 kmh 29.31 in992.6 mb 0.00 in0.0 mm 0.00 in/hr0.0 mm/hr 0.00 in0.0 mm
04:00 AM 41.4°F5.2°C 41.1°F5.1°C 99% 0.9 mph W1.4 kmh W 2.2 mph3.5 kmh 29.31 in992.6 mb 0.00 in0.0 mm 0.00 in/hr0.0 mm/hr 0.00 in0.0 mm
03:59 AM 41.4°F5.2°C 41.1°F5.1°C 99% 0.9 mph W1.4 kmh W 2.2 mph3.5 kmh 29.31 in992.6 mb 0.00 in0.0 mm 0.00 in/hr0.0 mm/hr 0.00 in0.0 mm
03:58 AM 41.4°F5.2°C 41.1°F5.1°C 99% 0.9 mph W1.4 kmh W 2.2 mph3.5 kmh 29.31 in992.6 mb 0.00 in0.0 mm 0.00 in/hr0.0 mm/hr 0.00 in0.0 mm
03:57 AM 41.4°F5.2°C 41.1°F5.1°C 99% 0.8 mph WNW1.3 kmh WNW 2.2 mph3.5 kmh 29.31 in992.6 mb 0.00 in0.0 mm 0.00 in/hr0.0 mm/hr 0.00 in0.0 mm
03:56 AM 41.4°F5.2°C 41.1°F5.1°C 99% 0.8 mph W1.3 kmh W 2.2 mph3.5 kmh 29.31 in992.6 mb 0.00 in0.0 mm 0.00 in/hr0.0 mm/hr 0.00 in0.0 mm
03:55 AM 41.4°F5.2°C 41.1°F5.1°C 99% 0.8 mph W1.3 kmh W 2.2 mph3.5 kmh 29.31 in992.6 mb 0.00 in0.0 mm 0.00 in/hr0.0 mm/hr 0.00 in0.0 mm
03:54 AM 41.2°F5.1°C 40.9°F4.9°C 99% 0.6 mph W1.0 kmh W 2.2 mph3.5 kmh 29.31 in992.6 mb 0.00 in0.0 mm 0.00 in/hr0.0 mm/hr 0.00 in0.0 mm
03:53 AM 41.4°F5.2°C 41.1°F5.1°C 99% 0.6 mph W1.0 kmh W 2.2 mph3.5 kmh 29.31 in992.6 mb 0.00 in0.0 mm 0.00 in/hr0.0 mm/hr 0.00 in0.0 mm
03:52 AM 41.2°F5.1°C 40.9°F4.9°C 99% 0.6 mph WSW1.0 kmh WSW 2.2 mph3.5 kmh 29.31 in992.6 mb 0.00 in0.0 mm 0.00 in/hr0.0 mm/hr 0.00 in0.0 mm
03:51 AM 41.2°F5.1°C 40.9°F4.9°C 99% 0.4 mph SW0.6 kmh SW 1.6 mph2.6 kmh 29.31 in992.6 mb 0.00 in0.0 mm 0.00 in/hr0.0 mm/hr 0.00 in0.0 mm
03:50 AM 41.2°F5.1°C 40.9°F4.9°C 99% 0.2 mph SW0.3 kmh SW 1.6 mph2.6 kmh 29.31 in992.6 mb 0.00 in0.0 mm 0.00 in/hr0.0 mm/hr 0.00 in0.0 mm
03:49 AM 41.2°F5.1°C 40.9°F4.9°C 99% 0.2 mph SW0.3 kmh SW 1.6 mph2.6 kmh 29.31 in992.6 mb 0.00 in0.0 mm 0.00 in/hr0.0 mm/hr 0.00 in0.0 mm
03:48 AM 41.2°F5.1°C 40.9°F4.9°C 99% 0.3 mph SSW0.5 kmh SSW 1.6 mph2.6 kmh 29.31 in992.6 mb 0.00 in0.0 mm 0.00 in/hr0.0 mm/hr 0.00 in0.0 mm
03:47 AM 41.2°F5.1°C 40.9°F4.9°C 99% 0.4 mph SSW0.6 kmh SSW 1.6 mph2.6 kmh 29.31 in992.6 mb 0.00 in0.0 mm 0.00 in/hr0.0 mm/hr 0.00 in0.0 mm
03:46 AM 41.2°F5.1°C 40.9°F4.9°C 99% 0.4 mph SSW0.6 kmh SSW 1.6 mph2.6 kmh 29.31 in992.6 mb 0.00 in0.0 mm 0.00 in/hr0.0 mm/hr 0.00 in0.0 mm
03:45 AM 41.2°F5.1°C 40.9°F4.9°C 99% 0.4 mph SSW0.6 kmh SSW 1.6 mph2.6 kmh 29.31 in992.6 mb 0.00 in0.0 mm 0.00 in/hr0.0 mm/hr 0.00 in0.0 mm
03:44 AM 41.2°F5.1°C 40.7°F4.8°C 98% 0.6 mph SSW1.0 kmh SSW 1.6 mph2.6 kmh 29.31 in992.6 mb 0.00 in0.0 mm 0.00 in/hr0.0 mm/hr 0.00 in0.0 mm
03:43 AM 41.2°F5.1°C 40.7°F4.8°C 98% 0.7 mph SW1.1 kmh SW 1.6 mph2.6 kmh 29.31 in992.6 mb 0.00 in0.0 mm 0.00 in/hr0.0 mm/hr 0.00 in0.0 mm
03:42 AM 41.2°F5.1°C 40.7°F4.8°C 98% 0.7 mph SW1.1 kmh SW 1.6 mph2.6 kmh 29.31 in992.6 mb 0.00 in0.0 mm 0.00 in/hr0.0 mm/hr 0.00 in0.0 mm
03:41 AM 41.4°F5.2°C 40.8°F4.9°C 98% 0.8 mph SW1.3 kmh SW 1.6 mph2.6 kmh 29.31 in992.6 mb 0.00 in0.0 mm 0.00 in/hr0.0 mm/hr 0.00 in0.0 mm
03:40 AM 41.4°F5.2°C 40.8°F4.9°C 98% 0.8 mph SW1.3 kmh SW 1.6 mph2.6 kmh 29.31 in992.6 mb 0.00 in0.0 mm 0.00 in/hr0.0 mm/hr 0.00 in0.0 mm
03:39 AM 41.4°F5.2°C 40.8°F4.9°C 98% 0.9 mph SW1.4 kmh SW 1.6 mph2.6 kmh 29.30 in992.2 mb 0.00 in0.0 mm 0.00 in/hr0.0 mm/hr 0.00 in0.0 mm
03:38 AM 41.4°F5.2°C 40.8°F4.9°C 98% 1.0 mph SW1.6 kmh SW 1.6 mph2.6 kmh 29.31 in992.6 mb 0.00 in0.0 mm 0.00 in/hr0.0 mm/hr 0.00 in0.0 mm
03:37 AM 41.4°F5.2°C 40.8°F4.9°C 98% 0.9 mph SW1.4 kmh SW 1.6 mph2.6 kmh 29.31 in992.6 mb 0.00 in0.0 mm 0.00 in/hr0.0 mm/hr 0.00 in0.0 mm
03:36 AM 41.4°F5.2°C 40.8°F4.9°C 98% 0.9 mph SW1.4 kmh SW 1.6 mph2.6 kmh 29.31 in992.6 mb 0.00 in0.0 mm 0.00 in/hr0.0 mm/hr 0.00 in0.0 mm
03:35 AM 41.4°F5.2°C 40.8°F4.9°C 98% 1.0 mph SW1.6 kmh SW 2.2 mph3.5 kmh 29.32 in992.9 mb 0.00 in0.0 mm 0.00 in/hr0.0 mm/hr 0.00 in0.0 mm
03:34 AM 41.4°F5.2°C 40.8°F4.9°C 98% 1.0 mph SW1.6 kmh SW 2.2 mph3.5 kmh 29.31 in992.6 mb 0.00 in0.0 mm 0.00 in/hr0.0 mm/hr 0.00 in0.0 mm
03:33 AM 41.4°F5.2°C 40.8°F4.9°C 98% 1.1 mph SW1.8 kmh SW 2.2 mph3.5 kmh 29.32 in992.9 mb 0.00 in0.0 mm 0.00 in/hr0.0 mm/hr 0.00 in0.0 mm
03:32 AM 41.5°F5.3°C 41.0°F5.0°C 98% 1.2 mph SW1.9 kmh SW 2.2 mph3.5 kmh 29.31 in992.6 mb 0.00 in0.0 mm 0.00 in/hr0.0 mm/hr 0.00 in0.0 mm
03:31 AM 41.4°F5.2°C 40.8°F4.9°C 98% 1.2 mph SW1.9 kmh SW 2.2 mph3.5 kmh 29.31 in992.6 mb 0.00 in0.0 mm 0.00 in/hr0.0 mm/hr 0.00 in0.0 mm
03:30 AM 41.5°F5.3°C 41.0°F5.0°C 98% 1.2 mph SW1.9 kmh SW 2.2 mph3.5 kmh 29.31 in992.6 mb 0.00 in0.0 mm 0.00 in/hr0.0 mm/hr 0.00 in0.0 mm
03:29 AM 41.5°F5.3°C 41.0°F5.0°C 98% 1.1 mph SW1.8 kmh SW 2.2 mph3.5 kmh 29.31 in992.6 mb 0.00 in0.0 mm 0.00 in/hr0.0 mm/hr 0.00 in0.0 mm
03:28 AM 41.5°F5.3°C 41.0°F5.0°C 98% 1.0 mph SW1.6 kmh SW 2.2 mph3.5 kmh 29.31 in992.6 mb 0.00 in0.0 mm 0.00 in/hr0.0 mm/hr 0.00 in0.0 mm
03:27 AM 41.5°F5.3°C 41.0°F5.0°C 98% 0.9 mph SW1.4 kmh SW 2.2 mph3.5 kmh 29.31 in992.6 mb 0.00 in0.0 mm 0.00 in/hr0.0 mm/hr 0.00 in0.0 mm
03:26 AM 41.5°F5.3°C 41.0°F5.0°C 98% 0.9 mph SW1.4 kmh SW 2.2 mph3.5 kmh 29.31 in992.6 mb 0.00 in0.0 mm 0.00 in/hr0.0 mm/hr 0.00 in0.0 mm
03:25 AM 41.5°F5.3°C 41.0°F5.0°C 98% 0.7 mph WSW1.1 kmh WSW 2.2 mph3.5 kmh 29.31 in992.6 mb 0.00 in0.0 mm 0.00 in/hr0.0 mm/hr 0.00 in0.0 mm
03:24 AM 41.5°F5.3°C 41.0°F5.0°C 98% 0.6 mph NNW1.0 kmh NNW 1.6 mph2.6 kmh 29.31 in992.6 mb 0.00 in0.0 mm 0.00 in/hr0.0 mm/hr 0.00 in0.0 mm
03:23 AM 41.5°F5.3°C 41.0°F5.0°C 98% 0.5 mph N0.8 kmh N 1.6 mph2.6 kmh 29.31 in992.6 mb 0.00 in0.0 mm 0.00 in/hr0.0 mm/hr 0.00 in0.0 mm
03:22 AM 41.5°F5.3°C 41.0°F5.0°C 98% 0.5 mph N0.8 kmh N 1.6 mph2.6 kmh 29.31 in992.6 mb 0.00 in0.0 mm 0.00 in/hr0.0 mm/hr 0.00 in0.0 mm
03:21 AM 41.5°F5.3°C 41.0°F5.0°C 98% 0.6 mph N1.0 kmh N 1.6 mph2.6 kmh 29.31 in992.6 mb 0.00 in0.0 mm 0.00 in/hr0.0 mm/hr 0.00 in0.0 mm
03:20 AM 41.5°F5.3°C 41.0°F5.0°C 98% 0.7 mph N1.1 kmh N 1.6 mph2.6 kmh 29.31 in992.6 mb 0.00 in0.0 mm 0.00 in/hr0.0 mm/hr 0.00 in0.0 mm
03:19 AM 41.5°F5.3°C 41.0°F5.0°C 98% 0.8 mph N1.3 kmh N 1.6 mph2.6 kmh 29.31 in992.6 mb 0.00 in0.0 mm 0.00 in/hr0.0 mm/hr 0.00 in0.0 mm
03:18 AM 41.5°F5.3°C 41.0°F5.0°C 98% 0.9 mph N1.4 kmh N 1.6 mph2.6 kmh 29.31 in992.6 mb 0.00 in0.0 mm 0.00 in/hr0.0 mm/hr 0.00 in0.0 mm
03:17 AM 41.5°F5.3°C 41.0°F5.0°C 98% 0.9 mph N1.4 kmh N 1.6 mph2.6 kmh 29.31 in992.6 mb 0.00 in0.0 mm 0.00 in/hr0.0 mm/hr 0.00 in0.0 mm
03:16 AM 41.5°F5.3°C 41.0°F5.0°C 98% 0.8 mph N1.3 kmh N 1.6 mph2.6 kmh 29.31 in992.6 mb 0.00 in0.0 mm 0.00 in/hr0.0 mm/hr 0.00 in0.0 mm
03:15 AM 41.5°F5.3°C 41.0°F5.0°C 98% 0.9 mph N1.4 kmh N 1.6 mph2.6 kmh 29.31 in992.6 mb 0.00 in0.0 mm 0.00 in/hr0.0 mm/hr 0.00 in0.0 mm
03:14 AM 41.4°F5.2°C 40.8°F4.9°C 98% 0.9 mph N1.4 kmh N 1.6 mph2.6 kmh 29.31 in992.6 mb 0.00 in0.0 mm 0.00 in/hr0.0 mm/hr 0.00 in0.0 mm
03:13 AM 41.5°F5.3°C 41.0°F5.0°C 98% 1.0 mph N1.6 kmh N 1.6 mph2.6 kmh 29.31 in992.6 mb 0.00 in0.0 mm 0.00 in/hr0.0 mm/hr 0.00 in0.0 mm
03:12 AM 41.5°F5.3°C 41.0°F5.0°C 98% 1.0 mph N1.6 kmh N 1.6 mph2.6 kmh 29.31 in992.6 mb 0.00 in0.0 mm 0.00 in/hr0.0 mm/hr 0.00 in0.0 mm
03:11 AM 41.5°F5.3°C 41.0°F5.0°C 98% 0.9 mph N1.4 kmh N 1.6 mph2.6 kmh 29.31 in992.6 mb 0.00 in0.0 mm 0.00 in/hr0.0 mm/hr 0.00 in0.0 mm
03:10 AM 41.4°F5.2°C 40.8°F4.9°C 98% 0.8 mph N1.3 kmh N 1.6 mph2.6 kmh 29.31 in992.6 mb 0.00 in0.0 mm 0.00 in/hr0.0 mm/hr 0.00 in0.0 mm
03:09 AM 41.4°F5.2°C 40.8°F4.9°C 98% 0.8 mph N1.3 kmh N 1.6 mph2.6 kmh 29.31 in992.6 mb 0.00 in0.0 mm 0.00 in/hr0.0 mm/hr 0.00 in0.0 mm
03:08 AM 41.4°F5.2°C 40.8°F4.9°C 98% 0.8 mph N1.3 kmh N 1.6 mph2.6 kmh 29.31 in992.6 mb 0.00 in0.0 mm 0.00 in/hr0.0 mm/hr 0.00 in0.0 mm
03:07 AM 41.4°F5.2°C 40.8°F4.9°C 98% 0.9 mph N1.4 kmh N 1.6 mph2.6 kmh 29.31 in992.6 mb 0.00 in0.0 mm 0.00 in/hr0.0 mm/hr 0.00 in0.0 mm
03:06 AM 41.4°F5.2°C 40.8°F4.9°C 98% 0.9 mph N1.4 kmh N 1.6 mph2.6 kmh 29.31 in992.6 mb 0.00 in0.0 mm 0.00 in/hr0.0 mm/hr 0.00 in0.0 mm
03:05 AM 41.5°F5.3°C 41.0°F5.0°C 98% 0.8 mph N1.3 kmh N 1.6 mph2.6 kmh 29.31 in992.6 mb 0.00 in0.0 mm 0.00 in/hr0.0 mm/hr 0.00 in0.0 mm
03:04 AM 41.4°F5.2°C 40.6°F4.8°C 97% 0.8 mph NNE1.3 kmh NNE 1.6 mph2.6 kmh 29.31 in992.6 mb 0.00 in0.0 mm 0.00 in/hr0.0 mm/hr 0.00 in0.0 mm
03:03 AM 41.4°F5.2°C 40.8°F4.9°C 98% 0.8 mph N1.3 kmh N 1.6 mph2.6 kmh 29.31 in992.6 mb 0.00 in0.0 mm 0.00 in/hr0.0 mm/hr 0.00 in0.0 mm
03:02 AM 41.4°F5.2°C 40.6°F4.8°C 97% 0.9 mph N1.4 kmh N 2.2 mph3.5 kmh 29.31 in992.6 mb 0.00 in0.0 mm 0.00 in/hr0.0 mm/hr 0.00 in0.0 mm
03:01 AM 41.4°F5.2°C 40.8°F4.9°C 98% 1.0 mph NW1.6 kmh NW 2.2 mph3.5 kmh 29.31 in992.6 mb 0.00 in0.0 mm 0.00 in/hr0.0 mm/hr 0.00 in0.0 mm
03:00 AM 41.4°F5.2°C 40.6°F4.8°C 97% 1.1 mph WNW1.8 kmh WNW 2.2 mph3.5 kmh 29.31 in992.6 mb 0.00 in0.0 mm 0.00 in/hr0.0 mm/hr 0.00 in0.0 mm
02:59 AM 41.4°F5.2°C 40.6°F4.8°C 97% 1.2 mph WSW1.9 kmh WSW 2.2 mph3.5 kmh 29.31 in992.6 mb 0.00 in0.0 mm 0.00 in/hr0.0 mm/hr 0.00 in0.0 mm
02:58 AM 41.4°F5.2°C 40.6°F4.8°C 97% 1.2 mph WSW1.9 kmh WSW 2.2 mph3.5 kmh 29.31 in992.6 mb 0.00 in0.0 mm 0.00 in/hr0.0 mm/hr 0.00 in0.0 mm
02:57 AM 41.2°F5.1°C 40.4°F4.7°C 97% 1.2 mph WSW1.9 kmh WSW 2.2 mph3.5 kmh 29.31 in992.6 mb 0.00 in0.0 mm 0.00 in/hr0.0 mm/hr 0.00 in0.0 mm
02:56 AM 41.2°F5.1°C 40.4°F4.7°C 97% 1.3 mph W2.1 kmh W 2.2 mph3.5 kmh 29.31 in992.6 mb 0.00 in0.0 mm 0.00 in/hr0.0 mm/hr 0.00 in0.0 mm
02:55 AM 41.2°F5.1°C 40.4°F4.7°C 97% 1.5 mph W2.4 kmh W 2.2 mph3.5 kmh 29.30 in992.2 mb 0.00 in0.0 mm 0.00 in/hr0.0 mm/hr 0.00 in0.0 mm
02:54 AM 41.2°F5.1°C 40.4°F4.7°C 97% 1.7 mph W2.7 kmh W 2.2 mph3.5 kmh 29.31 in992.6 mb 0.00 in0.0 mm 0.00 in/hr0.0 mm/hr 0.00 in0.0 mm
02:53 AM 41.2°F5.1°C 40.4°F4.7°C 97% 1.8 mph WSW2.9 kmh WSW 2.2 mph3.5 kmh 29.31 in992.6 mb 0.00 in0.0 mm 0.00 in/hr0.0 mm/hr 0.00 in0.0 mm
02:52 AM 41.2°F5.1°C 40.4°F4.7°C 97% 1.9 mph WSW3.1 kmh WSW 2.2 mph3.5 kmh 29.31 in992.6 mb 0.00 in0.0 mm 0.00 in/hr0.0 mm/hr 0.00 in0.0 mm
02:51 AM 41.0°F5.0°C 40.2°F4.6°C 97% 1.9 mph SW3.1 kmh SW 2.2 mph3.5 kmh 29.31 in992.6 mb 0.00 in0.0 mm 0.00 in/hr0.0 mm/hr 0.00 in0.0 mm
02:50 AM 41.0°F5.0°C 40.2°F4.6°C 97% 1.9 mph SW3.1 kmh SW 2.2 mph3.5 kmh 29.31 in992.6 mb 0.00 in0.0 mm 0.00 in/hr0.0 mm/hr 0.00 in0.0 mm
02:49 AM 41.0°F5.0°C 40.2°F4.6°C 97% 1.9 mph SW3.1 kmh SW 2.2 mph3.5 kmh 29.31 in992.6 mb 0.00 in0.0 mm 0.00 in/hr0.0 mm/hr 0.00 in0.0 mm
02:48 AM 41.0°F5.0°C 40.2°F4.6°C 97% 1.8 mph SSW2.9 kmh SSW 2.2 mph3.5 kmh 29.31 in992.6 mb 0.00 in0.0 mm 0.00 in/hr0.0 mm/hr 0.00 in0.0 mm
02:47 AM 41.0°F5.0°C 40.2°F4.6°C 97% 1.7 mph S2.7 kmh S 2.2 mph3.5 kmh 29.31 in992.6 mb 0.00 in0.0 mm 0.00 in/hr0.0 mm/hr 0.00 in0.0 mm
02:46 AM 40.8°F4.9°C 40.0°F4.4°C 97% 1.7 mph S2.7 kmh S 2.2 mph3.5 kmh 29.30 in992.2 mb 0.00 in0.0 mm 0.00 in/hr0.0 mm/hr 0.00 in0.0 mm
02:45 AM 40.8°F4.9°C 39.8°F